Provisional Data: Mill Creek near Lancaster, PA


Please select a monitoring station.
Please select start date.
Please select start date.

Toggle Unit: C/F Toggle Unit: C/F
Sample Time Temperature (C) Temperature (F) Specific Conductivity (mS/cm) pH   Turbidity (NTU+) DO (mg/L)
4/13/2022 12:00:00 AM 14.34 57.812 0.706 6.97 167.6 8.56
4/13/2022 12:15:00 AM 14.27 57.686 0.708 6.95 334.8 8.51
4/13/2022 12:30:00 AM 14.2 57.56 0.711 6.99 144.1 8.52
4/13/2022 12:45:00 AM 14.13 57.434 0.713 6.99 307.8 8.48
4/13/2022 1:00:00 AM 14.07 57.326 0.715 6.85 200 8.52
4/13/2022 1:15:00 AM 14.01 57.218 0.718 6.95 157.8 8.4
4/13/2022 1:30:00 AM 13.94 57.092 0.72 6.97 220.4 8.46
4/13/2022 1:45:00 AM 13.9 57.02 0.723 6.94 232.2 8.28
4/13/2022 2:00:00 AM 13.85 56.93 0.725 6.93 148.6 8.46
4/13/2022 2:15:00 AM 13.81 56.858 0.728 6.93 127.5 8.13
4/13/2022 2:30:00 AM 13.76 56.768 0.73 7 140.4 8.41
4/13/2022 2:45:00 AM 13.71 56.678 0.732 6.95 127 8.52
4/13/2022 3:00:00 AM 13.67 56.606 0.734 6.93 288.5 8.41
4/13/2022 3:15:00 AM 13.63 56.534 0.736 6.92 117.9 8.31
4/13/2022 3:30:00 AM 13.59 56.462 0.737 6.9 144 8.34
4/13/2022 3:45:00 AM 13.55 56.39 0.739 7.02 206.8 8.3
4/13/2022 4:00:00 AM 13.52 56.336 0.741 6.83 148.7 8.45
4/13/2022 4:15:00 AM 13.48 56.264 0.743 6.87 259.1 8.52
4/13/2022 4:30:00 AM 13.45 56.21 0.744 6.83 217.9 8.4
4/13/2022 4:45:00 AM 13.43 56.174 0.746 6.81 162.5 8.34
4/13/2022 5:00:00 AM 13.4 56.12 0.747 6.78 124.7 8.49
4/13/2022 5:15:00 AM 13.37 56.066 0.748 6.87 150.4 8.4
4/13/2022 5:30:00 AM 13.35 56.03 0.749 6.82 150.4 8.28
4/13/2022 5:45:00 AM 13.32 55.976 0.751 6.76 315.6 8.41
4/13/2022 6:00:00 AM 13.3 55.94 0.752 6.78 246 8.44
4/13/2022 6:15:00 AM 13.28 55.904 0.753 6.85 363.2 8.27
4/13/2022 6:30:00 AM 13.25 55.85 0.754 6.79 128 8.46
4/13/2022 6:45:00 AM 13.24 55.832 0.754 6.8 178.4 8.49
4/13/2022 7:00:00 AM 13.22 55.796 0.755 6.61 143.7 8.61
4/13/2022 7:15:00 AM 13.21 55.778 0.529 6.66 123.2 8.64
4/13/2022 7:30:00 AM 13.22 55.796 0.757 6.86 166.4 8.64
4/13/2022 7:45:00 AM 13.21 55.778 0.757 6.73 147.9 8.72
4/13/2022 8:00:00 AM 13.22 55.796 0.757 6.88 149.5 8.78
4/13/2022 8:15:00 AM 13.23 55.814 0.758 6.87 189.6 8.81
4/13/2022 8:30:00 AM 13.26 55.868 0.759 6.85 298.5 8.9
4/13/2022 8:45:00 AM 13.29 55.922 0.759 6.96 128.7 8.94
4/13/2022 9:00:00 AM 13.35 56.03 0.759 6.74 114.2 9.08
4/13/2022 9:15:00 AM 13.41 56.138 0.76 6.82 149.6 9.22
4/13/2022 9:30:00 AM 13.51 56.318 0.761 6.87 179.2 9.35
4/13/2022 9:45:00 AM 13.63 56.534 0.76 6.89 140.5 9.52
4/13/2022 10:00:00 AM 13.8 56.84 0.76 6.84 194.3 9.7
4/13/2022 10:15:00 AM 14 57.2 0.761 6.75 201.9 9.94
4/13/2022 10:30:00 AM 14.19 57.542 0.761 7.26 213.1 10.12
4/13/2022 10:45:00 AM 14.35 57.83 0.762 6.81 146.5 10.35
4/13/2022 11:00:00 AM 14.6 58.28 0.761 6.91 209.3 10.53
4/13/2022 11:15:00 AM 14.74 58.532 0.762 6.57 165.8 10.56
4/13/2022 11:30:00 AM 14.91 58.838 0.762 6.82 137.3 10.82
4/13/2022 11:45:00 AM 15.19 59.342 0.762 6.77 164.9 10.98
4/13/2022 12:00:00 PM 15.29 59.522 0.761 6.84 160.1 11.21
4/13/2022 12:15:00 PM 15.46 59.828 0.761 6.77 137.7 11.34
4/13/2022 12:30:00 PM 15.58 60.044 0.762 6.79 161 11.37
4/13/2022 12:45:00 PM 15.85 60.53 0.761 6.97 287 11.51
4/13/2022 1:00:00 PM 16 60.8 0.762 7.32 326.6 11.52
4/13/2022 1:15:00 PM 16.28 61.304 0.762 6.88 221.9 11.82
4/13/2022 1:30:00 PM 16.44 61.592 0.763 6.91 169.3 11.85
4/13/2022 1:45:00 PM 16.6 61.88 0.763 7.07 128.5 11.89
4/13/2022 2:00:00 PM 16.7 62.06 0.762 6.99 212.6 11.88
4/13/2022 2:15:00 PM 16.74 62.132 0.763 7.13 320 11.88
4/13/2022 2:30:00 PM 16.91 62.438 0.762 7.05 133.5 11.9
4/13/2022 2:45:00 PM 16.98 62.564 0.762 7.1 130 11.81
4/13/2022 3:00:00 PM 17.1 62.78 0.762 7.25 160.9 11.77
4/13/2022 3:15:00 PM 17.2 62.96 0.762 7.27 195 11.73
4/13/2022 3:30:00 PM 17.24 63.032 0.762 7.27 147.8 11.65
4/13/2022 3:45:00 PM 17.31 63.158 0.763 7.34 130.6 11.63
4/13/2022 4:00:00 PM 17.39 63.302 0.762 7.33 76.1 11.55
4/13/2022 4:15:00 PM 17.5 63.5 0.761 7.28 93.08 11.54
4/13/2022 4:30:00 PM 17.58 63.644 0.761 7.34 25.43 11.45
4/13/2022 4:45:00 PM 17.63 63.734 0.761 7.33 95.85 11.31
4/13/2022 5:00:00 PM 17.67 63.806 0.76 7.45 30.3 11.22
4/13/2022 5:15:00 PM 17.67 63.806 0.761 7.37 112.2 11.05
4/13/2022 5:30:00 PM 17.72 63.896 0.76 7.4 87.22 10.94
4/13/2022 5:45:00 PM 17.7 63.86 0.76 7.42 104.2 10.74
4/13/2022 6:00:00 PM 17.74 63.932 0.759 7.34 121.5 10.57
4/13/2022 6:15:00 PM 17.76 63.968 0.758 7.4 72.41 10.49
4/13/2022 6:30:00 PM 17.74 63.932 0.758 7.47 96.47 10.32
4/13/2022 6:45:00 PM 17.76 63.968 0.757 7.5 79.89 10.25
4/13/2022 7:00:00 PM 17.71 63.878 0.757 7.51 76.43 9.93
4/13/2022 7:15:00 PM 17.67 63.806 0.757 7.49 92.38 9.77
4/13/2022 7:30:00 PM 17.63 63.734 0.756 7.58 36.52 9.48
4/13/2022 7:45:00 PM 17.57 63.626 0.756 7.45 76.17 9.31
4/13/2022 8:00:00 PM 17.5 63.5 0.756 7.46 98.44 9.16
4/13/2022 8:15:00 PM 17.44 63.392 0.755 7.46 77.27 9.03
4/13/2022 8:30:00 PM 17.37 63.266 0.755 7.44 89.91 8.85
4/13/2022 8:45:00 PM 17.29 63.122 0.754 7.4 51.97 8.78
4/13/2022 9:00:00 PM 17.22 62.996 0.754 7.33 38.9 8.64
4/13/2022 9:15:00 PM 17.15 62.87 0.753 7.31 36.82 8.52
4/13/2022 9:30:00 PM 17.07 62.726 0.753 7.21 29.05 8.38
4/13/2022 9:45:00 PM 16.99 62.582 0.753 7.36 35.48 8.3
4/13/2022 10:00:00 PM 16.91 62.438 0.752 7.35 25.15 8.2
4/13/2022 10:15:00 PM 16.83 62.294 0.751 7.33 66.94 8.12
4/13/2022 10:30:00 PM 16.76 62.168 0.752 7.33 38.92 7.96
4/13/2022 10:45:00 PM 16.68 62.024 0.751 7.33 84.03 7.94
4/13/2022 11:00:00 PM 16.6 61.88 0.751 7.29 78.7 7.84
4/13/2022 11:15:00 PM 16.53 61.754 0.75 7.27 78.57 7.85
4/13/2022 11:30:00 PM 16.46 61.628 0.749 7.23 47.48 7.76
4/13/2022 11:45:00 PM 16.4 61.52 0.748 7.28 34.55 7.71
4/14/2022 12:00:00 AM 16.34 61.412 0.748 7.19 30.77 7.66
4/14/2022 12:15:00 AM 16.27 61.286 0.748 7.18 43.78 7.69
4/14/2022 12:30:00 AM 16.21 61.178 0.747 7.2 98.29 7.66
4/14/2022 12:45:00 AM 16.15 61.07 0.747 7.23 66.76 7.65
4/14/2022 1:00:00 AM 16.1 60.98 0.747 7.19 89.18 7.63
4/14/2022 1:15:00 AM 16.05 60.89 0.747 7.19 50.6 7.66
4/14/2022 1:30:00 AM 16 60.8 0.747 7.16 50.13 7.56
4/14/2022 1:45:00 AM 15.96 60.728 0.748 7.15 44.34 7.59
4/14/2022 2:00:00 AM 15.93 60.674 0.747 7.12 39.55 7.61
4/14/2022 2:15:00 AM 15.9 60.62 0.748 7.08 87.43 7.57
4/14/2022 2:30:00 AM 15.87 60.566 0.749 7.12 51.63 7.58
4/14/2022 2:45:00 AM 15.84 60.512 0.749 6.99 42.25 7.53
4/14/2022 3:00:00 AM 15.83 60.494 0.75 6.94 100.5 7.48
4/14/2022 3:15:00 AM 15.81 60.458 0.751 7.04 47.48 7.52
4/14/2022 3:30:00 AM 15.8 60.44 0.751 6.97 47.09 7.58
4/14/2022 3:45:00 AM 15.77 60.386 0.752 6.99 51.59 7.56
4/14/2022 4:00:00 AM 15.76 60.368 0.753 6.96 40.93 7.59
4/14/2022 4:15:00 AM 15.74 60.332 0.754 6.98 134 7.62
4/14/2022 4:30:00 AM 15.71 60.278 0.755 7.02 139 7.61
4/14/2022 4:45:00 AM 15.69 60.242 0.755 7.03 68.81 7.6
4/14/2022 5:00:00 AM 15.67 60.206 0.756 7.03 121.1 7.62
4/14/2022 5:15:00 AM 15.65 60.17 0.757 7.07 56.62 7.65
4/14/2022 5:30:00 AM 15.63 60.134 0.757 7.02 52.3 7.61
4/14/2022 5:45:00 AM 15.61 60.098 0.759 7.11 44.17 7.6
4/14/2022 6:00:00 AM 15.59 60.062 0.759 7.03 126.3 7.6
4/14/2022 6:15:00 AM 15.57 60.026 0.76 7.1 106.3 7.64
4/14/2022 6:30:00 AM 15.54 59.972 0.76 7.04 77.96 7.61
4/14/2022 6:45:00 AM 15.52 59.936 0.761 7.06 93.78 7.61
4/14/2022 7:00:00 AM 15.51 59.918 0.761 7.13 52.51 7.65
4/14/2022 7:15:00 AM 15.5 59.9 0.761 7.05 120.8 7.6
4/14/2022 7:30:00 AM 15.49 59.882 0.761 7.07 47.73 7.71
4/14/2022 7:45:00 AM 15.49 59.882 0.761 7.04 85.86 7.78
4/14/2022 8:00:00 AM 15.5 59.9 0.761 7.11 74.09 7.88
4/14/2022 8:15:00 AM 15.52 59.936 0.761 7.03 64.03 7.95
4/14/2022 8:30:00 AM 15.54 59.972 0.761 6.89 138.4 8.03
4/14/2022 8:45:00 AM 15.58 60.044 0.761 7.05 87.98 8.11
4/14/2022 9:00:00 AM 15.62 60.116 0.761 7.03 97.45 8.23
4/14/2022 9:15:00 AM 15.65 60.17 0.761 7.1 63.68 8.34
4/14/2022 9:30:00 AM 15.75 60.35 0.761 7.08 50.25 8.5
4/14/2022 9:45:00 AM 15.86 60.548 0.761 6.99 73.45 8.68
4/14/2022 10:00:00 AM 16.01 60.818 0.761 6.98 58.87 8.75
4/14/2022 10:15:00 AM 16.22 61.196 0.761 6.99 68.22 9.19
4/14/2022 10:30:00 AM 16.43 61.574 0.761 6.97 61.79 9.39
4/14/2022 10:45:00 AM 16.68 62.024 0.761 6.84 86.72 9.67
4/14/2022 11:00:00 AM 16.9 62.42 0.761 7.11 60.21 9.88
4/14/2022 11:15:00 AM 17.13 62.834 0.76 7.23 60.21 10.16
4/14/2022 11:30:00 AM 17.37 63.266 0.761 7.17 75.46 10.42
4/14/2022 11:45:00 AM 17.57 63.626 0.76 7.26 241.9 10.53
4/14/2022 12:00:00 PM 17.72 63.896 0.761 7.24 114.2 10.78
4/14/2022 12:15:00 PM 17.89 64.202 0.76 7.24 165.1 10.82
4/14/2022 12:30:00 PM 18.17 64.706 0.76 7.22 49.01 11.02
4/14/2022 12:45:00 PM 18.36 65.048 0.76 7.12 33.74 11.24
4/14/2022 1:00:00 PM 18.49 65.282 0.761 7.35 61.63 11.31
4/14/2022 1:15:00 PM 18.62 65.516 0.761 7.44 98.06 11.39
4/14/2022 1:30:00 PM 18.59 65.462 0.76 7.32 95.83 11.49
4/14/2022 1:45:00 PM 18.69 65.642 0.76 7.41 60.66 11.43
4/14/2022 2:00:00 PM 18.72 65.696 0.76 7.3 67.07 11.35
4/14/2022 2:15:00 PM 18.76 65.768 0.76 7.52 47.74 11.21
4/14/2022 2:30:00 PM 18.8 65.84 0.759 7.5 41.75 11.14
4/14/2022 2:45:00 PM 18.87 65.966 0.76 7.51 33.04 11.13
4/14/2022 3:00:00 PM 18.87 65.966 0.76 7.56 31.35 11.03
4/14/2022 3:15:00 PM 18.85 65.93 0.758 7.65 36.31 10.89
4/14/2022 3:30:00 PM 18.84 65.912 0.76 7.65 32.63 10.57
4/14/2022 3:45:00 PM 18.82 65.876 0.761 7.6 41.41 10.35
4/14/2022 4:00:00 PM 18.82 65.876 0.758 7.58 35.98 10.26
4/14/2022 4:15:00 PM 18.91 66.038 0.758 7.67 41.1 10.33
4/14/2022 4:30:00 PM 18.89 66.002 0.759 7.64 34.82 10.37
4/14/2022 4:45:00 PM 18.9 66.02 0.759 7.7 34.09 10.33
4/14/2022 5:00:00 PM 18.89 66.002 0.759 7.71 29.66 10.21
4/14/2022 5:15:00 PM 18.85 65.93 0.759 7.71 33.19 10.03
4/14/2022 5:30:00 PM 18.83 65.894 0.759 7.82 29.33 9.92
4/14/2022 5:45:00 PM 18.8 65.84 0.759 7.72 44.62 9.89
4/14/2022 6:00:00 PM 18.77 65.786 0.759 7.75 39.9 9.76
4/14/2022 6:15:00 PM 18.72 65.696 0.759 7.76 53.24 9.61
4/14/2022 6:30:00 PM 18.63 65.534 0.757 7.75 31.48 9.55
4/14/2022 6:45:00 PM 18.53 65.354 0.758 7.79 24.16 9.4
4/14/2022 7:00:00 PM 18.43 65.174 0.758 7.78 47.08 9.2
4/14/2022 7:15:00 PM 18.33 64.994 0.759 7.72 37.08 9.13
4/14/2022 7:30:00 PM 18.25 64.85 0.757 7.74 25.85 8.99
4/14/2022 7:45:00 PM 18.15 64.67 0.758 7.71 36.32 8.87
4/14/2022 8:00:00 PM 18.03 64.454 0.758 7.69 32.17 8.68
4/14/2022 8:15:00 PM 17.9 64.22 0.758 7.65 23.78 8.53
4/14/2022 8:30:00 PM 17.78 64.004 0.757 7.58 22.96 8.48
4/14/2022 8:45:00 PM 17.65 63.77 0.756 7.66 30.21 8.34
4/14/2022 9:00:00 PM 17.52 63.536 0.755 7.64 83.28 8.26
4/14/2022 9:15:00 PM 17.4 63.32 0.754 7.64 21.66 8.15
4/14/2022 9:30:00 PM 17.27 63.086 0.753 7.62 21.29 8.12
4/14/2022 9:45:00 PM 17.14 62.852 0.752 7.65 24.99 8.07
4/14/2022 10:00:00 PM 17.01 62.618 0.749 7.57 24.46 7.98
4/14/2022 10:15:00 PM 16.89 62.402 0.75 7.53 29.29 7.95
4/14/2022 10:30:00 PM 16.77 62.186 0.749 7.48 33.32 7.92
4/14/2022 10:45:00 PM 16.65 61.97 0.747 7.49 24.69 7.84
4/14/2022 11:00:00 PM 16.55 61.79 0.747 7.48 54.77 7.85
4/14/2022 11:15:00 PM 16.44 61.592 0.746 7.49 29.71 7.81
4/14/2022 11:30:00 PM 16.32 61.376 0.745 7.46 31.32 7.79
4/14/2022 11:45:00 PM 16.21 61.178 0.744 7.44 24.67 7.8
4/15/2022 12:00:00 AM 16.1 60.98 0.744 7.42 28.41 7.75
4/15/2022 12:15:00 AM 16 60.8 0.744 7.39 26.37 7.78
4/15/2022 12:30:00 AM 15.9 60.62 0.743 7.37 25.09 7.76
4/15/2022 12:45:00 AM 15.8 60.44 0.742 7.39 24.12 7.74
4/15/2022 1:00:00 AM 15.7 60.26 0.741 7.37 23.32 7.81
4/15/2022 1:15:00 AM 15.61 60.098 0.741 7.39 37.74 7.75
4/15/2022 1:30:00 AM 15.52 59.936 0.741 7.4 24.6 7.79
4/15/2022 1:45:00 AM 15.42 59.756 0.739 7.42 37.87 7.78
4/15/2022 2:00:00 AM 15.33 59.594 0.74 7.43 29.8 7.83
4/15/2022 2:15:00 AM 15.24 59.432 0.74 7.43 26.53 7.87
4/15/2022 2:30:00 AM 15.15 59.27 0.739 7.43 27.45 7.83
4/15/2022 2:45:00 AM 15.06 59.108 0.739 7.42 30.26 7.83
4/15/2022 3:00:00 AM 14.97 58.946 0.739 7.42 25.05 7.89
4/15/2022 3:15:00 AM 14.89 58.802 0.739 7.43 32.02 7.93
4/15/2022 3:30:00 AM 14.8 58.64 0.739 7.38 27.05 7.91
4/15/2022 3:45:00 AM 14.72 58.496 0.74 7.43 33.01 7.98
4/15/2022 4:00:00 AM 14.64 58.352 0.74 7.46 34.49 7.97
4/15/2022 4:15:00 AM 14.56 58.208 0.741 7.54 27.25 7.98
4/15/2022 4:30:00 AM 14.48 58.064 0.742 7.52 28.61 8
4/15/2022 4:45:00 AM 14.4 57.92 0.742 7.54 27.46 8.04
4/15/2022 5:00:00 AM 14.33 57.794 0.743 7.6 27.06 8.09
4/15/2022 5:15:00 AM 14.27 57.686 0.744 7.63 24.19 8.09
4/15/2022 5:30:00 AM 14.2 57.56 0.744 7.66 40.31 8.09
4/15/2022 5:45:00 AM 14.13 57.434 0.745 7.73 29.43 8.1
4/15/2022 6:00:00 AM 14.06 57.308 0.746 7.78 26.63 8.11
4/15/2022 6:15:00 AM 14 57.2 0.731 7.78 29.91 8.11
4/15/2022 6:30:00 AM 13.94 57.092 0.732 7.81 27.01 8.18
4/15/2022 6:45:00 AM 13.88 56.984 0.742 7.83 29.36 8.17
4/15/2022 7:00:00 AM 13.83 56.894 0.701 7.85 23.77 8.19
4/15/2022 7:15:00 AM 13.77 56.786 0.704 7.85 28.04 8.28
4/15/2022 7:30:00 AM 13.72 56.696 0.707 7.82 28.86 8.28
4/15/2022 7:45:00 AM 13.68 56.624 0.71 7.86 31.56 8.28
4/15/2022 8:00:00 AM 13.65 56.57 0.718 7.77 48.08 8.46
4/15/2022 8:15:00 AM 13.63 56.534 0.709 7.75 25.01 8.56
4/15/2022 8:30:00 AM 13.62 56.516 0.715 7.78 32.89 8.67
4/15/2022 8:45:00 AM 13.64 56.552 0.736 7.79 65.9 8.77
4/15/2022 9:00:00 AM 13.65 56.57 0.738 7.66 26.6 8.94
4/15/2022 9:15:00 AM 13.68 56.624 0.738 7.62 40.11 9.02
4/15/2022 9:30:00 AM 13.74 56.732 0.741 7.54 26.36 9.29
4/15/2022 9:45:00 AM 13.81 56.858 0.737 7.53 29.2 9.37
4/15/2022 10:00:00 AM 13.92 57.056 0.708 7.44 26.06 9.67
4/15/2022 10:15:00 AM 14.1 57.38 0.714 7.53 46.76 9.97
4/15/2022 10:30:00 AM 14.3 57.74 0.711 7.39 25.59 10.03
4/15/2022 10:45:00 AM 14.47 58.046 0.735 7.2 27.28 10.34
4/15/2022 11:00:00 AM 14.74 58.532 0.736 7.29 27.75 10.64
4/15/2022 11:15:00 AM 14.84 58.712 0.74 7.2 25.99 10.88
4/15/2022 11:30:00 AM 15.15 59.27 0.706 7.65 29.28 11.07
4/15/2022 11:45:00 AM 15.3 59.54 0.678 7.66 30.01 11.36
4/15/2022 12:00:00 PM 15.46 59.828 0.678 7.64 24.89 11.44
4/15/2022 12:15:00 PM 15.75 60.35 0.723 7.55 26.03 11.67
4/15/2022 12:30:00 PM 15.9 60.62 0.721 7.55 29.46 11.89
4/15/2022 12:45:00 PM 16.14 61.052 0.721 7.41 28.92 11.98
4/15/2022 1:00:00 PM 16.25 61.25 0.72 7.32 27.64 12.07
4/15/2022 1:15:00 PM 16.38 61.484 0.682 7.15 29.73 12.15
4/15/2022 1:30:00 PM 16.67 62.006 0.751 7.09 26.49 12.36
4/15/2022 1:45:00 PM 16.76 62.168 0.749 6.99 27.93 12.41
4/15/2022 2:00:00 PM 17.04 62.672 0.754 6.62 27.14 12.47
4/15/2022 2:15:00 PM 17.13 62.834 0.755 7 45.01 12.65
4/15/2022 2:30:00 PM 17.32 63.176 0.754 6.97 28.55 12.67
4/15/2022 2:45:00 PM 17.46 63.428 0.757 7.27 26.23 12.73
4/15/2022 3:00:00 PM 17.59 63.662 0.761 7.32 28.65 12.66
4/15/2022 3:15:00 PM 17.65 63.77 0.743 7.22 31.15 12.64
4/15/2022 3:30:00 PM 17.75 63.95 0.669 7.45 28.33 12.7
4/15/2022 3:45:00 PM 17.85 64.13 0.689 7.38 54.69 12.63
4/15/2022 4:00:00 PM 17.89 64.202 0.687 7.48 34.79 12.47
4/15/2022 4:15:00 PM 17.91 64.238 0.725 7.48 27.08 12.46
4/15/2022 4:30:00 PM 17.93 64.274 0.719 7.53 29.37 12.3
4/15/2022 4:45:00 PM 17.94 64.292 0.73 7.62 29.33 12.19
4/15/2022 5:00:00 PM 17.93 64.274 0.729 7.68 31.12 11.95
4/15/2022 5:15:00 PM 17.92 64.256 0.735 7.76 52.94 11.83
4/15/2022 5:30:00 PM 17.86 64.148 0.73 7.84 25.94 11.67
4/15/2022 5:45:00 PM 17.79 64.022 0.657 7.89 34.13 11.41
4/15/2022 6:00:00 PM 17.7 63.86 0.659 7.94 41.71 11.24
4/15/2022 6:15:00 PM 17.66 63.788 0.697 7.97 42.94 11.05
4/15/2022 6:30:00 PM 17.63 63.734 0.716 7.96 46.87 10.88
4/15/2022 6:45:00 PM 17.58 63.644 0.692 7.99 38.75 10.7
4/15/2022 7:00:00 PM 17.52 63.536 0.762 8.02 39.8 10.48
4/15/2022 7:15:00 PM 17.42 63.356 0.758 7.95 23.95 10.31
4/15/2022 7:30:00 PM 17.34 63.212 0.764 8.03 24.37 10.18
4/15/2022 7:45:00 PM 17.23 63.014 0.77 8.07 26.05 9.91
4/15/2022 8:00:00 PM 17.13 62.834 0.777 8.14 41.37 9.77
4/15/2022 8:15:00 PM 17.02 62.636 0.714 8.15 36.28 9.58
4/15/2022 8:30:00 PM 16.9 62.42 0.775 8.18 31.64 9.44
4/15/2022 8:45:00 PM 16.78 62.204 0.775 8.2 26.79 9.32
4/15/2022 9:00:00 PM 16.65 61.97 0.776 8.33 29.71 9.1
4/15/2022 9:15:00 PM 16.51 61.718 0.776 8.31 33.08 8.95
4/15/2022 9:30:00 PM 16.36 61.448 0.776 8.33 29.83 8.88
4/15/2022 9:45:00 PM 16.22 61.196 0.745 8.35 41.32 8.7
4/15/2022 10:00:00 PM 16.1 60.98 0.775 8.36 37.42 8.6
4/15/2022 10:15:00 PM 15.94 60.692 0.772 8.36 41.97 8.54
4/15/2022 10:30:00 PM 15.8 60.44 0.773 8.28 38.2 8.46
4/15/2022 10:45:00 PM 15.7 60.26 0.77 8.29 40.2 8.37
4/15/2022 11:00:00 PM 15.54 59.972 0.775 8.29 51.66 8.34
4/15/2022 11:15:00 PM 15.41 59.738 0.774 8.28 38.42 8.27
4/15/2022 11:30:00 PM 15.29 59.522 0.773 8.27 40.1 8.28
4/15/2022 11:45:00 PM 15.16 59.288 0.774 8.26 39.82 8.15
4/16/2022 12:00:00 AM 15.04 59.072 0.779 8.25 45.55 8.07
4/16/2022 12:15:00 AM 14.94 58.892 0.777 8.23 34.33 8.1
4/16/2022 12:30:00 AM 14.83 58.694 0.775 8.2 38.68 7.93
4/16/2022 12:45:00 AM 14.73 58.514 0.763 8.17 34.26 7.92
4/16/2022 1:00:00 AM 14.64 58.352 0.679 8.14 37.6 7.94
4/16/2022 1:15:00 AM 14.54 58.172 0.778 8.06 34.71 7.89
4/16/2022 1:30:00 AM 14.44 57.992 0.778 8.04 30.38 7.89
4/16/2022 1:45:00 AM 14.36 57.848 0.766 8.03 31.68 8.02
4/16/2022 2:00:00 AM 14.31 57.758 0.777 8.01 30.41 8.14
4/16/2022 2:15:00 AM 14.23 57.614 0.775 7.98 29.8 8.14
4/16/2022 2:30:00 AM 14.14 57.452 0.712 7.95 28.56 8.02
4/16/2022 2:45:00 AM 14.09 57.362 0.772 7.85 31.85 8.08
4/16/2022 3:00:00 AM 14.02 57.236 0.775 7.82 35.18 8.13
4/16/2022 3:15:00 AM 13.98 57.164 0.774 7.84 32.27 8.18
4/16/2022 3:30:00 AM 13.94 57.092 0.773 7.86 37.75 8.18
4/16/2022 3:45:00 AM 13.9 57.02 0.774 7.86 102.2 8.21
4/16/2022 4:00:00 AM 13.87 56.966 0.757 7.84 31.61 8.26
4/16/2022 4:15:00 AM 13.83 56.894 0.769 7.88 37.53 8.27
4/16/2022 4:30:00 AM 13.8 56.84 0.768 7.86 98.67 8.21
4/16/2022 4:45:00 AM 13.76 56.768 0.772 7.84 37.83 8.2
4/16/2022 5:00:00 AM 13.72 56.696 0.774 7.84 37.77 8.16
4/16/2022 5:15:00 AM 13.71 56.678 0.773 7.79 29.95 8.28
4/16/2022 5:30:00 AM 13.69 56.642 0.772 7.75 36.76 8.28
4/16/2022 5:45:00 AM 13.68 56.624 0.772 7.73 34.31 8.31
4/16/2022 6:00:00 AM 13.66 56.588 0.773 7.75 37.82 8.36
4/16/2022 6:15:00 AM 13.65 56.57 0.774 7.65 39.34 8.18
4/16/2022 6:30:00 AM 13.64 56.552 0.775 7.5 58.76 8.3
4/16/2022 6:45:00 AM 13.63 56.534 0.775 7.57 36.78 8.29
4/16/2022 7:00:00 AM 13.63 56.534 0.776 7.55 39.51 8.36
4/16/2022 7:15:00 AM 13.63 56.534 0.777 7.54 33.01 8.38
4/16/2022 7:30:00 AM 13.64 56.552 0.778 7.54 35.83 8.42
4/16/2022 7:45:00 AM 13.66 56.588 0.779 7.47 34.15 8.45
4/16/2022 8:00:00 AM 13.67 56.606 0.78 7.49 33.01 8.51
4/16/2022 8:15:00 AM 13.7 56.66 0.78 7.44 36.51 8.59
4/16/2022 8:30:00 AM 13.74 56.732 0.783 7.46 34.23 8.81
4/16/2022 8:45:00 AM 13.78 56.804 0.785 7.41 33.32 8.94
4/16/2022 9:00:00 AM 13.82 56.876 0.787 7.38 34.27 8.83
4/16/2022 9:15:00 AM 13.89 57.002 0.785 7.36 33.95 9.27
4/16/2022 9:30:00 AM 13.95 57.11 0.787 7.27 72.84 9.44
4/16/2022 9:45:00 AM 14 57.2 0.787 7.27 44.7 9.63
4/16/2022 10:00:00 AM 14.08 57.344 0.789 7.23 63.76 9.9
4/16/2022 10:15:00 AM 14.15 57.47 0.788 7.18 35.88 10.1
4/16/2022 10:30:00 AM 14.24 57.632 0.786 7.08 35.68 10.32
4/16/2022 10:45:00 AM 14.31 57.758 0.79 7.07 58.63 10.47
4/16/2022 11:00:00 AM 14.44 57.992 0.793 7.09 34.47 10.72
4/16/2022 11:15:00 AM 14.51 58.118 0.793 6.97 34.92 10.91
4/16/2022 11:30:00 AM 14.64 58.352 0.795 7.02 37.5 10.96
4/16/2022 11:45:00 AM 14.82 58.676 0.796 6.94 34.58 11.31
4/16/2022 12:00:00 PM 14.88 58.784 0.797 5.94 33.7 11.45
4/16/2022 12:15:00 PM 14.88 58.784 0.798 4.94 96.97 11.44
4/16/2022 12:30:00 PM 14.91 58.838 0.799 5.2 36.26 11.51
4/16/2022 12:45:00 PM 14.93 58.874 0.801 5.57 25.14 11.5
4/16/2022 1:00:00 PM 14.96 58.928 0.802 5.84 64.12 11.46
4/16/2022 1:15:00 PM 15 59 0.799 6.29 35.16 11.57
4/16/2022 1:30:00 PM 15.08 59.144 0.804 6.96 35.78 11.61
4/16/2022 1:45:00 PM 15.24 59.432 0.803 6.99 38.11 11.8
4/16/2022 2:00:00 PM 15.38 59.684 0.804 7.15 37.35 12.01
4/16/2022 2:15:00 PM 15.52 59.936 0.805 7.22 35.25 12.23
4/16/2022 2:30:00 PM 15.56 60.008 0.804 7.36 38.24 12.24
4/16/2022 2:45:00 PM 15.81 60.458 0.81 7.47 36.67 12.28
4/16/2022 3:00:00 PM 16.01 60.818 0.807 7.54 36.14 12.45
4/16/2022 3:15:00 PM 16.16 61.088 0.807 7.65 38.56 12.54
4/16/2022 3:30:00 PM 16.21 61.178 0.809 7.72 56.87 12.57
4/16/2022 3:45:00 PM 16.39 61.502 0.809 7.46 66.81 12.52
4/16/2022 4:00:00 PM 16.32 61.376 0.809 7.55 65.16 12.51
4/16/2022 4:15:00 PM 16.23 61.214 0.811 7.6 35.63 12.16
4/16/2022 4:30:00 PM 16.31 61.358 0.811 7.64 63.83 12.02
4/16/2022 4:45:00 PM 16.37 61.466 0.811 7.65 51.06 11.95
4/16/2022 5:00:00 PM 16.41 61.538 0.812 7.56 42.69 11.78
4/16/2022 5:15:00 PM 16.43 61.574 0.811 7.65 39.86 11.85
4/16/2022 5:30:00 PM 16.42 61.556 0.757 7.64 44 11.79
4/16/2022 5:45:00 PM 16.37 61.466 0.783 7.61 40.25 11.64
4/16/2022 6:00:00 PM 16.31 61.358 0.795 7.66 38.25 11.39
4/16/2022 6:15:00 PM 16.24 61.232 0.768 7.74 37.04 11.13
4/16/2022 6:30:00 PM 16.19 61.142 0.721 7.74 39.14 10.87
4/16/2022 6:45:00 PM 16.15 61.07 0.72 7.74 46.65 10.69
4/16/2022 7:00:00 PM 16.1 60.98 0.815 7.74 41.53 10.53
4/16/2022 7:15:00 PM 16.04 60.872 0.815 7.73 38.6 10.32
4/16/2022 7:30:00 PM 15.97 60.746 0.815 7.75 42.58 10.13
4/16/2022 7:45:00 PM 15.89 60.602 0.816 7.75 78.59 9.94
4/16/2022 8:00:00 PM 15.82 60.476 0.816 7.73 40.04 9.76
4/16/2022 8:15:00 PM 15.75 60.35 0.815 7.82 41.91 9.61
4/16/2022 8:30:00 PM 15.68 60.224 0.747 7.78 41.53 9.44
4/16/2022 8:45:00 PM 15.61 60.098 0.817 7.92 40.29 9.29
4/16/2022 9:00:00 PM 15.55 59.99 0.73 7.93 43.32 9.19
4/16/2022 9:15:00 PM 15.48 59.864 0.819 7.98 41.63 9.06
4/16/2022 9:30:00 PM 15.39 59.702 0.729 8.01 39.63 8.94
4/16/2022 9:45:00 PM 15.31 59.558 0.82 8.03 43.53 8.84
4/16/2022 10:00:00 PM 15.22 59.396 0.82 8.07 51.55 8.77
4/16/2022 10:15:00 PM 15.13 59.234 0.82 8.13 62.83 8.66
4/16/2022 10:30:00 PM 15.06 59.108 0.82 8.12 37.57 8.61
4/16/2022 10:45:00 PM 14.97 58.946 0.82 8.17 41.05 8.55
4/16/2022 11:00:00 PM 14.89 58.802 0.82 8.18 39.86 8.51
4/16/2022 11:15:00 PM 14.8 58.64 0.82 8.2 43.76 8.45
4/16/2022 11:30:00 PM 14.71 58.478 0.819 8.19 77.06 8.3
4/16/2022 11:45:00 PM 14.62 58.316 0.819 8.2 43.51 8.18
4/17/2022 12:00:00 AM 14.54 58.172 0.819 8.17 41.29 8.33
4/17/2022 12:15:00 AM 14.44 57.992 0.819 8.17 70.94 8.33
4/17/2022 12:30:00 AM 14.35 57.83 0.818 8.17 40.26 8.35
4/17/2022 12:45:00 AM 14.24 57.632 0.819 8.19 64.25 8.35
4/17/2022 1:00:00 AM 14.14 57.452 0.818 8.22 43.86 8.36
4/17/2022 1:15:00 AM 14.05 57.29 0.817 8.25 70.73 8.36
4/17/2022 1:30:00 AM 13.97 57.146 0.817 8.28 33.8 8.36
4/17/2022 1:45:00 AM 13.9 57.02 0.817 8.28 38.02 8.33
4/17/2022 2:00:00 AM 13.83 56.894 0.816 8.32 68.09 8.38
4/17/2022 2:15:00 AM 13.75 56.75 0.815 8.32 39.22 8.42
4/17/2022 2:30:00 AM 13.66 56.588 0.815 8.32 75.91 8.41
4/17/2022 2:45:00 AM 13.59 56.462 0.814 8.38 43.3 8.45
4/17/2022 3:00:00 AM 13.52 56.336 0.813 8.4 53.21 8.49
4/17/2022 3:15:00 AM 13.46 56.228 0.812 8.42 82.23 8.5
4/17/2022 3:30:00 AM 13.4 56.12 0.812 8.42 51.16 8.52
4/17/2022 3:45:00 AM 13.33 55.994 0.811 8.41 55.99 8.53
4/17/2022 4:00:00 AM 13.25 55.85 0.811 8.41 57.85 8.55
4/17/2022 4:15:00 AM 13.19 55.742 0.81 8.41 58.81 8.61
4/17/2022 4:30:00 AM 13.13 55.634 0.809 8.43 55.98 8.57
4/17/2022 4:45:00 AM 13.04 55.472 0.808 8.46 76.14 8.61
4/17/2022 5:00:00 AM 12.99 55.382 0.807 8.49 89.13 8.62
4/17/2022 5:15:00 AM 12.9 55.22 0.806 8.55 72.14 8.66
4/17/2022 5:30:00 AM 12.84 55.112 0.805 8.57 128.2 8.71
4/17/2022 5:45:00 AM 12.78 55.004 0.804 8.6 44.51 8.74
4/17/2022 6:00:00 AM 12.71 54.878 0.803 8.62 52.45 8.76
4/17/2022 6:15:00 AM 12.66 54.788 0.8 8.65 45.52 8.74
4/17/2022 6:30:00 AM 12.6 54.68 0.801 8.67 54.36 8.73
4/17/2022 6:45:00 AM 12.54 54.572 0.799 8.68 49.4 8.81
4/17/2022 7:00:00 AM 12.48 54.464 0.797 8.69 47.24 8.88
4/17/2022 7:15:00 AM 12.43 54.374 0.796 8.7 44.93 8.96
4/17/2022 7:30:00 AM 12.4 54.32 0.795 8.71 46.3 9
4/17/2022 7:45:00 AM 12.34 54.212 0.793 8.71 47.53 9.15
4/17/2022 8:00:00 AM 12.31 54.158 0.791 8.73 47.29 9.18
4/17/2022 8:15:00 AM 12.27 54.086 0.791 8.72 46.99 9.33
4/17/2022 8:30:00 AM 12.25 54.05 0.788 8.71 50.71 9.61
4/17/2022 8:45:00 AM 12.24 54.032 0.787 8.72 48.98 9.79
4/17/2022 9:00:00 AM 12.22 53.996 0.786 8.68 64.78 9.93
4/17/2022 9:15:00 AM 12.25 54.05 0.784 8.65 45.75 10.12
4/17/2022 9:30:00 AM 12.27 54.086 0.782 8.56 45.63 10.39
4/17/2022 9:45:00 AM 12.28 54.104 0.781 8.54 50.5 10.53
4/17/2022 10:00:00 AM 12.28 54.104 0.781 8.52 57.22 10.67
4/17/2022 10:15:00 AM 12.27 54.086 0.777 8.52 47.8 10.74
4/17/2022 10:30:00 AM 12.27 54.086 0.775 8.56 48.25 10.83
4/17/2022 10:45:00 AM 12.28 54.104 0.775 8.56 46.13 11.02
4/17/2022 11:00:00 AM 12.57 54.626 0.774 8.47 54.5 11.32
4/17/2022 11:15:00 AM 12.61 54.698 0.774 8.35 71.83 11.62
4/17/2022 11:30:00 AM 12.66 54.788 0.773 8.25 61.33 11.76
4/17/2022 11:45:00 AM 12.8 55.04 0.772 8.05 43.19 11.91
4/17/2022 12:00:00 PM 13.06 55.508 0.772 7.76 50.51 12.16
4/17/2022 12:15:00 PM 13.15 55.67 0.771 7.68 42.56 12.34
4/17/2022 12:30:00 PM 13.15 55.67 0.771 7.54 54.24 12.4
4/17/2022 12:45:00 PM 13.34 56.012 0.771 7.45 42.88 12.5
4/17/2022 1:00:00 PM 13.35 56.03 0.771 7.38 47.1 12.62
4/17/2022 1:15:00 PM 13.32 55.976 0.773 7.34 50.2 12.78
4/17/2022 1:30:00 PM 13.33 55.994 0.77 7.31 48.48 12.83
4/17/2022 1:45:00 PM 13.52 56.336 0.769 7.44 49.92 12.79
4/17/2022 2:00:00 PM 13.66 56.588 0.769 7.32 41.68 12.87
4/17/2022 2:15:00 PM 13.86 56.948 0.768 7.67 44.78 13.04
4/17/2022 2:30:00 PM 13.87 56.966 0.767 7.69 52.37 13.08
4/17/2022 2:45:00 PM 13.91 57.038 0.767 7.72 50.11 13.13
4/17/2022 3:00:00 PM 13.99 57.182 0.766 7.76 46.5 13.23
4/17/2022 3:15:00 PM 14.02 57.236 0.766 7.78 45.67 13.19
4/17/2022 3:30:00 PM 14.1 57.38 0.766 7.52 46.94 13.28
4/17/2022 3:45:00 PM 14.19 57.542 0.765 7.64 50.98 13.3
4/17/2022 4:00:00 PM 14.12 57.416 0.764 7.68 49.85 13.23
4/17/2022 4:15:00 PM 14.17 57.506 0.763 7.78 39.65 13.19
4/17/2022 4:30:00 PM 14.13 57.434 0.762 7.96 46.47 13.13
4/17/2022 4:45:00 PM 14.09 57.362 0.762 8.28 48.34 13.03
4/17/2022 5:00:00 PM 14.07 57.326 0.76 8.36 66 12.92
4/17/2022 5:15:00 PM 14.03 57.254 0.76 8.49 69.81 12.79
4/17/2022 5:30:00 PM 13.99 57.182 0.758 8.56 53.16 12.7
4/17/2022 5:45:00 PM 13.94 57.092 0.758 8.56 49.16 12.48
4/17/2022 6:00:00 PM 13.88 56.984 0.756 8.68 44.77 12.25
4/17/2022 6:15:00 PM 13.83 56.894 0.754 8.74 45.97 12.24
4/17/2022 6:30:00 PM 13.79 56.822 0.754 8.82 48.11 12.03
4/17/2022 6:45:00 PM 13.74 56.732 0.755 8.92 42.74 11.93
4/17/2022 7:00:00 PM 13.69 56.642 0.752 8.92 45.09 11.76
4/17/2022 7:15:00 PM 13.66 56.588 0.751 8.97 34.24 11.66
4/17/2022 7:30:00 PM 13.61 56.498 0.75 8.99 44.93 11.56
4/17/2022 7:45:00 PM 13.57 56.426 0.749 9.01 43.92 11.36
4/17/2022 8:00:00 PM 13.5 56.3 0.748 9.05 42.57 11.21
4/17/2022 8:15:00 PM 13.43 56.174 0.747 9.06 42.66 10.91
4/17/2022 8:30:00 PM 13.34 56.012 0.746 9.09 40.81 10.61
4/17/2022 8:45:00 PM 13.27 55.886 0.746 9.12 42.64 10.73
4/17/2022 9:00:00 PM 13.19 55.742 0.746 9.12 41.05 10.59
4/17/2022 9:15:00 PM 13.09 55.562 0.744 9.12 42.58 10.37
4/17/2022 9:30:00 PM 12.99 55.382 0.744 9.13 45.27 10.27
4/17/2022 9:45:00 PM 12.9 55.22 0.743 9.13 40.14 10.2
4/17/2022 10:00:00 PM 12.78 55.004 0.745 9.12 40.9 9.96
4/17/2022 10:15:00 PM 12.68 54.824 0.744 9.12 46.5 9.85
4/17/2022 10:30:00 PM 12.53 54.554 0.744 9.11 49.61 9.84
4/17/2022 10:45:00 PM 12.42 54.356 0.745 9.1 55.99 9.72
4/17/2022 11:00:00 PM 12.34 54.212 0.744 9.09 65.44 9.76
4/17/2022 11:15:00 PM 12.2 53.96 0.743 9.08 38.32 9.7
4/17/2022 11:30:00 PM 12.12 53.816 0.743 9.07 46.89 9.68
4/17/2022 11:45:00 PM 11.99 53.582 0.744 9.06 39.18 9.56
4/18/2022 12:00:00 AM 11.85 53.33 0.742 9.04 47.29 9.55
4/18/2022 12:15:00 AM 11.76 53.168 0.742 9.03 49.46 9.52
4/18/2022 12:30:00 AM 11.6 52.88 0.741 9.02 79.17 9.59
4/18/2022 12:45:00 AM 11.53 52.754 0.742 9.01 57.95 9.56
4/18/2022 1:00:00 AM 11.37 52.466 0.742 9 421.9 9.48
4/18/2022 1:15:00 AM 11.28 52.304 0.74 8.99 46.63 9.58
4/18/2022 1:30:00 AM 11.21 52.178 0.738 8.98 39.04 9.58
4/18/2022 1:45:00 AM 11.13 52.034 0.736 8.98 46.31 9.56
4/18/2022 2:00:00 AM 11.01 51.818 0.739 8.97 59.21 9.54
4/18/2022 2:15:00 AM 10.89 51.602 0.737 8.97 48.46 9.47
4/18/2022 2:30:00 AM 10.78 51.404 0.735 8.96 47.14 9.54
4/18/2022 2:45:00 AM 10.69 51.242 0.734 8.96 42.06 9.59
4/18/2022 3:00:00 AM 10.61 51.098 0.734 8.96 48.25 9.58
4/18/2022 3:15:00 AM 10.52 50.936 0.732 8.97 46.33 9.61
4/18/2022 3:30:00 AM 10.46 50.828 0.73 8.98 47.86 9.67
4/18/2022 3:45:00 AM 10.38 50.684 0.732 8.96 52.15 9.63
4/18/2022 4:00:00 AM 10.31 50.558 0.73 8.94 48.37 9.69
4/18/2022 4:15:00 AM 10.23 50.414 0.728 8.95 45.82 9.76
4/18/2022 4:30:00 AM 10.18 50.324 0.727 8.95 50.91 9.69
4/18/2022 4:45:00 AM 10.12 50.216 0.725 8.94 48.68 9.77
4/18/2022 5:00:00 AM 10.05 50.09 0.724 8.93 50.77 9.8
4/18/2022 5:15:00 AM 9.94 49.892 0.725 8.94 52.3 9.8
4/18/2022 5:30:00 AM 9.89 49.802 0.724 8.94 46.46 9.69
4/18/2022 5:45:00 AM 9.78 49.604 0.721 8.93 53.1 9.89
4/18/2022 6:00:00 AM 9.78 49.604 0.72 8.93 51.54 9.93
4/18/2022 6:15:00 AM 9.7 49.46 0.72 8.93 43.95 9.91
4/18/2022 6:30:00 AM 9.62 49.316 0.717 8.92 49.32 9.95
4/18/2022 6:45:00 AM 9.6 49.28 0.717 8.92 48.44 10
4/18/2022 7:00:00 AM 9.58 49.244 0.717 8.92 43.35 10.01
4/18/2022 7:15:00 AM 9.53 49.154 0.715 8.92 42.21 10.19
4/18/2022 7:30:00 AM 9.48 49.064 0.715 8.92 42.05 10.32
4/18/2022 7:45:00 AM 9.48 49.064 0.715 8.93 42.11 10.35
4/18/2022 8:00:00 AM 9.5 49.1 0.713 8.93 42.01 10.54
4/18/2022 8:15:00 AM 9.49 49.082 0.713 8.93 50.73 10.75
4/18/2022 8:30:00 AM 9.49 49.082 0.712 8.93 41.74 10.86
4/18/2022 8:45:00 AM 9.53 49.154 0.712 8.94 49 11.01
4/18/2022 9:00:00 AM 9.57 49.226 0.712 8.93 41.54 11.17
4/18/2022 9:15:00 AM 9.61 49.298 0.711 8.88 136.5 11.4
4/18/2022 9:30:00 AM 9.66 49.388 0.711 8.84 42.99 11.58
4/18/2022 9:45:00 AM 9.71 49.478 0.709 8.82 41.69 11.72
4/18/2022 10:00:00 AM 9.76 49.568 0.71 8.76 43.61 11.83
4/18/2022 10:15:00 AM 9.83 49.694 0.711 8.74 43.82 11.98
4/18/2022 10:30:00 AM 9.89 49.802 0.71 8.71 39.75 12.14
4/18/2022 10:45:00 AM 9.93 49.874 0.71 8.69 43.33 12.28
4/18/2022 11:00:00 AM 9.97 49.946 0.711 8.65 41.95 12.43
4/18/2022 11:15:00 AM 10.01 50.018 0.711 8.66 34.94 12.5
4/18/2022 11:30:00 AM 10.05 50.09 0.711 8.63 42.28 12.54
4/18/2022 11:45:00 AM 10.08 50.144 0.712 8.57 45.76 12.57
4/18/2022 12:00:00 PM 10.1 50.18 0.712 8.54 44.49 12.77
4/18/2022 12:15:00 PM 10.13 50.234 0.713 8.53 44.88 12.8
4/18/2022 12:30:00 PM 10.15 50.27 0.713 8.5 41.3 12.8
4/18/2022 12:45:00 PM 10.15 50.27 0.715 8.5 42.52 12.67
4/18/2022 1:00:00 PM 10.16 50.288 0.715 8.49 42.97 12.74
4/18/2022 1:15:00 PM 10.17 50.306 0.716 8.49 40.93 12.69
4/18/2022 1:30:00 PM 10.19 50.342 0.718 8.47 40.45 12.73
4/18/2022 1:45:00 PM 10.2 50.36 0.72 8.45 40.49 12.78
4/18/2022 2:00:00 PM 10.23 50.414 0.718 8.53 40.69 12.74
4/18/2022 2:15:00 PM 10.25 50.45 0.719 8.51 39.75 12.6
4/18/2022 2:30:00 PM 10.25 50.45 0.72 8.52 39.59 12.69
4/18/2022 2:45:00 PM 10.26 50.468 0.721 8.53 41.85 12.66
4/18/2022 3:00:00 PM 10.28 50.504 0.722 8.55 42.27 12.58
4/18/2022 3:15:00 PM 10.28 50.504 0.723 8.57 50.74 12.46
4/18/2022 3:30:00 PM 10.28 50.504 0.723 8.59 38.2 12.26
4/18/2022 3:45:00 PM 10.28 50.504 0.724 8.57 39.99 12.36
4/18/2022 4:00:00 PM 10.28 50.504 0.725 8.63 61.72 12.29
4/18/2022 4:15:00 PM 10.28 50.504 0.725 8.69 39.56 12.15
4/18/2022 4:30:00 PM 10.26 50.468 0.725 8.73 45.7 12.08
4/18/2022 4:45:00 PM 10.26 50.468 0.726 8.79 45.58 12
4/18/2022 5:00:00 PM 10.23 50.414 0.725 8.85 44.57 11.95
4/18/2022 5:15:00 PM 10.2 50.36 0.724 8.88 51.31 11.85
4/18/2022 5:30:00 PM 10.19 50.342 0.724 8.9 49.22 11.79
4/18/2022 5:45:00 PM 10.15 50.27 0.723 8.91 42.94 11.67
4/18/2022 6:00:00 PM 10.13 50.234 0.723 8.92 45.68 11.76
4/18/2022 6:15:00 PM 10.08 50.144 0.722 8.95 41.75 11.61
4/18/2022 6:30:00 PM 10.03 50.054 0.723 8.96 37.64 11.61
4/18/2022 6:45:00 PM 10 50 0.722 8.96 42.66 11.47
4/18/2022 7:00:00 PM 9.96 49.928 0.723 8.96 41.93 11.43
4/18/2022 7:15:00 PM 9.93 49.874 0.724 8.94 48.54 11.34
4/18/2022 7:30:00 PM 9.89 49.802 0.725 8.92 60.36 11.18
4/18/2022 7:45:00 PM 9.87 49.766 0.725 8.92 54.39 11.21
4/18/2022 8:00:00 PM 9.84 49.712 0.725 8.92 46.57 11.06
4/18/2022 8:15:00 PM 9.75 49.55 0.726 8.92 42.03 10.99
4/18/2022 8:30:00 PM 9.73 49.514 0.722 8.91 41.65 10.95
4/18/2022 8:45:00 PM 9.61 49.298 0.718 8.92 60.81 10.82
4/18/2022 9:00:00 PM 9.43 48.974 0.701 8.89 79.49 10.98
4/18/2022 9:15:00 PM 9.36 48.848 0.699 8.85 74.11 11
4/18/2022 9:30:00 PM 8.7 47.66 0.606 8.86 124.5 11.36
4/18/2022 9:45:00 PM 8.53 47.354 0.57 8.82 160.4 11.48
4/18/2022 10:00:00 PM 8.21 46.778 0.516 8.76 118.2 11.57
4/18/2022 10:15:00 PM 8.15 46.67 0.49 8.66 183.7 11.67
4/18/2022 10:30:00 PM 7.91 46.238 0.446 8.48 230.4 11.67
4/18/2022 10:45:00 PM 7.94 46.292 0.449 8.32 200 11.65
4/18/2022 11:00:00 PM 8.08 46.544 0.478 8.05 151.9 11.56
4/18/2022 11:15:00 PM 8.18 46.724 0.485 7.93 175.8 11.57
4/18/2022 11:30:00 PM 8.2 46.76 0.502 7.88 136.1 11.46
4/18/2022 11:45:00 PM 8.45 47.21 0.56 7.74 104 11.31
4/19/2022 12:00:00 AM 8.48 47.264 0.578 7.71 107.4 11.25
4/19/2022 12:15:00 AM 8.46 47.228 0.58 7.76 116.7 11.28
4/19/2022 12:30:00 AM 8.3 46.94 0.547 7.73 156.4 11.34
4/19/2022 12:45:00 AM 8.2 46.76 0.517 7.71 2422 11.4
4/19/2022 1:00:00 AM 8.16 46.688 0.506 7.68 123.2 11.44
4/19/2022 1:15:00 AM 8.11 46.598 0.488 7.67 130.2 11.43
4/19/2022 1:30:00 AM 8.09 46.562 0.479 7.58 132.4 11.47
4/19/2022 1:45:00 AM 8.13 46.634 0.484 7.54 123.7 11.47
4/19/2022 2:00:00 AM 8.15 46.67 0.486 7.4 165.3 11.48
4/19/2022 2:15:00 AM 8.13 46.634 0.481 7.36 118 11.5
4/19/2022 2:30:00 AM 8.11 46.598 0.48 7.36 114.1 11.49
4/19/2022 2:45:00 AM 8.07 46.526 0.477 7.35 106.8 11.53
4/19/2022 3:00:00 AM 8.11 46.598 0.476 7.3 106.7 11.54
4/19/2022 3:15:00 AM 8.1 46.58 0.478 7.25 108.5 11.51
4/19/2022 3:30:00 AM 8.07 46.526 0.475 7.22 101.1 11.53
4/19/2022 3:45:00 AM 8.09 46.562 0.48 7.21 105.8 11.53
4/19/2022 4:00:00 AM 8.09 46.562 0.483 7.17 91.85 11.53
4/19/2022 4:15:00 AM 8.07 46.526 0.482 7.2 71.29 11.52
4/19/2022 4:30:00 AM 8.04 46.472 0.48 7.18 83.03 11.51
4/19/2022 4:45:00 AM 7.99 46.382 0.477 7.12 63.4 11.52
4/19/2022 5:00:00 AM 7.95 46.31 0.476 7.06 67.12 11.51
4/19/2022 5:15:00 AM 7.93 46.274 0.477 7.1 110.1 11.52
4/19/2022 5:30:00 AM 7.9 46.22 0.478 7.08 76.1 11.52
4/19/2022 5:45:00 AM 7.86 46.148 0.48 7.05 77.59 11.53
4/19/2022 6:00:00 AM 7.83 46.094 0.483 7.01 64.16 11.54
4/19/2022 6:15:00 AM 7.82 46.076 0.489 7.05 88.44 11.55
4/19/2022 6:30:00 AM 7.82 46.076 0.497 6.99 73.75 11.54
4/19/2022 6:45:00 AM 7.81 46.058 0.505 6.93 98.4 11.56
4/19/2022 7:00:00 AM 7.79 46.022 0.514 6.93 94.85 11.56
4/19/2022 7:15:00 AM 7.79 46.022 0.524 6.93 99.96 11.57
4/19/2022 7:30:00 AM 7.78 46.004 0.534 6.92 75.91 11.59
4/19/2022 7:45:00 AM 7.78 46.004 0.545 6.89 102.5 11.6
4/19/2022 8:00:00 AM 7.79 46.022 0.551 6.7 89.61 11.61
4/19/2022 8:15:00 AM 7.78 46.004 0.557 6.8 84.88 11.65
4/19/2022 8:30:00 AM 7.79 46.022 0.559 6.88 112.3 11.66
4/19/2022 8:45:00 AM 7.79 46.022 0.562 6.94 69.88 11.71
4/19/2022 9:00:00 AM 7.8 46.04 0.566 6.9 84.07 11.75
4/19/2022 9:15:00 AM 7.84 46.112 0.574 6.93 83.73 11.77
4/19/2022 9:30:00 AM 7.9 46.22 0.587 6.95 90.71 11.8
4/19/2022 9:45:00 AM 7.92 46.256 0.599 6.93 102.8 11.82
4/19/2022 10:00:00 AM 8 46.4 0.61 6.88 91.07 11.86
4/19/2022 10:15:00 AM 8.03 46.454 0.618 6.9 103 11.88
4/19/2022 10:30:00 AM 8.1 46.58 0.62 7.17 88.86 11.91
4/19/2022 10:45:00 AM 8.17 46.706 0.619 7.18 103.3 11.96
4/19/2022 11:00:00 AM 8.21 46.778 0.614 7.16 74.58 11.98
4/19/2022 11:15:00 AM 8.22 46.796 0.604 7.22 60.37 12
4/19/2022 11:30:00 AM 8.27 46.886 0.595 7.12 92.17 12
4/19/2022 11:45:00 AM 8.35 47.03 0.583 7.19 90.22 12.03
4/19/2022 12:00:00 PM 8.35 47.03 0.572 7.16 78.84 12.05
4/19/2022 12:15:00 PM 8.39 47.102 0.563 7.17 61.18 12.04
4/19/2022 12:30:00 PM 8.39 47.102 0.558 7.18 72.7 12.04
4/19/2022 12:45:00 PM 8.38 47.084 0.554 7.2 64.94 12.03
4/19/2022 1:00:00 PM 8.41 47.138 0.554 7.16 69.87 12.04
4/19/2022 1:15:00 PM 8.5 47.3 0.555 7.19 88.23 12.11
4/19/2022 1:30:00 PM 8.54 47.372 0.557 7.18 56.92 12.08
4/19/2022 1:45:00 PM 8.62 47.516 0.559 7.15 87.24 12.13
4/19/2022 2:00:00 PM 8.6 47.48 0.563 7.08 53.24 12.05
4/19/2022 2:15:00 PM 8.73 47.714 0.564 7.08 41.55 12.11
4/19/2022 2:30:00 PM 8.75 47.75 0.566 7.07 40.87 12.09
4/19/2022 2:45:00 PM 8.8 47.84 0.566 7.06 51.69 12.1
4/19/2022 3:00:00 PM 8.85 47.93 0.566 7.06 46.54 12.07
4/19/2022 3:15:00 PM 8.87 47.966 0.566 7.08 43.65 12.08
4/19/2022 3:30:00 PM 8.99 48.182 0.563 7.1 56.91 12.05
4/19/2022 3:45:00 PM 9.03 48.254 0.56 7.09 56.07 12.08
4/19/2022 4:00:00 PM 9 48.2 0.556 6.99 48.97 12.02
4/19/2022 4:15:00 PM 8.98 48.164 0.552 6.96 42.43 11.94
4/19/2022 4:30:00 PM 8.98 48.164 0.548 7.04 47.23 11.9
4/19/2022 4:45:00 PM 8.96 48.128 0.543 7.04 45.68 11.87
4/19/2022 5:00:00 PM 8.99 48.182 0.538 7.03 37.19 11.88
4/19/2022 5:15:00 PM 9 48.2 0.533 7.04 37.84 11.89
4/19/2022 5:30:00 PM 8.98 48.164 0.528 7.01 37.19 11.81
4/19/2022 5:45:00 PM 8.97 48.146 0.523 6.97 36.63 11.85
4/19/2022 6:00:00 PM 8.96 48.128 0.518 7.01 35.66 11.81
4/19/2022 6:15:00 PM 8.94 48.092 0.514 7.03 45.53 11.81
4/19/2022 6:30:00 PM 8.92 48.056 0.51 7 41.86 11.76
4/19/2022 6:45:00 PM 8.89 48.002 0.505 7 38.3 11.71
4/19/2022 7:00:00 PM 8.86 47.948 0.501 7.04 32.78 11.72
4/19/2022 7:15:00 PM 8.81 47.858 0.498 7.02 30.22 11.71
4/19/2022 7:30:00 PM 8.76 47.768 0.494 7.03 30.76 11.69
4/19/2022 7:45:00 PM 8.72 47.696 0.49 7.03 35.32 11.65
4/19/2022 8:00:00 PM 8.67 47.606 0.487 7.02 42.43 11.61
4/19/2022 8:15:00 PM 8.63 47.534 0.483 6.93 31.15 11.59
4/19/2022 8:30:00 PM 8.57 47.426 0.48 6.9 28.61 11.55
4/19/2022 8:45:00 PM 8.52 47.336 0.476 6.96 28.46 11.52
4/19/2022 9:00:00 PM 8.47 47.246 0.474 6.94 26.29 11.48
4/19/2022 9:15:00 PM 8.42 47.156 0.47 6.95 28.7 11.47
4/19/2022 9:30:00 PM 8.38 47.084 0.467 6.85 27.91 11.44
4/19/2022 9:45:00 PM 8.33 46.994 0.465 6.8 29.52 11.43
4/19/2022 10:00:00 PM 8.29 46.922 0.462 6.74 24.2 11.41
4/19/2022 10:15:00 PM 8.24 46.832 0.459 6.82 22.99 11.39
4/19/2022 10:30:00 PM 8.2 46.76 0.457 6.86 26.33 11.37
4/19/2022 10:45:00 PM 8.16 46.688 0.455 6.89 26.19 11.35
4/19/2022 11:00:00 PM 8.11 46.598 0.452 6.86 23.43 11.33
4/19/2022 11:15:00 PM 8.07 46.526 0.45 6.88 30.21 11.3
4/19/2022 11:30:00 PM 8.03 46.454 0.449 6.82 23.85 11.31
4/19/2022 11:45:00 PM 7.99 46.382 0.447 6.81 39.83 11.3
4/20/2022 12:00:00 AM 7.95 46.31 0.445 6.83 23.73 11.29
4/20/2022 12:15:00 AM 7.92 46.256 0.443 6.84 27.8 11.28
4/20/2022 12:30:00 AM 7.88 46.184 0.442 6.82 23.07 11.28
4/20/2022 12:45:00 AM 7.85 46.13 0.441 6.83 24.95 11.27
4/20/2022 1:00:00 AM 7.81 46.058 0.44 6.81 24.01 11.28
4/20/2022 1:15:00 AM 7.77 45.986 0.439 6.8 24.92 11.27
4/20/2022 1:30:00 AM 7.74 45.932 0.438 6.78 24.99 11.27
4/20/2022 1:45:00 AM 7.71 45.878 0.438 6.79 23.9 11.29
4/20/2022 2:00:00 AM 7.68 45.824 0.437 6.72 25.16 11.29
4/20/2022 2:15:00 AM 7.65 45.77 0.437 6.66 24.3 11.28
4/20/2022 2:30:00 AM 7.63 45.734 0.437 6.73 24.63 11.31
4/20/2022 2:45:00 AM 7.6 45.68 0.437 6.67 24.65 11.31
4/20/2022 3:00:00 AM 7.58 45.644 0.437 6.73 25.88 11.31
4/20/2022 3:15:00 AM 7.55 45.59 0.438 6.7 23.17 11.31
4/20/2022 3:30:00 AM 7.53 45.554 0.438 6.64 25.36 11.33
4/20/2022 3:45:00 AM 7.5 45.5 0.439 6.68 24.81 11.35
4/20/2022 4:00:00 AM 7.48 45.464 0.44 6.69 25.84 11.34
4/20/2022 4:15:00 AM 7.46 45.428 0.441 6.7 25.19 11.36
4/20/2022 4:30:00 AM 7.44 45.392 0.443 6.7 23.36 11.37
4/20/2022 4:45:00 AM 7.42 45.356 0.444 6.61 26.09 11.39
4/20/2022 5:00:00 AM 7.4 45.32 0.446 6.59 21.53 11.39
4/20/2022 5:15:00 AM 7.38 45.284 0.447 6.65 22.38 11.39
4/20/2022 5:30:00 AM 7.36 45.248 0.449 6.73 20.58 11.41
4/20/2022 5:45:00 AM 7.34 45.212 0.45 6.71 21.7 11.41
4/20/2022 6:00:00 AM 7.31 45.158 0.452 6.7 24.25 11.42
4/20/2022 6:15:00 AM 7.29 45.122 0.454 6.74 26.08 11.42
4/20/2022 6:30:00 AM 7.26 45.068 0.457 6.65 24.22 11.43
4/20/2022 6:45:00 AM 7.24 45.032 0.459 6.66 19.84 11.46
4/20/2022 7:00:00 AM 7.23 45.014 0.461 6.56 23.28 11.48
4/20/2022 7:15:00 AM 7.21 44.978 0.463 6.58 22.44 11.49
4/20/2022 7:30:00 AM 7.2 44.96 0.465 6.59 21.19 11.52
4/20/2022 7:45:00 AM 7.21 44.978 0.467 6.61 20.65 11.55
4/20/2022 8:00:00 AM 7.21 44.978 0.469 6.75 21.16 11.62
4/20/2022 8:15:00 AM 7.22 44.996 0.471 6.68 20.19 11.65
4/20/2022 8:30:00 AM 7.24 45.032 0.473 6.63 46.92 11.7
4/20/2022 8:45:00 AM 7.27 45.086 0.475 6.67 20.99 11.81
4/20/2022 9:00:00 AM 7.3 45.14 0.477 6.71 26.21 11.88
4/20/2022 9:15:00 AM 7.36 45.248 0.478 6.7 17.93 11.96
4/20/2022 9:30:00 AM 7.44 45.392 0.48 6.75 71.43 12.07
4/20/2022 9:45:00 AM 7.54 45.572 0.482 6.68 22.59 12.23
4/20/2022 10:00:00 AM 7.7 45.86 0.484 6.66 19.56 12.38
4/20/2022 10:15:00 AM 7.9 46.22 0.485 6.71 19 12.56
4/20/2022 10:30:00 AM 8.11 46.598 0.487 6.67 16.66 12.73
4/20/2022 10:45:00 AM 8.34 47.012 0.49 6.77 18.23 12.91
4/20/2022 11:00:00 AM 8.54 47.372 0.492 6.73 16.36 13.07
4/20/2022 11:15:00 AM 8.75 47.75 0.493 6.7 19.86 13.22
4/20/2022 11:30:00 AM 8.95 48.11 0.495 6.56 14.5 13.35
4/20/2022 11:45:00 AM 9.19 48.542 0.497 6.87 15.36 13.44
4/20/2022 12:00:00 PM 9.42 48.956 0.5 6.94 16.53 13.63
4/20/2022 12:15:00 PM 9.66 49.388 0.501 6.89 14.12 13.74
4/20/2022 12:30:00 PM 9.91 49.838 0.504 6.81 15.93 13.85
4/20/2022 12:45:00 PM 10.13 50.234 0.506 6.82 14.88 13.99
4/20/2022 1:00:00 PM 10.34 50.612 0.509 6.26 15.77 14.1
4/20/2022 1:15:00 PM 10.55 50.99 0.511 6.52 18.47 14.19
4/20/2022 1:30:00 PM 10.75 51.35 0.514 6.49 17.61 14.26
4/20/2022 1:45:00 PM 10.95 51.71 0.517 6.58 13.3 14.32
4/20/2022 2:00:00 PM 11.14 52.052 0.52 6.69 15.83 14.38
4/20/2022 2:15:00 PM 11.31 52.358 0.522 6.75 12.5 14.37
4/20/2022 2:30:00 PM 11.49 52.682 0.525 6.8 12.01 14.39
4/20/2022 2:45:00 PM 11.67 53.006 0.528 6.91 11.81 14.4
4/20/2022 3:00:00 PM 11.81 53.258 0.53 7.01 10.38 14.4
4/20/2022 3:15:00 PM 11.97 53.546 0.533 6.93 10.59 14.39
4/20/2022 3:30:00 PM 12.08 53.744 0.535 7.15 16.17 14.35
4/20/2022 3:45:00 PM 12.19 53.942 0.537 7.18 10.97 14.27
4/20/2022 4:00:00 PM 12.28 54.104 0.54 7.24 12.19 14.22
4/20/2022 4:15:00 PM 12.37 54.266 0.543 7.27 13.26 14.15
4/20/2022 4:30:00 PM 12.42 54.356 0.545 7.31 10.16 14.05
4/20/2022 4:45:00 PM 12.46 54.428 0.547 7.33 10.37 13.94
4/20/2022 5:00:00 PM 12.49 54.482 0.549 7.34 11.2 13.83
4/20/2022 5:15:00 PM 12.5 54.5 0.554 7.35 16.08 13.59
4/20/2022 5:30:00 PM 12.5 54.5 0.556 7.35 10.46 13.47
4/20/2022 5:45:00 PM 12.5 54.5 0.559 7.29 10.38 13.29
4/20/2022 6:00:00 PM 12.48 54.464 0.562 7.22 10.05 13.08
4/20/2022 6:15:00 PM 12.48 54.464 0.564 7.25 13.91 12.9
4/20/2022 6:30:00 PM 12.47 54.446 0.567 7.27 10.33 12.74
4/20/2022 6:45:00 PM 12.45 54.41 0.569 7.19 13.13 12.62
4/20/2022 7:00:00 PM 12.42 54.356 0.572 7.21 10 12.48
4/20/2022 7:15:00 PM 12.37 54.266 0.575 7.3 8.19 12.37
4/20/2022 7:30:00 PM 12.3 54.14 0.578 7.31 11.75 12.18
4/20/2022 7:45:00 PM 12.22 53.996 0.581 7.31 8.64 12.04
4/20/2022 8:00:00 PM 12.13 53.834 0.584 7.28 6.78 11.88
4/20/2022 8:15:00 PM 12.04 53.672 0.587 7.27 8.15 11.72
4/20/2022 8:30:00 PM 11.94 53.492 0.59 7.24 6.73 11.57
4/20/2022 8:45:00 PM 11.85 53.33 0.593 7.19 6.61 11.43
4/20/2022 9:00:00 PM 11.74 53.132 0.596 7.23 11.98 11.31
4/20/2022 9:15:00 PM 11.63 52.934 0.599 7.16 6.43 11.17
4/20/2022 9:30:00 PM 11.53 52.754 0.602 7.16 6.49 11.06
4/20/2022 9:45:00 PM 11.43 52.574 0.605 7.17 7.75 10.92
4/20/2022 10:00:00 PM 11.32 52.376 0.608 7.17 7.75 10.83
4/20/2022 10:15:00 PM 11.21 52.178 0.612 7.1 6.58 10.73
4/20/2022 10:30:00 PM 11.11 51.998 0.615 7.1 6.79 10.67
4/20/2022 10:45:00 PM 11.01 51.818 0.618 7.1 6.26 10.59
4/20/2022 11:00:00 PM 10.91 51.638 0.621 7.06 6.26 10.53
4/20/2022 11:15:00 PM 10.82 51.476 0.624 7.07 7.29 10.48
4/20/2022 11:30:00 PM 10.72 51.296 0.628 6.87 7.82 10.42
4/20/2022 11:45:00 PM 10.64 51.152 0.631 6.83 6.82 10.39
4/21/2022 12:00:00 AM 10.56 51.008 0.634 6.75 7.07 10.37
4/21/2022 12:15:00 AM 10.49 50.882 0.637 6.66 8.2 10.31
4/21/2022 12:30:00 AM 10.43 50.774 0.639 6.69 5.08 10.31
4/21/2022 12:45:00 AM 10.37 50.666 0.642 6.72 6.46 10.27
4/21/2022 1:00:00 AM 10.32 50.576 0.645 6.73 8.16 10.23
4/21/2022 1:15:00 AM 10.27 50.486 0.648 6.71 12.21 10.22
4/21/2022 1:30:00 AM 10.22 50.396 0.651 6.78 6.74 10.24
4/21/2022 1:45:00 AM 10.18 50.324 0.654 6.78 8.76 10.2
4/21/2022 2:00:00 AM 10.13 50.234 0.657 6.78 9.23 10.17
4/21/2022 2:15:00 AM 10.09 50.162 0.66 6.8 8.68 10.16
4/21/2022 2:30:00 AM 10.05 50.09 0.662 6.5 8.87 10.21
4/21/2022 2:45:00 AM 10.02 50.036 0.665 6.54 7.74 10.16
4/21/2022 3:00:00 AM 9.99 49.982 0.668 6.52 8.52 10.18
4/21/2022 3:15:00 AM 9.96 49.928 0.671 6.52 9.13 10.19
4/21/2022 3:30:00 AM 9.93 49.874 0.673 6.48 10.58 10.19
4/21/2022 3:45:00 AM 9.91 49.838 0.675 6.55 9.26 10.17
4/21/2022 4:00:00 AM 9.89 49.802 0.677 6.56 9 10.19
4/21/2022 4:15:00 AM 9.88 49.784 0.678 6.55 8.34 10.21
4/21/2022 4:30:00 AM 9.86 49.748 0.68 6.55 8.35 10.22
4/21/2022 4:45:00 AM 9.84 49.712 0.682 6.59 18.07 10.19
4/21/2022 5:00:00 AM 9.84 49.712 0.683 6.49 10.18 10.19
4/21/2022 5:15:00 AM 9.83 49.694 0.684 6.5 6.51 10.22
4/21/2022 5:30:00 AM 9.82 49.676 0.685 6.5 7.2 10.22
4/21/2022 5:45:00 AM 9.81 49.658 0.686 6.51 4.72 10.2
4/21/2022 6:00:00 AM 9.81 49.658 0.687 6.55 4.76 10.2
4/21/2022 6:15:00 AM 9.81 49.658 0.688 6.49 6.41 10.22
4/21/2022 6:30:00 AM 9.81 49.658 0.689 6.47 10.1 10.2
4/21/2022 6:45:00 AM 9.81 49.658 0.692 6.49 14.48 10.21
4/21/2022 7:00:00 AM 9.82 49.676 0.691 6.47 5.73 10.23
4/21/2022 7:15:00 AM 9.84 49.712 0.692 6.52 5.79 10.29
4/21/2022 7:30:00 AM 9.85 49.73 0.692 6.52 5.74 10.38
4/21/2022 7:45:00 AM 9.88 49.784 0.693 6.34 4.28 10.45
4/21/2022 8:00:00 AM 9.93 49.874 0.693 6.56 5.98 10.54
4/21/2022 8:15:00 AM 10 50 0.695 6.6 3.98 10.76
4/21/2022 8:30:00 AM 10.06 50.108 0.695 6.65 5.05 10.94
4/21/2022 8:45:00 AM 10.11 50.198 0.696 6.64 8.69 11.06
4/21/2022 9:00:00 AM 10.2 50.36 0.697 6.63 7.04 11.19
4/21/2022 9:15:00 AM 10.27 50.486 0.697 6.68 7.3 11.35
4/21/2022 9:30:00 AM 10.36 50.648 0.698 6.64 5.27 11.5
4/21/2022 9:45:00 AM 10.46 50.828 0.698 6.66 7.84 11.71
4/21/2022 10:00:00 AM 10.56 51.008 0.699 6.7 5 11.93
4/21/2022 10:15:00 AM 10.66 51.188 0.7 6.68 4.66 12.12
4/21/2022 10:30:00 AM 10.76 51.368 0.7 6.72 5.07 12.3
4/21/2022 10:45:00 AM 10.88 51.584 0.701 6.77 4.93 12.39
4/21/2022 11:00:00 AM 11.05 51.89 0.702 7.09 4.52 12.67
4/21/2022 11:15:00 AM 11.23 52.214 0.702 7.13 3.3 12.88
4/21/2022 11:30:00 AM 11.33 52.394 0.703 7.13 3.96 12.99
4/21/2022 11:45:00 AM 11.39 52.502 0.704 7.19 4.88 13.11
4/21/2022 12:00:00 PM 11.4 52.52 0.705 6.87 5.96 13.1
4/21/2022 12:15:00 PM 11.42 52.556 0.706 6.88 8.13 13.04
4/21/2022 12:30:00 PM 11.48 52.664 0.707 6.92 3.44 13.05
4/21/2022 12:45:00 PM 11.59 52.862 0.707 6.92 3.68 13.21
4/21/2022 1:00:00 PM 11.9 53.42 0.708 7.31 4.06 13.42
4/21/2022 1:15:00 PM 12.13 53.834 0.708 7.3 3.79 13.65
4/21/2022 1:30:00 PM 12.17 53.906 0.709 7.34 3.6 13.7
4/21/2022 1:45:00 PM 12.2 53.96 0.71 7.37 4.18 13.63
4/21/2022 2:00:00 PM 12.25 54.05 0.711 7.08 3.43 13.63
4/21/2022 2:15:00 PM 12.26 54.068 0.713 7.08 3.49 13.6
4/21/2022 2:30:00 PM 12.37 54.266 0.712 7.08 5.05 13.53
4/21/2022 2:45:00 PM 12.47 54.446 0.713 7.11 4.94 13.61
4/21/2022 3:00:00 PM 12.59 54.662 0.713 7.17 5.15 13.71
4/21/2022 3:15:00 PM 12.62 54.716 0.714 7.17 5.23 13.8
4/21/2022 3:30:00 PM 12.6 54.68 0.716 7.2 7.23 13.58
4/21/2022 3:45:00 PM 12.65 54.77 0.716 7.21 5.53 13.44
4/21/2022 4:00:00 PM 12.66 54.788 0.716 7.21 7.33 13.34
4/21/2022 4:15:00 PM 12.68 54.824 0.718 7.26 5.08 13.21
4/21/2022 4:30:00 PM 12.69 54.842 0.717 7.27 4.38 13.06
4/21/2022 4:45:00 PM 12.7 54.86 0.72 7.27 4.13 12.93
4/21/2022 5:00:00 PM 12.69 54.842 0.721 7.32 5.52 12.82
4/21/2022 5:15:00 PM 12.74 54.932 0.721 7.27 6.68 12.71
4/21/2022 5:30:00 PM 12.74 54.932 0.722 7.32 5.03 12.65
4/21/2022 5:45:00 PM 12.75 54.95 0.722 7.36 5.27 12.49
4/21/2022 6:00:00 PM 12.76 54.968 0.723 7.29 4.81 12.4
4/21/2022 6:15:00 PM 12.72 54.896 0.724 7.25 4.98 12.35
4/21/2022 6:30:00 PM 12.75 54.95 0.724 7.23 4.78 12.13
4/21/2022 6:45:00 PM 12.72 54.896 0.725 7.24 4.84 11.96
4/21/2022 7:00:00 PM 12.73 54.914 0.725 7.26 4.35 11.76
4/21/2022 7:15:00 PM 12.71 54.878 0.726 7.09 4.81 11.6
4/21/2022 7:30:00 PM 12.7 54.86 0.726 7.08 4.74 11.46
4/21/2022 7:45:00 PM 12.68 54.824 0.726 7.05 5.04 11.23
4/21/2022 8:00:00 PM 12.66 54.788 0.726 7.02 5.19 11.11
4/21/2022 8:15:00 PM 12.63 54.734 0.726 7.01 6.27 10.97
4/21/2022 8:30:00 PM 12.61 54.698 0.726 7.02 6.23 10.86
4/21/2022 8:45:00 PM 12.58 54.644 0.727 7.02 4.99 10.71
4/21/2022 9:00:00 PM 12.55 54.59 0.726 7.07 6.04 10.55
4/21/2022 9:15:00 PM 12.53 54.554 0.726 7.07 5.77 10.45
4/21/2022 9:30:00 PM 12.5 54.5 0.726 7.07 6.44 10.35
4/21/2022 9:45:00 PM 12.47 54.446 0.726 7.08 5.68 10.23
4/21/2022 10:00:00 PM 12.43 54.374 0.726 7.05 6.2 10.16
4/21/2022 10:15:00 PM 12.38 54.284 0.725 7.06 6.47 10.07
4/21/2022 10:30:00 PM 12.32 54.176 0.725 6.96 7.23 10.04
4/21/2022 10:45:00 PM 12.28 54.104 0.724 6.98 5.95 9.96
4/21/2022 11:00:00 PM 12.24 54.032 0.724 7.04 6.06 9.89
4/21/2022 11:15:00 PM 12.22 53.996 0.724 7.03 13.42 9.85
4/21/2022 11:30:00 PM 12.17 53.906 0.724 7.02 5.7 9.81
4/21/2022 11:45:00 PM 12.12 53.816 0.723 7.04 5.41 9.78
4/22/2022 12:00:00 AM 12.07 53.726 0.723 7.03 5.7 9.73
4/22/2022 12:15:00 AM 12.02 53.636 0.723 7.04 7.75 9.68
4/22/2022 12:30:00 AM 11.98 53.564 0.723 7.03 7.17 9.7
4/22/2022 12:45:00 AM 11.95 53.51 0.723 7.04 6.99 9.61
4/22/2022 1:00:00 AM 11.9 53.42 0.723 7.03 8.25 9.61
4/22/2022 1:15:00 AM 11.85 53.33 0.723 7.03 8.36 9.6
4/22/2022 1:30:00 AM 11.8 53.24 0.722 7.03 8.63 9.64
4/22/2022 1:45:00 AM 11.76 53.168 0.723 7.01 7.46 9.57
4/22/2022 2:00:00 AM 11.71 53.078 0.724 6.99 10.26 9.58
4/22/2022 2:15:00 AM 11.66 52.988 0.724 6.95 7.01 9.58
4/22/2022 2:30:00 AM 11.61 52.898 0.725 7 7.98 9.62
4/22/2022 2:45:00 AM 11.57 52.826 0.725 7.01 8.08 9.62
4/22/2022 3:00:00 AM 11.52 52.736 0.726 7.03 10.61 9.62
4/22/2022 3:15:00 AM 11.48 52.664 0.722 7.04 6.66 9.63
4/22/2022 3:30:00 AM 11.43 52.574 0.728 7.03 8.67 9.63
4/22/2022 3:45:00 AM 11.39 52.502 0.728 6.99 9.5 9.65
4/22/2022 4:00:00 AM 11.35 52.43 0.73 7.02 8.52 9.65
4/22/2022 4:15:00 AM 11.31 52.358 0.731 7.01 8.47 9.63
4/22/2022 4:30:00 AM 11.26 52.268 0.733 7.01 6.57 9.69
4/22/2022 4:45:00 AM 11.23 52.214 0.732 7.02 6.28 9.69
4/22/2022 5:00:00 AM 11.19 52.142 0.733 7.03 9.65 9.72
4/22/2022 5:15:00 AM 11.15 52.07 0.736 7.02 8.57 9.74
4/22/2022 5:30:00 AM 11.11 51.998 0.737 7.04 7.72 9.72
4/22/2022 5:45:00 AM 11.08 51.944 0.738 7.06 6.99 9.72
4/22/2022 6:00:00 AM 11.03 51.854 0.739 7.05 10.5 9.75
4/22/2022 6:15:00 AM 11 51.8 0.74 7.04 9.81 9.76
4/22/2022 6:30:00 AM 10.96 51.728 0.741 7.02 10.59 9.71
4/22/2022 6:45:00 AM 10.93 51.674 0.742 7.04 9.87 9.72
4/22/2022 7:00:00 AM 10.9 51.62 0.743 7.05 11.25 9.77
4/22/2022 7:15:00 AM 10.87 51.566 0.741 7.03 9.94 9.88
4/22/2022 7:30:00 AM 10.86 51.548 0.745 7 9.63 9.93
4/22/2022 7:45:00 AM 10.85 51.53 0.746 7.02 8.58 10.01
4/22/2022 8:00:00 AM 10.84 51.512 0.746 7 8.72 10.12
4/22/2022 8:15:00 AM 10.85 51.53 0.747 7.01 8.23 10.19
4/22/2022 8:30:00 AM 10.86 51.548 0.748 7.03 8.11 10.27
4/22/2022 8:45:00 AM 10.9 51.62 0.749 7.07 7.38 10.45
4/22/2022 9:00:00 AM 10.94 51.692 0.749 7.04 9.55 10.62
4/22/2022 9:15:00 AM 11.01 51.818 0.75 7 9.82 10.78
4/22/2022 9:30:00 AM 11.12 52.016 0.751 7 9.36 11.03
4/22/2022 9:45:00 AM 11.25 52.25 0.751 6.98 8.98 11.32
4/22/2022 10:00:00 AM 11.43 52.574 0.751 6.97 8.98 11.63
4/22/2022 10:15:00 AM 11.63 52.934 0.751 6.92 8.82 11.86
4/22/2022 10:30:00 AM 11.85 53.33 0.751 6.95 7.17 12.08
4/22/2022 10:45:00 AM 12.11 53.798 0.752 6.97 7.27 12.45
4/22/2022 11:00:00 AM 12.28 54.104 0.752 7.36 17.56 12.63
4/22/2022 11:15:00 AM 12.58 54.644 0.752 7.37 7.97 12.9
4/22/2022 11:30:00 AM 12.79 55.022 0.752 7.12 8.54 13.16
4/22/2022 11:45:00 AM 13.09 55.562 0.752 6.79 7.44 13.43
4/22/2022 12:00:00 PM 13.32 55.976 0.753 7.02 7.31 13.62
4/22/2022 12:15:00 PM 13.56 56.408 0.753 7.22 8.9 13.76
4/22/2022 12:30:00 PM 13.82 56.876 0.753 7.34 10.8 13.89
4/22/2022 12:45:00 PM 14.03 57.254 0.753 7.27 7.7 14.08
4/22/2022 1:00:00 PM 14.25 57.65 0.752 7.38 7.51 14.18
4/22/2022 1:15:00 PM 14.45 58.01 0.752 7.4 7.58 14.26
4/22/2022 1:30:00 PM 14.61 58.298 0.752 7.2 5.94 14.3
4/22/2022 1:45:00 PM 14.76 58.568 0.751 7.07 8.89 14.44
4/22/2022 2:00:00 PM 14.87 58.766 0.753 7.29 8.28 14.51
4/22/2022 2:15:00 PM 15.04 59.072 0.752 7.17 8.43 14.44
4/22/2022 2:30:00 PM 15.23 59.414 0.753 7.11 9.04 14.53
4/22/2022 2:45:00 PM 15.29 59.522 0.752 7.31 8.65 14.51
4/22/2022 3:00:00 PM 15.32 59.576 0.752 7.37 6.2 14.52
4/22/2022 3:15:00 PM 15.38 59.684 0.751 7.46 6.87 14.35
4/22/2022 3:30:00 PM 15.4 59.72 0.752 7.53 2.52 14.29
4/22/2022 3:45:00 PM 15.42 59.756 0.752 7.61 7.81 14.1
4/22/2022 4:00:00 PM 15.54 59.972 0.752 7.63 6.81 14
4/22/2022 4:15:00 PM 15.6 60.08 0.757 7.67 5.78 14.07
4/22/2022 4:30:00 PM 15.67 60.206 0.751 7.7 5.81 13.96
4/22/2022 4:45:00 PM 15.68 60.224 0.753 7.72 29.7 13.67
4/22/2022 5:00:00 PM 15.7 60.26 0.753 7.74 7.73 13.62
4/22/2022 5:15:00 PM 15.67 60.206 0.753 7.76 7.7 13.41
4/22/2022 5:30:00 PM 15.67 60.206 0.754 7.78 9.8 13.25
4/22/2022 5:45:00 PM 15.67 60.206 0.755 7.78 5.96 13.1
4/22/2022 6:00:00 PM 15.7 60.26 0.753 7.76 7.91 12.92
4/22/2022 6:15:00 PM 15.7 60.26 0.756 7.76 7.35 12.7
4/22/2022 6:30:00 PM 15.69 60.242 0.756 7.76 7.6 12.46
4/22/2022 6:45:00 PM 15.67 60.206 0.756 7.76 11.91 12.22
4/22/2022 7:00:00 PM 15.6 60.08 0.756 7.75 6.66 12.06
4/22/2022 7:15:00 PM 15.62 60.116 0.755 7.75 6.5 11.85
4/22/2022 7:30:00 PM 15.55 59.99 0.755 7.71 8.5 11.69
4/22/2022 7:45:00 PM 15.46 59.828 0.755 7.68 7.29 11.36
4/22/2022 8:00:00 PM 15.38 59.684 0.755 7.7 7.45 11.09
4/22/2022 8:15:00 PM 15.29 59.522 0.756 7.61 7.98 10.84
4/22/2022 8:30:00 PM 15.2 59.36 0.756 7.65 8.36 10.71
4/22/2022 8:45:00 PM 15.1 59.18 0.756 7.67 8.04 10.48
4/22/2022 9:00:00 PM 15 59 0.756 7.65 10.04 10.27
4/22/2022 9:15:00 PM 14.91 58.838 0.754 7.61 11.04 10.14
4/22/2022 9:30:00 PM 14.81 58.658 0.756 7.71 6.6 10.02
4/22/2022 9:45:00 PM 14.7 58.46 0.757 7.7 7.52 9.88
4/22/2022 10:00:00 PM 14.59 58.262 0.756 7.65 7.71 9.76
4/22/2022 10:15:00 PM 14.48 58.064 0.756 7.23 7.93 9.59
4/22/2022 10:30:00 PM 14.37 57.866 0.755 7.16 7.55 9.53
4/22/2022 10:45:00 PM 14.26 57.668 0.753 7.09 7.42 9.41
4/22/2022 11:00:00 PM 14.16 57.488 0.755 7.28 11.31 9.32
4/22/2022 11:15:00 PM 14.06 57.308 0.755 7.26 12.41 9.27
4/22/2022 11:30:00 PM 13.96 57.128 0.754 7.54 8.52 9.23
4/22/2022 11:45:00 PM 13.87 56.966 0.754 7.58 9.76 9.13
4/23/2022 12:00:00 AM 13.79 56.822 0.753 7.64 8.15 9.1
4/23/2022 12:15:00 AM 13.72 56.696 0.752 7.66 7.47 9.01
4/23/2022 12:30:00 AM 13.65 56.57 0.752 7.73 7.65 8.99
4/23/2022 12:45:00 AM 13.59 56.462 0.751 7.71 10.67 8.93
4/23/2022 1:00:00 AM 13.52 56.336 0.751 7.7 11.87 8.86
4/23/2022 1:15:00 AM 13.46 56.228 0.75 7.69 7.6 8.96
4/23/2022 1:30:00 AM 13.41 56.138 0.75 7.67 7.76 8.87
4/23/2022 1:45:00 AM 13.36 56.048 0.749 7.66 6.77 8.92
4/23/2022 2:00:00 AM 13.32 55.976 0.749 7.63 8.77 8.88
4/23/2022 2:15:00 AM 13.28 55.904 0.748 7.6 8.29 8.89
4/23/2022 2:30:00 AM 13.24 55.832 0.744 7.6 6.58 8.86
4/23/2022 2:45:00 AM 13.2 55.76 0.748 7.58 8.07 8.84
4/23/2022 3:00:00 AM 13.17 55.706 0.749 7.58 8.05 8.8
4/23/2022 3:15:00 AM 13.13 55.634 0.745 7.52 7.55 8.85
4/23/2022 3:30:00 AM 13.1 55.58 0.748 7.44 7.38 8.81
4/23/2022 3:45:00 AM 13.07 55.526 0.748 7.43 8.82 8.78
4/23/2022 4:00:00 AM 13.05 55.49 0.75 7.44 7.14 8.82
4/23/2022 4:15:00 AM 13.01 55.418 0.75 7.39 6.51 8.85
4/23/2022 4:30:00 AM 12.99 55.382 0.744 7.4 8.86 8.85
4/23/2022 4:45:00 AM 12.96 55.328 0.749 7.38 6.06 8.86
4/23/2022 5:00:00 AM 12.94 55.292 0.751 7.37 7.98 8.89
4/23/2022 5:15:00 AM 12.93 55.274 0.752 7.39 6.61 8.89
4/23/2022 5:30:00 AM 12.91 55.238 0.752 7.4 6.55 8.88
4/23/2022 5:45:00 AM 12.89 55.202 0.753 7.39 8.01 8.9
4/23/2022 6:00:00 AM 12.89 55.202 0.754 7.41 7.62 8.85
4/23/2022 6:15:00 AM 12.87 55.166 0.755 7.41 7.95 8.88
4/23/2022 6:30:00 AM 12.87 55.166 0.755 7.41 7.78 8.89
4/23/2022 6:45:00 AM 12.86 55.148 0.757 7.4 7.89 8.89
4/23/2022 7:00:00 AM 12.85 55.13 0.758 7.36 7.2 8.85
4/23/2022 7:15:00 AM 12.86 55.148 0.758 7.4 10.78 8.92
4/23/2022 7:30:00 AM 12.86 55.148 0.758 7.39 6.65 8.94
4/23/2022 7:45:00 AM 12.86 55.148 0.761 7.38 6.83 8.96
4/23/2022 8:00:00 AM 12.88 55.184 0.762 7.36 7 8.98
4/23/2022 8:15:00 AM 12.92 55.256 0.762 7.36 6.87 9.19
4/23/2022 8:30:00 AM 12.93 55.274 0.765 7.28 7.74 9.21
4/23/2022 8:45:00 AM 12.95 55.31 0.764 6.63 7.86 9.34
4/23/2022 9:00:00 AM 12.96 55.328 0.765 6.2 8.91 9.44
4/23/2022 9:15:00 AM 12.97 55.346 0.766 5.92 7.89 9.32
4/23/2022 9:30:00 AM 13.01 55.418 0.767 6.51 6.26 9.47
4/23/2022 9:45:00 AM 13.08 55.544 0.768 6.88 7.92 9.7
4/23/2022 10:00:00 AM 13.12 55.616 0.769 7.03 7.03 9.9
4/23/2022 10:15:00 AM 13.15 55.67 0.764 7.14 9.55 10.11
4/23/2022 10:30:00 AM 13.22 55.796 0.768 7.16 8.57 10.39
4/23/2022 10:45:00 AM 13.27 55.886 0.77 7.18 7.86 10.61
4/23/2022 11:00:00 AM 13.41 56.138 0.77 7.19 7.9 10.91
4/23/2022 11:15:00 AM 13.49 56.282 0.769 7.16 8.55 11.25
4/23/2022 11:30:00 AM 13.54 56.372 0.773 7.17 7.41 11.49
4/23/2022 11:45:00 AM 13.58 56.444 0.771 7.17 7.8 11.69
4/23/2022 12:00:00 PM 13.67 56.606 0.77 7.17 8.67 11.75
4/23/2022 12:15:00 PM 13.71 56.678 0.77 7.12 6.14 11.94
4/23/2022 12:30:00 PM 13.73 56.714 0.771 7.15 7.68 12.05
4/23/2022 12:45:00 PM 13.72 56.696 0.771 7.19 7.43 12.04
4/23/2022 1:00:00 PM 13.77 56.786 0.773 7.19 7.21 11.99
4/23/2022 1:15:00 PM 13.77 56.786 0.773 7.21 7.74 12.1
4/23/2022 1:30:00 PM 13.81 56.858 0.773 7.22 6.8 12.19
4/23/2022 1:45:00 PM 13.82 56.876 0.772 7.19 6.62 12.28
4/23/2022 2:00:00 PM 13.83 56.894 0.774 7.23 7.08 12.26
4/23/2022 2:15:00 PM 13.86 56.948 0.774 7.27 7.38 12.32
4/23/2022 2:30:00 PM 13.92 57.056 0.775 7.31 7.27 12.45
4/23/2022 2:45:00 PM 13.97 57.146 0.774 7.31 6.78 12.48
4/23/2022 3:00:00 PM 14.08 57.344 0.775 7.34 6.86 12.55
4/23/2022 3:15:00 PM 14.13 57.434 0.776 7.31 7.17 12.75
4/23/2022 3:30:00 PM 14.21 57.578 0.778 7.35 6.43 12.84
4/23/2022 3:45:00 PM 14.26 57.668 0.778 7.39 5.98 12.96
4/23/2022 4:00:00 PM 14.3 57.74 0.779 7.42 2.01 12.99
4/23/2022 4:15:00 PM 14.44 57.992 0.754 7.42 6.52 13.02
4/23/2022 4:30:00 PM 14.5 58.1 0.728 7.07 6.58 13.09
4/23/2022 4:45:00 PM 14.54 58.172 0.78 7.13 6.67 13.15
4/23/2022 5:00:00 PM 14.56 58.208 0.782 7.22 11.71 13.03
4/23/2022 5:15:00 PM 14.61 58.298 0.782 7.32 6.27 12.99
4/23/2022 5:30:00 PM 14.62 58.316 0.777 7.36 6.59 12.9
4/23/2022 5:45:00 PM 14.62 58.316 0.778 7.36 7.42 12.85
4/23/2022 6:00:00 PM 14.62 58.316 0.776 7.41 6.09 12.62
4/23/2022 6:15:00 PM 14.63 58.334 0.776 7.43 7.61 12.46
4/23/2022 6:30:00 PM 14.62 58.316 0.779 7.44 5.46 12.27
4/23/2022 6:45:00 PM 14.66 58.388 0.767 7.33 5.67 12.11
4/23/2022 7:00:00 PM 14.62 58.316 0.782 7.46 7.48 11.97
4/23/2022 7:15:00 PM 14.61 58.298 0.781 7.51 5.42 11.79
4/23/2022 7:30:00 PM 14.6 58.28 0.783 7.55 6.55 11.63
4/23/2022 7:45:00 PM 14.58 58.244 0.784 7.57 5.43 11.4
4/23/2022 8:00:00 PM 14.54 58.172 0.784 7.6 5.35 11.27
4/23/2022 8:15:00 PM 14.5 58.1 0.786 7.62 5.34 11.03
4/23/2022 8:30:00 PM 14.48 58.064 0.783 7.66 7.91 10.79
4/23/2022 8:45:00 PM 14.44 57.992 0.789 7.7 5.98 10.63
4/23/2022 9:00:00 PM 14.4 57.92 0.787 7.69 6.52 10.43
4/23/2022 9:15:00 PM 14.35 57.83 0.788 7.7 8.44 10.27
4/23/2022 9:30:00 PM 14.31 57.758 0.789 7.72 7.26 10.07
4/23/2022 9:45:00 PM 14.29 57.722 0.788 7.73 5.97 9.93
4/23/2022 10:00:00 PM 14.23 57.614 0.789 7.75 6.66 9.79
4/23/2022 10:15:00 PM 14.19 57.542 0.79 7.75 6.46 9.7
4/23/2022 10:30:00 PM 14.14 57.452 0.787 7.75 6.17 9.56
4/23/2022 10:45:00 PM 14.08 57.344 0.789 7.75 5.6 9.43
4/23/2022 11:00:00 PM 14.03 57.254 0.79 7.79 6.28 9.3
4/23/2022 11:15:00 PM 13.99 57.182 0.789 7.82 5.21 9.26
4/23/2022 11:30:00 PM 13.93 57.074 0.787 7.84 6.98 9.13
4/23/2022 11:45:00 PM 13.88 56.984 0.79 7.9 4.78 9.1
4/24/2022 12:00:00 AM 13.83 56.894 0.788 7.98 6.02 9.05
4/24/2022 12:15:00 AM 13.77 56.786 0.788 8.01 7.03 8.9
4/24/2022 12:30:00 AM 13.72 56.696 0.787 7.97 5.25 8.94
4/24/2022 12:45:00 AM 13.67 56.606 0.788 7.99 5.66 8.9
4/24/2022 1:00:00 AM 13.61 56.498 0.786 8.01 5.37 8.89
4/24/2022 1:15:00 AM 13.54 56.372 0.785 8.04 5.75 8.77
4/24/2022 1:30:00 AM 13.49 56.282 0.786 8.06 8.57 8.79
4/24/2022 1:45:00 AM 13.43 56.174 0.783 8.05 2.39 8.74
4/24/2022 2:00:00 AM 13.37 56.066 0.786 8.05 6.57 8.7
4/24/2022 2:15:00 AM 13.31 55.958 0.782 8.05 6.16 8.68
4/24/2022 2:30:00 AM 13.26 55.868 0.783 8.05 5.86 8.68
4/24/2022 2:45:00 AM 13.2 55.76 0.781 8.05 5.18 8.71
4/24/2022 3:00:00 AM 13.15 55.67 0.781 8.06 5.36 8.73
4/24/2022 3:15:00 AM 13.09 55.562 0.78 8.04 9.29 8.72
4/24/2022 3:30:00 AM 13.03 55.454 0.78 8.05 5.85 8.75
4/24/2022 3:45:00 AM 12.98 55.364 0.778 8.04 5.42 8.73
4/24/2022 4:00:00 AM 12.93 55.274 0.776 8.05 6.54 8.78
4/24/2022 4:15:00 AM 12.89 55.202 0.777 8.06 6.83 8.74
4/24/2022 4:30:00 AM 12.84 55.112 0.775 8.06 6.33 8.78
4/24/2022 4:45:00 AM 12.79 55.022 0.773 8.07 5.37 8.77
4/24/2022 5:00:00 AM 12.75 54.95 0.761 8.08 6.08 8.81
4/24/2022 5:15:00 AM 12.71 54.878 0.756 8.08 6.12 8.81
4/24/2022 5:30:00 AM 12.68 54.824 0.758 8.07 6.06 8.79
4/24/2022 5:45:00 AM 12.65 54.77 0.757 8.08 6.19 8.86
4/24/2022 6:00:00 AM 12.62 54.716 0.756 8.07 7.16 8.84
4/24/2022 6:15:00 AM 12.59 54.662 0.754 8.08 6.77 8.84
4/24/2022 6:30:00 AM 12.56 54.608 0.754 8.07 7.53 8.81
4/24/2022 6:45:00 AM 12.54 54.572 0.753 8.07 7.4 8.72
4/24/2022 7:00:00 AM 12.53 54.554 0.752 8.04 7.07 8.89
4/24/2022 7:15:00 AM 12.53 54.554 0.752 8.05 6.89 9.03
4/24/2022 7:30:00 AM 12.52 54.536 0.751 8.04 6.57 9.15
4/24/2022 7:45:00 AM 12.51 54.518 0.751 8.02 7.1 9.27
4/24/2022 8:00:00 AM 12.49 54.482 0.746 8 7.73 9.26
4/24/2022 8:15:00 AM 12.5 54.5 0.745 7.98 5.62 9.39
4/24/2022 8:30:00 AM 12.51 54.518 0.741 8.01 6.02 9.55
4/24/2022 8:45:00 AM 12.55 54.59 0.741 7.89 7.95 9.71
4/24/2022 9:00:00 AM 12.58 54.644 0.74 7.83 7.26 9.9
4/24/2022 9:15:00 AM 12.64 54.752 0.741 7.78 5.69 10.14
4/24/2022 9:30:00 AM 12.68 54.824 0.741 7.74 8.65 10.32
4/24/2022 9:45:00 AM 12.78 55.004 0.741 7.69 7.02 10.63
4/24/2022 10:00:00 AM 12.95 55.31 0.741 7.65 9.39 10.99
4/24/2022 10:15:00 AM 13.09 55.562 0.742 7.45 11.3 11.35
4/24/2022 10:30:00 AM 13.25 55.85 0.743 7.3 6.25 11.59
4/24/2022 10:45:00 AM 13.53 56.354 0.742 7.5 6.45 11.97
4/24/2022 11:00:00 AM 13.74 56.732 0.744 7.39 6.08 12.31
4/24/2022 11:15:00 AM 14.06 57.308 0.742 7.51 6.66 12.5
4/24/2022 11:30:00 AM 14.15 57.47 0.743 7.54 5.73 12.74
4/24/2022 11:45:00 AM 14.36 57.848 0.743 7.56 5.59 13.07
4/24/2022 12:00:00 PM 14.62 58.316 0.744 7.53 4.57 13.29
4/24/2022 12:15:00 PM 14.82 58.676 0.743 7.61 6.09 13.49
4/24/2022 12:30:00 PM 15.14 59.252 0.743 6.86 4.94 13.71
4/24/2022 12:45:00 PM 15.41 59.738 0.739 6.96 12.53 14
4/24/2022 1:00:00 PM 15.54 59.972 0.739 7.2 9.41 13.95
4/24/2022 1:15:00 PM 15.76 60.368 0.739 7.1 9.66 14.13
4/24/2022 1:30:00 PM 15.97 60.746 0.739 7.56 5.39 14.29
4/24/2022 1:45:00 PM 16.13 61.034 0.739 7.63 11.31 14.24
4/24/2022 2:00:00 PM 16.51 61.718 0.737 7.55 7.1 14.25
4/24/2022 2:15:00 PM 16.55 61.79 0.737 7.2 5.24 14.44
4/24/2022 2:30:00 PM 16.77 62.186 0.738 7.66 10.11 14.37
4/24/2022 2:45:00 PM 16.9 62.42 0.736 7.85 6.67 14.4
4/24/2022 3:00:00 PM 17.13 62.834 0.735 7.95 6.23 14.48
4/24/2022 3:15:00 PM 17.29 63.122 0.735 8.03 7.06 14.5
4/24/2022 3:30:00 PM 17.43 63.374 0.735 7.77 8.41 14.56
4/24/2022 3:45:00 PM 17.52 63.536 0.736 7.95 7.5 14.45
4/24/2022 4:00:00 PM 17.77 63.986 0.735 7.95 7.2 14.29
4/24/2022 4:15:00 PM 17.79 64.022 0.737 7.99 3.32 14.16
4/24/2022 4:30:00 PM 17.91 64.238 0.736 8.07 8.4 14.15
4/24/2022 4:45:00 PM 17.98 64.364 0.738 8.13 6.8 14.01
4/24/2022 5:00:00 PM 17.99 64.382 0.738 8.16 6.04 13.79
4/24/2022 5:15:00 PM 18.05 64.49 0.738 8.19 6.81 13.53
4/24/2022 5:30:00 PM 18.05 64.49 0.737 8.18 7.36 13.22
4/24/2022 5:45:00 PM 18.07 64.526 0.738 8.22 5.87 13.05
4/24/2022 6:00:00 PM 18.08 64.544 0.739 8.24 6.51 12.79
4/24/2022 6:15:00 PM 18.06 64.508 0.739 8.23 5.98 12.48
4/24/2022 6:30:00 PM 18.04 64.472 0.739 8.26 6.54 12.26
4/24/2022 6:45:00 PM 18.05 64.49 0.74 8.28 6.37 12.04
4/24/2022 7:00:00 PM 18.02 64.436 0.741 8.29 17.34 11.76
4/24/2022 7:15:00 PM 17.98 64.364 0.742 8.25 8.21 11.55
4/24/2022 7:30:00 PM 17.91 64.238 0.741 8.23 5.09 11.27
4/24/2022 7:45:00 PM 17.88 64.184 0.744 8.21 6.54 11.02
4/24/2022 8:00:00 PM 17.79 64.022 0.746 8.2 5.15 10.73
4/24/2022 8:15:00 PM 17.72 63.896 0.746 8.23 5.46 10.48
4/24/2022 8:30:00 PM 17.62 63.716 0.685 8.26 6.02 10.14
4/24/2022 8:45:00 PM 17.51 63.518 0.726 8.26 4.84 9.95
4/24/2022 9:00:00 PM 17.41 63.338 0.699 8.27 5.4 9.74
4/24/2022 9:15:00 PM 17.31 63.158 0.705 8.26 5.99 9.61
4/24/2022 9:30:00 PM 17.19 62.942 0.707 8.26 5.22 9.39
4/24/2022 9:45:00 PM 17.07 62.726 0.723 8.26 6.22 9.12
4/24/2022 10:00:00 PM 16.95 62.51 0.709 8.27 5.91 8.89
4/24/2022 10:15:00 PM 16.83 62.294 0.72 8.24 5.93 8.77
4/24/2022 10:30:00 PM 16.71 62.078 0.663 8.25 6.66 8.63
4/24/2022 10:45:00 PM 16.59 61.862 0.752 8.23 6.31 8.58
4/24/2022 11:00:00 PM 16.47 61.646 0.751 8.23 7.16 8.43
4/24/2022 11:15:00 PM 16.35 61.43 0.756 8.21 5.8 8.25
4/24/2022 11:30:00 PM 16.24 61.232 0.755 8.25 6.29 8.18
4/24/2022 11:45:00 PM 16.13 61.034 0.752 8.21 9.82 8.09
4/25/2022 12:00:00 AM 16.02 60.836 0.752 8.16 4.91 8.14
4/25/2022 12:15:00 AM 15.91 60.638 0.751 8.18 5.75 8.04
4/25/2022 12:30:00 AM 15.82 60.476 0.751 8.15 16.84 8.01
4/25/2022 12:45:00 AM 15.72 60.296 0.751 8.12 6.1 7.84
4/25/2022 1:00:00 AM 15.61 60.098 0.749 8.12 4.64 7.91
4/25/2022 1:15:00 AM 15.52 59.936 0.749 8.11 5.46 7.87
4/25/2022 1:30:00 AM 15.42 59.756 0.748 8.09 4.69 7.86
4/25/2022 1:45:00 AM 15.33 59.594 0.747 8.1 6.85 7.8
4/25/2022 2:00:00 AM 15.25 59.45 0.749 8.13 4.9 7.88
4/25/2022 2:15:00 AM 15.17 59.306 0.748 8.16 4.78 7.78
4/25/2022 2:30:00 AM 15.09 59.162 0.741 8.17 5.22 7.83
4/25/2022 2:45:00 AM 15.02 59.036 0.74 8.17 4.71 7.79
4/25/2022 3:00:00 AM 14.95 58.91 0.74 8.17 27.79 7.79
4/25/2022 3:15:00 AM 14.88 58.784 0.705 8.18 11.22 7.81
4/25/2022 3:30:00 AM 14.81 58.658 0.702 8.2 5.61 7.81
4/25/2022 3:45:00 AM 14.75 58.55 0.75 8.18 7.37 7.86
4/25/2022 4:00:00 AM 14.69 58.442 0.75 8.19 5.99 7.85
4/25/2022 4:15:00 AM 14.63 58.334 0.749 8.2 5.99 7.92
4/25/2022 4:30:00 AM 14.57 58.226 0.742 8.21 4.48 7.93
4/25/2022 4:45:00 AM 14.52 58.136 0.748 8.24 6.79 7.95
4/25/2022 5:00:00 AM 14.45 58.01 0.746 8.24 4.88 7.91
4/25/2022 5:15:00 AM 14.41 57.938 0.75 8.26 4.57 7.94
4/25/2022 5:30:00 AM 14.36 57.848 0.748 8.32 5.17 8.03
4/25/2022 5:45:00 AM 14.31 57.758 0.748 8.4 4.86 8
4/25/2022 6:00:00 AM 14.26 57.668 0.746 8.42 5.61 7.92
4/25/2022 6:15:00 AM 14.22 57.596 0.746 8.44 4.96 8.01
4/25/2022 6:30:00 AM 14.18 57.524 0.745 8.45 4.4 8.03
4/25/2022 6:45:00 AM 14.15 57.47 0.743 8.45 4.9 8.01
4/25/2022 7:00:00 AM 14.14 57.452 0.742 8.44 154.8 8.12
4/25/2022 7:15:00 AM 14.13 57.434 0.741 8.44 1.76 8.06
4/25/2022 7:30:00 AM 14.11 57.398 0.74 8.44 5.72 8.24
4/25/2022 7:45:00 AM 14.1 57.38 0.74 8.42 5.67 8.31
4/25/2022 8:00:00 AM 14.09 57.362 0.737 8.35 5.73 8.38
4/25/2022 8:15:00 AM 14.08 57.344 0.738 8.35 4.63 8.47
4/25/2022 8:30:00 AM 14.07 57.326 0.737 8.34 5.4 8.59
4/25/2022 8:45:00 AM 14.08 57.344 0.734 8.33 5.95 8.76
4/25/2022 9:00:00 AM 14.08 57.344 0.735 8.32 4.5 8.9
4/25/2022 9:15:00 AM 14.1 57.38 0.734 8.32 12.03 9.06
4/25/2022 9:30:00 AM 14.14 57.452 0.732 8.18 4.75 9.32
4/25/2022 9:45:00 AM 14.17 57.506 0.732 8.18 57.86 9.52
4/25/2022 10:00:00 AM 14.2 57.56 0.731 8.15 10.63 9.7
4/25/2022 10:15:00 AM 14.23 57.614 0.731 8.14 7.5 9.96
4/25/2022 10:30:00 AM 14.28 57.704 0.728 8.13 13.27 10.16
4/25/2022 10:45:00 AM 14.35 57.83 0.728 8.09 4.4 10.42
4/25/2022 11:00:00 AM 14.38 57.884 0.728 8.07 3.91 10.54
4/25/2022 11:15:00 AM 14.46 58.028 0.727 8.08 6.71 10.89
4/25/2022 11:30:00 AM 14.49 58.082 0.725 8.04 2.21 11.11
4/25/2022 11:45:00 AM 14.57 58.226 0.72 8.01 5.26 11.32
4/25/2022 12:00:00 PM 14.62 58.316 0.719 8.03 5.81 11.49
4/25/2022 12:15:00 PM 14.7 58.46 0.718 7.99 6.78 11.65
4/25/2022 12:30:00 PM 14.76 58.568 0.718 7.99 5 11.85
4/25/2022 12:45:00 PM 14.78 58.604 0.718 7.99 4.59 11.99
4/25/2022 1:00:00 PM 14.82 58.676 0.718 7.94 5.47 12.08
4/25/2022 1:15:00 PM 14.88 58.784 0.719 7.92 4.08 12.24
4/25/2022 1:30:00 PM 14.97 58.946 0.719 7.87 6.16 12.34
4/25/2022 1:45:00 PM 15.04 59.072 0.72 7.88 4.46 12.41
4/25/2022 2:00:00 PM 15.09 59.162 0.72 7.88 4.29 12.56
4/25/2022 2:15:00 PM 15.22 59.396 0.719 7.82 2.6 12.8
4/25/2022 2:30:00 PM 15.26 59.468 0.719 7.84 5.9 13
4/25/2022 2:45:00 PM 15.33 59.594 0.717 7.82 4.71 13
4/25/2022 3:00:00 PM 15.44 59.792 0.721 7.81 6.44 13.17
4/25/2022 3:15:00 PM 15.54 59.972 0.717 7.84 10.59 13.3
4/25/2022 3:30:00 PM 15.7 60.26 0.714 7.85 4.27 13.46
4/25/2022 3:45:00 PM 15.76 60.368 0.715 7.86 5.05 13.5
4/25/2022 4:00:00 PM 15.8 60.44 0.715 7.89 4.36 13.61
4/25/2022 4:15:00 PM 15.88 60.584 0.715 7.92 4.89 13.63
4/25/2022 4:30:00 PM 15.96 60.728 0.715 7.95 5.18 13.65
4/25/2022 4:45:00 PM 16.02 60.836 0.714 7.98 4.81 13.66
4/25/2022 5:00:00 PM 16.05 60.89 0.713 7.99 5.05 13.59
4/25/2022 5:15:00 PM 16.11 60.998 0.713 8.02 3.37 13.44
4/25/2022 5:30:00 PM 16.08 60.944 0.712 8.03 9.83 13.38
4/25/2022 5:45:00 PM 16.07 60.926 0.713 8.05 3.97 13.22
4/25/2022 6:00:00 PM 16.06 60.908 0.713 8.07 4.77 12.92
4/25/2022 6:15:00 PM 16.06 60.908 0.713 8.07 3.52 12.73
4/25/2022 6:30:00 PM 16.08 60.944 0.711 8.1 4.33 12.56
4/25/2022 6:45:00 PM 16.02 60.836 0.713 8.11 4.69 12.42
4/25/2022 7:00:00 PM 15.99 60.782 0.713 8.08 4.22 12.14
4/25/2022 7:15:00 PM 15.95 60.71 0.717 8.12 3.42 11.83
4/25/2022 7:30:00 PM 15.95 60.71 0.714 8.12 12.73 11.62
4/25/2022 7:45:00 PM 15.89 60.602 0.714 8.13 4.61 11.36
4/25/2022 8:00:00 PM 15.85 60.53 0.718 8.14 4.24 11.1
4/25/2022 8:15:00 PM 15.81 60.458 0.713 8.14 4.25 10.87
4/25/2022 8:30:00 PM 15.77 60.386 0.706 8.13 4.31 10.6
4/25/2022 8:45:00 PM 15.71 60.278 0.712 8.13 9.5 10.28
4/25/2022 9:00:00 PM 15.65 60.17 0.718 8.12 3.62 10.02
4/25/2022 9:15:00 PM 15.63 60.134 0.717 8.1 4.19 9.93
4/25/2022 9:30:00 PM 15.59 60.062 0.718 8.08 7.3 9.68
4/25/2022 9:45:00 PM 15.55 59.99 0.717 8.06 6.93 9.49
4/25/2022 10:00:00 PM 15.51 59.918 0.718 8.06 4.18 9.41
4/25/2022 10:15:00 PM 15.47 59.846 0.717 8.05 3.47 9.2
4/25/2022 10:30:00 PM 15.42 59.756 0.718 8.02 5.91 8.98
4/25/2022 10:45:00 PM 15.38 59.684 0.718 8 3.83 8.95
4/25/2022 11:00:00 PM 15.34 59.612 0.718 7.98 10.25 8.8
4/25/2022 11:15:00 PM 15.3 59.54 0.719 7.96 5.23 8.65
4/25/2022 11:30:00 PM 15.25 59.45 0.719 7.95 5.58 8.59
4/25/2022 11:45:00 PM 15.22 59.396 0.72 7.92 4.02 8.55
4/26/2022 12:00:00 AM 15.16 59.288 0.719 7.89 7.04 8.47
4/26/2022 12:15:00 AM 15.12 59.216 0.72 7.89 6.25 8.39
4/26/2022 12:30:00 AM 15.07 59.126 0.72 7.88 5.91 8.29
4/26/2022 12:45:00 AM 15.02 59.036 0.717 7.87 4.22 8.25
4/26/2022 1:00:00 AM 14.98 58.964 0.719 7.86 5.71 8.21
4/26/2022 1:15:00 AM 14.94 58.892 0.72 7.84 8.89 8.2
4/26/2022 1:30:00 AM 14.9 58.82 0.72 7.83 4.1 8.17
4/26/2022 1:45:00 AM 14.86 58.748 0.72 7.81 5.43 8.15
4/26/2022 2:00:00 AM 14.81 58.658 0.72 7.79 7.05 8.13
4/26/2022 2:15:00 AM 14.78 58.604 0.721 7.76 5.75 8.02
4/26/2022 2:30:00 AM 14.74 58.532 0.721 7.75 3.29 8
4/26/2022 2:45:00 AM 14.71 58.478 0.721 7.72 7.91 8.08
4/26/2022 3:00:00 AM 14.67 58.406 0.72 7.72 8.41 8.09
4/26/2022 3:15:00 AM 14.64 58.352 0.719 7.72 5.19 7.94
4/26/2022 3:30:00 AM 14.61 58.298 0.719 7.72 2.99 7.98
4/26/2022 3:45:00 AM 14.57 58.226 0.718 7.7 3.5 8.04
4/26/2022 4:00:00 AM 14.55 58.19 0.717 7.69 3.52 8.09
4/26/2022 4:15:00 AM 14.52 58.136 0.717 7.68 4.87 7.99
4/26/2022 4:30:00 AM 14.49 58.082 0.716 7.68 4.73 8.02
4/26/2022 4:45:00 AM 14.47 58.046 0.715 7.69 6.27 8.17
4/26/2022 5:00:00 AM 14.44 57.992 0.715 7.68 3.81 8.13
4/26/2022 5:15:00 AM 14.42 57.956 0.713 7.69 4.53 8.07
4/26/2022 5:30:00 AM 14.4 57.92 0.712 7.68 4.63 8.02
4/26/2022 5:45:00 AM 14.38 57.884 0.71 7.67 4.18 8.09
4/26/2022 6:00:00 AM 14.36 57.848 0.709 7.67 5.46 8.15
4/26/2022 6:15:00 AM 14.34 57.812 0.708 7.67 5.89 8.08
4/26/2022 6:30:00 AM 14.32 57.776 0.708 7.63 3.27 8.09
4/26/2022 6:45:00 AM 14.3 57.74 0.707 7.64 3.81 8.17
4/26/2022 7:00:00 AM 14.29 57.722 0.705 7.67 5.96 8.15
4/26/2022 7:15:00 AM 14.27 57.686 0.704 7.68 3.56 8.08
4/26/2022 7:30:00 AM 14.27 57.686 0.703 7.68 5.72 8.29
4/26/2022 7:45:00 AM 14.26 57.668 0.701 7.69 9.19 8.34
4/26/2022 8:00:00 AM 14.26 57.668 0.7 7.68 6.27 8.47
4/26/2022 8:15:00 AM 14.26 57.668 0.699 7.68 5.08 8.68
4/26/2022 8:30:00 AM 14.27 57.686 0.698 7.69 5.03 8.72
4/26/2022 8:45:00 AM 14.28 57.704 0.698 7.69 4.03 8.95
4/26/2022 9:00:00 AM 14.31 57.758 0.697 7.68 4.27 9.1
4/26/2022 9:15:00 AM 14.34 57.812 0.696 7.68 4.46 9.38
4/26/2022 9:30:00 AM 14.4 57.92 0.695 7.69 6.3 9.69
4/26/2022 9:45:00 AM 14.45 58.01 0.694 7.7 4.12 9.97
4/26/2022 10:00:00 AM 14.49 58.082 0.694 7.71 3.84 10.21
4/26/2022 10:15:00 AM 14.6 58.28 0.693 7.72 4.67 10.56
4/26/2022 10:30:00 AM 14.63 58.334 0.693 7.73 4.13 10.85
4/26/2022 10:45:00 AM 14.73 58.514 0.692 7.76 7.09 11.14
4/26/2022 11:00:00 AM 14.84 58.712 0.692 7.8 4.98 11.38
4/26/2022 11:15:00 AM 14.86 58.748 0.692 7.79 3.62 11.63
4/26/2022 11:30:00 AM 14.91 58.838 0.692 7.82 3.44 11.82
4/26/2022 11:45:00 AM 14.98 58.964 0.692 7.84 3.05 12.02
4/26/2022 12:00:00 PM 15.12 59.216 0.691 7.86 3.15 12.12
4/26/2022 12:15:00 PM 15.12 59.216 0.692 7.89 2.7 12.39
4/26/2022 12:30:00 PM 15.19 59.342 0.693 7.93 4.38 12.62
4/26/2022 12:45:00 PM 15.24 59.432 0.693 7.96 11.32 12.63
4/26/2022 1:00:00 PM 15.25 59.45 0.694 7.97 3.41 12.54
4/26/2022 1:15:00 PM 15.32 59.576 0.694 8.02 11.02 12.55
4/26/2022 1:30:00 PM 15.37 59.666 0.695 8.04 4.31 12.8
4/26/2022 1:45:00 PM 15.4 59.72 0.695 8.07 2.54 12.86
4/26/2022 2:00:00 PM 15.42 59.756 0.696 8.07 2.65 12.71
4/26/2022 2:15:00 PM 15.44 59.792 0.697 8.07 4.19 12.58
4/26/2022 2:30:00 PM 15.43 59.774 0.699 8.11 2.96 12.51
4/26/2022 2:45:00 PM 15.46 59.828 0.7 8.11 2.36 12.4
4/26/2022 3:00:00 PM 15.44 59.792 0.701 8.13 2.89 12.21
4/26/2022 3:15:00 PM 15.47 59.846 0.701 8.14 2.62 12.08
4/26/2022 3:30:00 PM 15.48 59.864 0.703 8.14 3.44 12.05
4/26/2022 3:45:00 PM 15.48 59.864 0.704 8.16 3.34 11.92
4/26/2022 4:00:00 PM 15.49 59.882 0.705 8.17 3.74 11.77
4/26/2022 4:15:00 PM 15.48 59.864 0.707 8.17 5.51 11.61
4/26/2022 4:30:00 PM 15.47 59.846 0.708 8.17 5.88 11.53
4/26/2022 4:45:00 PM 15.47 59.846 0.71 8.18 3.1 11.31
4/26/2022 5:00:00 PM 15.46 59.828 0.711 8.19 7.85 11.26
4/26/2022 5:15:00 PM 15.46 59.828 0.713 8.19 1.94 11.1
4/26/2022 5:30:00 PM 15.45 59.81 0.714 8.19 2.78 11.07
4/26/2022 5:45:00 PM 15.43 59.774 0.715 8.18 3.17 10.92
4/26/2022 6:00:00 PM 15.43 59.774 0.717 8.19 1.87 10.71
4/26/2022 6:15:00 PM 15.39 59.702 0.718 8.19 4.87 10.57
4/26/2022 6:30:00 PM 15.37 59.666 0.718 8.18 3.05 10.47
4/26/2022 6:45:00 PM 15.36 59.648 0.72 8.15 4.21 10.3
4/26/2022 7:00:00 PM 15.33 59.594 0.721 8.16 4.59 10.17
4/26/2022 7:15:00 PM 15.32 59.576 0.722 8.14 3.73 10.09
4/26/2022 7:30:00 PM 15.27 59.486 0.723 8.11 3.62 9.86
4/26/2022 7:45:00 PM 15.23 59.414 0.724 8.13 3.82 9.75
4/26/2022 8:00:00 PM 15.19 59.342 0.725 8.11 6.24 9.6
4/26/2022 8:15:00 PM 15.14 59.252 0.727 8.06 2.95 9.4
4/26/2022 8:30:00 PM 15.11 59.198 0.727 8.08 4.97 9.28
4/26/2022 8:45:00 PM 15.06 59.108 0.728 8.06 5.64 9.24
4/26/2022 9:00:00 PM 15.03 59.054 0.729 8.04 3.05 9.08
4/26/2022 9:15:00 PM 14.99 58.982 0.73 8.05 3.97 8.99
4/26/2022 9:30:00 PM 14.95 58.91 0.731 8.03 3.22 8.85
4/26/2022 9:45:00 PM 14.91 58.838 0.731 8.01 4.64 8.77
4/26/2022 10:00:00 PM 14.85 58.73 0.732 8 4.3 8.65
4/26/2022 10:15:00 PM 14.8 58.64 0.732 8.02 3.61 8.64
4/26/2022 10:30:00 PM 14.74 58.532 0.732 8.02 5.42 8.56
4/26/2022 10:45:00 PM 14.68 58.424 0.733 8.01 5.18 8.38
4/26/2022 11:00:00 PM 14.61 58.298 0.733 8.02 5.14 8.52
4/26/2022 11:15:00 PM 14.55 58.19 0.733 8.06 4.8 8.5
4/26/2022 11:30:00 PM 14.5 58.1 0.734 8.08 5.26 8.4
4/26/2022 11:45:00 PM 14.44 57.992 0.734 8.11 5.92 8.33
4/27/2022 12:00:00 AM 14.39 57.902 0.734 8.13 7.4 8.38
4/27/2022 12:15:00 AM 14.31 57.758 0.734 8.14 4.45 8.36
4/27/2022 12:30:00 AM 14.27 57.686 0.734 8.13 3.79 8.37
4/27/2022 12:45:00 AM 14.22 57.596 0.735 8.12 3.92 8.44
4/27/2022 1:00:00 AM 14.17 57.506 0.735 8.15 4.41 8.4
4/27/2022 1:15:00 AM 14.12 57.416 0.736 8.17 5.09 8.41
4/27/2022 1:30:00 AM 14.08 57.344 0.737 8.14 4.37 8.39
4/27/2022 1:45:00 AM 14.02 57.236 0.736 8.19 4.9 8.33
4/27/2022 2:00:00 AM 13.95 57.11 0.734 8.21 6.48 8.38
4/27/2022 2:15:00 AM 13.89 57.002 0.735 8.23 4.83 8.37
4/27/2022 2:30:00 AM 13.85 56.93 0.736 8.25 4.7 8.39
4/27/2022 2:45:00 AM 13.8 56.84 0.734 8.24 5.44 8.39
4/27/2022 3:00:00 AM 13.75 56.75 0.737 8.25 4.97 8.39
4/27/2022 3:15:00 AM 13.68 56.624 0.737 8.3 3.59 8.45
4/27/2022 3:30:00 AM 13.64 56.552 0.741 8.31 3.94 8.44
4/27/2022 3:45:00 AM 13.58 56.444 0.74 8.33 5.63 8.49
4/27/2022 4:00:00 AM 13.54 56.372 0.74 8.33 6.34 8.51
4/27/2022 4:15:00 AM 13.49 56.282 0.74 8.34 5.25 8.48
4/27/2022 4:30:00 AM 13.45 56.21 0.74 8.34 2.6 8.49
4/27/2022 4:45:00 AM 13.38 56.084 0.741 8.33 2.93 8.59
4/27/2022 5:00:00 AM 13.3 55.94 0.741 8.34 6.43 8.5
4/27/2022 5:15:00 AM 13.23 55.814 0.741 8.41 4.55 8.52
4/27/2022 5:30:00 AM 13.19 55.742 0.742 8.45 6.89 8.62
4/27/2022 5:45:00 AM 13.11 55.598 0.742 8.47 5.62 8.63
4/27/2022 6:00:00 AM 13.06 55.508 0.743 8.5 8.89 8.68
4/27/2022 6:15:00 AM 12.98 55.364 0.743 8.51 5.3 8.7
4/27/2022 6:30:00 AM 12.91 55.238 0.744 8.52 4.97 8.69
4/27/2022 6:45:00 AM 12.85 55.13 0.744 8.54 1.96 8.67
4/27/2022 7:00:00 AM 12.81 55.058 0.745 8.55 5.78 8.78
4/27/2022 7:15:00 AM 12.74 54.932 0.744 8.56 4.94 8.93
4/27/2022 7:30:00 AM 12.71 54.878 0.745 8.55 2.15 9.06
4/27/2022 7:45:00 AM 12.67 54.806 0.746 8.56 6.58 9.18
4/27/2022 8:00:00 AM 12.59 54.662 0.747 8.56 5.53 9.4
4/27/2022 8:15:00 AM 12.55 54.59 0.747 8.57 4.02 9.63
4/27/2022 8:30:00 AM 12.47 54.446 0.749 8.59 4.73 9.88
4/27/2022 8:45:00 AM 12.46 54.428 0.749 8.6 11.01 9.95
4/27/2022 9:00:00 AM 12.39 54.302 0.75 8.61 5.31 10.18
4/27/2022 9:15:00 AM 12.39 54.302 0.751 8.64 22.71 10.47
4/27/2022 9:30:00 AM 12.43 54.374 0.752 8.64 6.3 10.64
4/27/2022 9:45:00 AM 12.48 54.464 0.752 8.63 5.48 10.92
4/27/2022 10:00:00 AM 12.58 54.644 0.753 8.56 6.06 11.38
4/27/2022 10:15:00 AM 12.71 54.878 0.753 8.56 7.79 11.76
4/27/2022 10:30:00 AM 12.86 55.148 0.755 8.35 5.63 12.05
4/27/2022 10:45:00 AM 12.99 55.382 0.756 8.26 1.78 12.37
4/27/2022 11:00:00 AM 13.15 55.67 0.757 8.17 5.72 12.79
4/27/2022 11:15:00 AM 13.37 56.066 0.757 8.01 1.99 13.19
4/27/2022 11:30:00 AM 13.48 56.264 0.758 8.01 2.31 13.55
4/27/2022 11:45:00 AM 13.49 56.282 0.76 7.93 2.24 13.54
4/27/2022 12:00:00 PM 13.61 56.498 0.76 7.98 9.06 13.71
4/27/2022 12:15:00 PM 13.72 56.696 0.76 7.96 2.02 13.97
4/27/2022 12:30:00 PM 14.01 57.218 0.76 7.96 1.61 14.26
4/27/2022 12:45:00 PM 14.1 57.38 0.761 7.98 2.73 14.44
4/27/2022 1:00:00 PM 14.24 57.632 0.762 7.98 2.16 14.67
4/27/2022 1:15:00 PM 14.39 57.902 0.763 8.04 2.19 14.87
4/27/2022 1:30:00 PM 14.47 58.046 0.763 7.9 2.38 14.95
4/27/2022 1:45:00 PM 14.46 58.028 0.763 7.96 3.01 14.89
4/27/2022 2:00:00 PM 14.5 58.1 0.763 8.03 1.55 14.91
4/27/2022 2:15:00 PM 14.58 58.244 0.763 8.11 1.84 15.07
4/27/2022 2:30:00 PM 14.67 58.406 0.763 8.17 2.09 15.2
4/27/2022 2:45:00 PM 14.88 58.784 0.762 8.23 1.8 15.18
4/27/2022 3:00:00 PM 15 59 0.763 8.27 2.49 15.38
4/27/2022 3:15:00 PM 15.09 59.162 0.762 8.32 2.75 15.51
4/27/2022 3:30:00 PM 15 59 0.762 8.37 3.08 15.34
4/27/2022 3:45:00 PM 14.94 58.892 0.762 8.43 3.22 15.23
4/27/2022 4:00:00 PM 15.02 59.036 0.76 8.47 3.08 15.17
4/27/2022 4:15:00 PM 15.05 59.09 0.76 8.5 1.97 15.22
4/27/2022 4:30:00 PM 15.08 59.144 0.759 8.51 3.72 15.18
4/27/2022 4:45:00 PM 15.09 59.162 0.758 8.57 2.31 15.15
4/27/2022 5:00:00 PM 15.05 59.09 0.758 8.61 2.92 14.96
4/27/2022 5:15:00 PM 14.94 58.892 0.758 8.67 3.78 14.83
4/27/2022 5:30:00 PM 14.85 58.73 0.758 8.74 4.51 14.55
4/27/2022 5:45:00 PM 14.79 58.622 0.758 8.78 1.86 14.31
4/27/2022 6:00:00 PM 14.73 58.514 0.757 8.82 2.06 14.06
4/27/2022 6:15:00 PM 14.67 58.406 0.761 8.93 5.99 13.73
4/27/2022 6:30:00 PM 14.61 58.298 0.761 9 2.95 13.39
4/27/2022 6:45:00 PM 14.54 58.172 0.761 9.06 3.32 13.15
4/27/2022 7:00:00 PM 14.45 58.01 0.761 9.1 3.34 12.88
4/27/2022 7:15:00 PM 14.34 57.812 0.761 9.14 1.84 12.61
4/27/2022 7:30:00 PM 14.24 57.632 0.761 9.2 6.11 12.33
4/27/2022 7:45:00 PM 14.14 57.452 0.759 9.24 2.58 12.01
4/27/2022 8:00:00 PM 14.05 57.29 0.76 9.27 1.72 11.74
4/27/2022 8:15:00 PM 13.92 57.056 0.76 9.27 3.71 11.47
4/27/2022 8:30:00 PM 13.79 56.822 0.763 9.27 2.22 11.24
4/27/2022 8:45:00 PM 13.68 56.624 0.767 9.27 3.43 11.06
4/27/2022 9:00:00 PM 13.59 56.462 0.768 9.28 25.83 10.82
4/27/2022 9:15:00 PM 13.44 56.192 0.769 9.26 2.32 10.66
4/27/2022 9:30:00 PM 13.34 56.012 0.77 9.24 2.15 10.49
4/27/2022 9:45:00 PM 13.23 55.814 0.769 9.22 3.83 10.37
4/27/2022 10:00:00 PM 13.13 55.634 0.769 9.2 3.16 10.23
4/27/2022 10:15:00 PM 13 55.4 0.772 9.18 3.05 10.13
4/27/2022 10:30:00 PM 12.88 55.184 0.773 9.16 2.38 10.01
4/27/2022 10:45:00 PM 12.75 54.95 0.774 9.14 6 9.9
4/27/2022 11:00:00 PM 12.68 54.824 0.774 9.12 2.71 9.85
4/27/2022 11:15:00 PM 12.55 54.59 0.775 9.09 3.42 9.76
4/27/2022 11:30:00 PM 12.42 54.356 0.776 9.09 2.09 9.72
4/27/2022 11:45:00 PM 12.33 54.194 0.776 9.07 4.37 9.68
4/28/2022 12:00:00 AM 12.23 54.014 0.776 9.07 3.67 9.65
4/28/2022 12:15:00 AM 12.14 53.852 0.777 9.05 2.08 9.56
4/28/2022 12:30:00 AM 11.97 53.546 0.778 9.03 2.08 9.59
4/28/2022 12:45:00 AM 11.87 53.366 0.778 9.02 4.09 9.54
4/28/2022 1:00:00 AM 11.81 53.258 0.779 9.02 2.7 9.53
4/28/2022 1:15:00 AM 11.66 52.988 0.778 9 6.69 9.52
4/28/2022 1:30:00 AM 11.63 52.934 0.778 8.99 2.45 9.4
4/28/2022 1:45:00 AM 11.52 52.736 0.778 8.98 2.66 9.37
4/28/2022 2:00:00 AM 11.4 52.52 0.777 8.97 2.58 9.4
4/28/2022 2:15:00 AM 11.33 52.394 0.777 8.96 3.06 9.38
4/28/2022 2:30:00 AM 11.26 52.268 0.776 8.95 2.67 9.45
4/28/2022 2:45:00 AM 11.21 52.178 0.775 8.94 2.33 9.46
4/28/2022 3:00:00 AM 11.12 52.016 0.775 8.94 4.54 9.45
4/28/2022 3:15:00 AM 11.02 51.836 0.773 8.93 3.6 9.4
4/28/2022 3:30:00 AM 10.95 51.71 0.774 8.93 4.56 9.44
4/28/2022 3:45:00 AM 10.88 51.584 0.773 8.92 2.95 9.49
4/28/2022 4:00:00 AM 10.8 51.44 0.772 8.91 2.58 9.5
4/28/2022 4:15:00 AM 10.72 51.296 0.771 8.91 2.84 9.49
4/28/2022 4:30:00 AM 10.7 51.26 0.77 8.9 6.64 9.41
4/28/2022 4:45:00 AM 10.59 51.062 0.77 8.89 3.78 9.54
4/28/2022 5:00:00 AM 10.56 51.008 0.769 8.89 3.07 9.6
4/28/2022 5:15:00 AM 10.5 50.9 0.767 8.89 4.82 9.63
4/28/2022 5:30:00 AM 10.43 50.774 0.766 8.88 2.87 9.66
4/28/2022 5:45:00 AM 10.37 50.666 0.765 8.88 2.14 9.71
4/28/2022 6:00:00 AM 10.35 50.63 0.763 8.88 4.77 9.72
4/28/2022 6:15:00 AM 10.26 50.468 0.762 8.88 3.34 9.78
4/28/2022 6:30:00 AM 10.24 50.432 0.762 8.89 2.49 9.8
4/28/2022 6:45:00 AM 10.23 50.414 0.761 8.88 4.08 9.81
4/28/2022 7:00:00 AM 10.2 50.36 0.76 8.92 2.07 9.87
4/28/2022 7:15:00 AM 10.15 50.27 0.758 8.98 6.48 9.94
4/28/2022 7:30:00 AM 10.09 50.162 0.757 8.95 3.97 10.15
4/28/2022 7:45:00 AM 10.06 50.108 0.756 8.9 4.21 10.29
4/28/2022 8:00:00 AM 10.04 50.072 0.755 8.9 2.92 10.54
4/28/2022 8:15:00 AM 10.03 50.054 0.754 8.89 3.19 10.79
4/28/2022 8:30:00 AM 10.03 50.054 0.754 8.9 2.79 11.02
4/28/2022 8:45:00 AM 10.05 50.09 0.753 8.89 3.88 11.28
4/28/2022 9:00:00 AM 10.08 50.144 0.752 8.89 12.39 11.52
4/28/2022 9:15:00 AM 10.1 50.18 0.751 8.89 3.62 11.81
4/28/2022 9:30:00 AM 10.14 50.252 0.751 8.9 3.6 12.05
4/28/2022 9:45:00 AM 10.21 50.378 0.75 8.89 2.3 12.36
4/28/2022 10:00:00 AM 10.32 50.576 0.749 8.9 1.68 12.64
4/28/2022 10:15:00 AM 10.45 50.81 0.748 8.88 2.09 12.88
4/28/2022 10:30:00 AM 10.65 51.17 0.748 8.85 2.58 13.24
4/28/2022 10:45:00 AM 10.91 51.638 0.748 8.71 2.8 13.57
4/28/2022 11:00:00 AM 11.09 51.962 0.747 8.63 2.27 14.02
4/28/2022 11:15:00 AM 11.32 52.376 0.747 8.45 1.66 14.23
4/28/2022 11:30:00 AM 11.54 52.772 0.745 8.3 1.7 14.43
4/28/2022 11:45:00 AM 11.78 53.204 0.745 8.15 2.28 14.75
4/28/2022 12:00:00 PM 11.92 53.456 0.746 8.11 1.95 14.9
4/28/2022 12:15:00 PM 12.21 53.978 0.745 8.08 4.91 15.16
4/28/2022 12:30:00 PM 12.34 54.212 0.746 8.09 2.18 15.46
4/28/2022 12:45:00 PM 12.52 54.536 0.746 8.05 1.61 15.66
4/28/2022 1:00:00 PM 12.83 55.094 0.744 8.12 1.68 15.82
4/28/2022 1:15:00 PM 13.04 55.472 0.744 8.21 2.11 15.93
4/28/2022 1:30:00 PM 13.17 55.706 0.744 8.2 2.12 16.18
4/28/2022 1:45:00 PM 13.35 56.03 0.743 8.22 1.77 16.2
4/28/2022 2:00:00 PM 13.53 56.354 0.742 8.19 1.9 16.26
4/28/2022 2:15:00 PM 13.65 56.57 0.743 8.16 2.02 16.44
4/28/2022 2:30:00 PM 13.81 56.858 0.742 8.24 2.86 16.48
4/28/2022 2:45:00 PM 13.97 57.146 0.742 8.09 1.91 16.51
4/28/2022 3:00:00 PM 14.08 57.344 0.742 8.15 1.75 16.55
4/28/2022 3:15:00 PM 14.18 57.524 0.742 8.2 2.4 16.52
4/28/2022 3:30:00 PM 14.24 57.632 0.742 8.27 1.95 16.41
4/28/2022 3:45:00 PM 14.22 57.596 0.739 8.22 2.08 16.32
4/28/2022 4:00:00 PM 14.35 57.83 0.737 8.28 2.97 16.23
4/28/2022 4:15:00 PM 14.36 57.848 0.743 8.34 1.95 16.17
4/28/2022 4:30:00 PM 14.37 57.866 0.744 8.24 3.5 15.93
4/28/2022 4:45:00 PM 14.38 57.884 0.744 8.2 1.63 15.8
4/28/2022 5:00:00 PM 14.35 57.83 0.744 8.29 2.16 15.62
4/28/2022 5:15:00 PM 14.3 57.74 0.745 8.37 1.56 15.44
4/28/2022 5:30:00 PM 14.27 57.686 0.745 8.36 2.04 15.1
4/28/2022 5:45:00 PM 14.22 57.596 0.745 8.39 14.95 14.88
4/28/2022 6:00:00 PM 14.17 57.506 0.747 8.38 3.68 14.65
4/28/2022 6:15:00 PM 14.14 57.452 0.748 8.39 2.2 14.31
4/28/2022 6:30:00 PM 14.1 57.38 0.748 8.41 1.58 14.05
4/28/2022 6:45:00 PM 14.05 57.29 0.749 8.43 1.61 13.8
4/28/2022 7:00:00 PM 14.01 57.218 0.751 8.44 2.8 13.58
4/28/2022 7:15:00 PM 13.98 57.164 0.75 8.48 1.57 13.33
4/28/2022 7:30:00 PM 13.92 57.056 0.751 8.52 1.96 13.11
4/28/2022 7:45:00 PM 13.87 56.966 0.752 8.59 1.71 12.85
4/28/2022 8:00:00 PM 13.8 56.84 0.753 8.66 1.88 12.57
4/28/2022 8:15:00 PM 13.73 56.714 0.754 8.76 1.44 12.28
4/28/2022 8:30:00 PM 13.64 56.552 0.755 8.82 2.54 12.01
4/28/2022 8:45:00 PM 13.54 56.372 0.755 8.93 2.38 11.77
4/28/2022 9:00:00 PM 13.45 56.21 0.756 9.04 1.96 11.51
4/28/2022 9:15:00 PM 13.33 55.994 0.756 9.15 1.65 11.31
4/28/2022 9:30:00 PM 13.24 55.832 0.757 9.21 1.47 11.07
4/28/2022 9:45:00 PM 13.12 55.616 0.758 9.24 2.08 10.87
4/28/2022 10:00:00 PM 13 55.4 0.759 9.27 2.08 10.67
4/28/2022 10:15:00 PM 12.88 55.184 0.76 9.27 1.89 10.55
4/28/2022 10:30:00 PM 12.77 54.986 0.761 9.26 1.87 10.36
4/28/2022 10:45:00 PM 12.62 54.716 0.762 9.27 1.97 10.14
4/28/2022 11:00:00 PM 12.51 54.518 0.764 9.26 1.95 10.06
4/28/2022 11:15:00 PM 12.38 54.284 0.764 9.25 1.95 10.02
4/28/2022 11:30:00 PM 12.26 54.068 0.764 9.24 2.79 9.88
4/28/2022 11:45:00 PM 12.16 53.888 0.765 9.23 3.48 9.84
4/29/2022 12:00:00 AM 12.03 53.654 0.765 9.21 1.81 9.77
4/29/2022 12:15:00 AM 11.9 53.42 0.766 9.19 1.83 9.74
4/29/2022 12:30:00 AM 11.78 53.204 0.784 9.18 1.67 9.68
4/29/2022 12:45:00 AM 11.63 52.934 0.784 9.16 1.79 9.66
4/29/2022 1:00:00 AM 11.52 52.736 0.787 9.15 3.25 9.63
4/29/2022 1:15:00 AM 11.41 52.538 0.783 9.14 2.29 9.64
4/29/2022 1:30:00 AM 11.28 52.304 0.783 9.13 1.81 9.59
4/29/2022 1:45:00 AM 11.17 52.106 0.786 9.12 1.8 9.63
4/29/2022 2:00:00 AM 11.06 51.908 0.785 9.11 2.32 9.56
4/29/2022 2:15:00 AM 10.94 51.692 0.786 9.11 1.8 9.34
4/29/2022 2:30:00 AM 10.84 51.512 0.787 9.12 1.58 9.52
4/29/2022 2:45:00 AM 10.75 51.35 0.785 9.12 2.11 9.61
4/29/2022 3:00:00 AM 10.64 51.152 0.787 9.13 2.71 9.64
4/29/2022 3:15:00 AM 10.57 51.026 0.785 9.12 1.7 9.6
4/29/2022 3:30:00 AM 10.43 50.774 0.786 9.1 1.97 9.53
4/29/2022 3:45:00 AM 10.41 50.738 0.789 9.08 2.45 9.63
4/29/2022 4:00:00 AM 10.28 50.504 0.787 9.07 2.3 9.65
4/29/2022 4:15:00 AM 10.24 50.432 0.787 9.06 2.11 9.65
4/29/2022 4:30:00 AM 10.13 50.234 0.787 9.05 1.84 9.7
4/29/2022 4:45:00 AM 10.08 50.144 0.786 9.05 2.72 9.72
4/29/2022 5:00:00 AM 9.95 49.91 0.785 9.04 3.16 9.71
4/29/2022 5:15:00 AM 9.88 49.784 0.782 9.03 1.98 9.76
4/29/2022 5:30:00 AM 9.81 49.658 0.783 9.03 2.43 9.81
4/29/2022 5:45:00 AM 9.73 49.514 0.782 9.03 1.85 9.81
4/29/2022 6:00:00 AM 9.68 49.424 0.78 9.02 2 9.86
4/29/2022 6:15:00 AM 9.61 49.298 0.78 9.02 1.99 9.86
4/29/2022 6:30:00 AM 9.57 49.226 0.779 9.01 1.66 9.91
4/29/2022 6:45:00 AM 9.51 49.118 0.778 9.02 3.9 9.94
4/29/2022 7:00:00 AM 9.46 49.028 0.777 9.02 4.62 10.03
4/29/2022 7:15:00 AM 9.42 48.956 0.777 9.02 1.92 10.11
4/29/2022 7:30:00 AM 9.35 48.83 0.774 9.03 1.93 10.16
4/29/2022 7:45:00 AM 9.35 48.83 0.772 9.03 2.41 10.25
4/29/2022 8:00:00 AM 9.32 48.776 0.772 9.03 1.87 10.34
4/29/2022 8:15:00 AM 9.3 48.74 0.771 9.04 1.81 10.59
4/29/2022 8:30:00 AM 9.31 48.758 0.77 9.04 2.11 10.72
4/29/2022 8:45:00 AM 9.3 48.74 0.769 9.04 1.63 11.09
4/29/2022 9:00:00 AM 9.31 48.758 0.766 9.02 2.07 11.28
4/29/2022 9:15:00 AM 9.34 48.812 0.766 9.02 2.55 11.52
4/29/2022 9:30:00 AM 9.42 48.956 0.764 9.02 2.81 11.77
4/29/2022 9:45:00 AM 9.54 49.172 0.763 9 2.38 12.26
4/29/2022 10:00:00 AM 9.65 49.37 0.761 8.98 1.26 12.72
4/29/2022 10:15:00 AM 9.82 49.676 0.781 8.95 2.86 13.12
4/29/2022 10:30:00 AM 10.1 50.18 0.78 8.85 1.8 13.53
4/29/2022 10:45:00 AM 10.35 50.63 0.779 8.73 2.39 13.84
4/29/2022 11:00:00 AM 10.57 51.026 0.779 8.61 2.38 14.31
4/29/2022 11:15:00 AM 10.79 51.422 0.778 8.32 1.55 14.64
4/29/2022 11:30:00 AM 10.98 51.764 0.777 8.16 2.74 14.71
4/29/2022 11:45:00 AM 11.21 52.178 0.777 8.05 1.65 15.14
4/29/2022 12:00:00 PM 11.55 52.79 0.775 8.02 1.8 15.21
4/29/2022 12:15:00 PM 11.75 53.15 0.775 7.94 6.38 15.66
4/29/2022 12:30:00 PM 12.07 53.726 0.775 7.99 3.09 15.98
4/29/2022 12:45:00 PM 12.2 53.96 0.777 8.08 3.3 16.24
4/29/2022 1:00:00 PM 12.62 54.716 0.775 8.08 25.5 16.41
4/29/2022 1:15:00 PM 12.8 55.04 0.775 8.2 1.75 16.48
4/29/2022 1:30:00 PM 12.99 55.382 0.775 8.22 4.82 16.75
4/29/2022 1:45:00 PM 13.14 55.652 0.776 8.08 2.76 16.72
4/29/2022 2:00:00 PM 13.35 56.03 0.776 7.98 1.97 16.83
4/29/2022 2:15:00 PM 13.47 56.246 0.777 8.3 2.15 16.81
4/29/2022 2:30:00 PM 13.74 56.732 0.777 8.33 1.56 16.82
4/29/2022 2:45:00 PM 13.96 57.128 0.777 8.34 5.16 16.86
4/29/2022 3:00:00 PM 14.1 57.38 0.778 8.23 1.23 17
4/29/2022 3:15:00 PM 14.24 57.632 0.78 8.22 1.88 17.01
4/29/2022 3:30:00 PM 14.31 57.758 0.78 8.26 1.46 16.94
4/29/2022 3:45:00 PM 14.43 57.974 0.782 8.21 1.75 16.87
4/29/2022 4:00:00 PM 14.51 58.118 0.785 8.28 1.86 16.77
4/29/2022 4:15:00 PM 14.55 58.19 0.786 8.25 2.68 16.6
4/29/2022 4:30:00 PM 14.6 58.28 0.788 8.27 1.63 16.5
4/29/2022 4:45:00 PM 14.61 58.298 0.787 8.29 1.82 16.31
4/29/2022 5:00:00 PM 14.6 58.28 0.789 8.3 1.73 16.04
4/29/2022 5:15:00 PM 14.57 58.226 0.79 8.28 3.53 15.62
4/29/2022 5:30:00 PM 14.57 58.226 0.792 8.3 2.2 15.4
4/29/2022 5:45:00 PM 14.54 58.172 0.793 8.31 1.68 15.09
4/29/2022 6:00:00 PM 14.55 58.19 0.794 8.34 1.62 14.84
4/29/2022 6:15:00 PM 14.5 58.1 0.797 8.33 2.12 14.53
4/29/2022 6:30:00 PM 14.51 58.118 0.798 8.34 1.93 14.15
4/29/2022 6:45:00 PM 14.46 58.028 0.8 8.33 2.22 14.01
4/29/2022 7:00:00 PM 14.48 58.064 0.801 8.35 1.98 13.63
4/29/2022 7:15:00 PM 14.44 57.992 0.803 8.37 1.44 13.52
4/29/2022 7:30:00 PM 14.39 57.902 0.804 8.37 1.5 13.05
4/29/2022 7:45:00 PM 14.37 57.866 0.806 8.24 1.42 12.78
4/29/2022 8:00:00 PM 14.3 57.74 0.807 8.28 18.09 12.56
4/29/2022 8:15:00 PM 14.23 57.614 0.809 8.5 2.66 12.29
4/29/2022 8:30:00 PM 14.15 57.47 0.811 8.68 1.53 11.89
4/29/2022 8:45:00 PM 14.06 57.308 0.812 8.84 2.71 11.58
4/29/2022 9:00:00 PM 13.96 57.128 0.813 9.05 1.79 11.57
4/29/2022 9:15:00 PM 13.85 56.93 0.814 9.21 1.53 11.24
4/29/2022 9:30:00 PM 13.76 56.768 0.816 9.31 1.61 11.07
4/29/2022 9:45:00 PM 13.64 56.552 0.817 9.42 2.32 10.93
4/29/2022 10:00:00 PM 13.51 56.318 0.818 9.38 1.29 10.67
4/29/2022 10:15:00 PM 13.4 56.12 0.819 9.39 1.4 10.56
4/29/2022 10:30:00 PM 13.27 55.886 0.82 9.38 2.86 10.42
4/29/2022 10:45:00 PM 13.14 55.652 0.821 9.37 1.43 10.26
4/29/2022 11:00:00 PM 13.03 55.454 0.821 9.36 35.22 10.13
4/29/2022 11:15:00 PM 12.9 55.22 0.822 9.35 33.48 10.04
4/29/2022 11:30:00 PM 12.77 54.986 0.823 9.33 21.41 9.93
4/29/2022 11:45:00 PM 12.65 54.77 0.824 9.31 1.54 9.8
4/30/2022 12:00:00 AM 12.53 54.554 0.824 9.28 2.84 9.7
4/30/2022 12:15:00 AM 12.4 54.32 0.825 9.26 1.54 9.68
4/30/2022 12:30:00 AM 12.36 54.248 0.826 9.23 1.25 9.49
4/30/2022 12:45:00 AM 12.2 53.96 0.825 9.22 2.08 9.27
4/30/2022 1:00:00 AM 12.04 53.672 0.826 9.2 1.72 9.5
4/30/2022 1:15:00 AM 11.92 53.456 0.826 9.18 44.9 9.47
4/30/2022 1:30:00 AM 11.8 53.24 0.827 9.17 44.12 9.45
4/30/2022 1:45:00 AM 11.69 53.042 0.827 9.16 1.83 9.45
4/30/2022 2:00:00 AM 11.59 52.862 0.827 9.15 1.44 9.4
4/30/2022 2:15:00 AM 11.49 52.682 0.827 9.14 46.58 9.42
4/30/2022 2:30:00 AM 11.38 52.484 0.827 9.12 2.52 9.4
4/30/2022 2:45:00 AM 11.29 52.322 0.827 9.12 2.41 9.42
4/30/2022 3:00:00 AM 11.19 52.142 0.828 9.11 1.58 9.41
4/30/2022 3:15:00 AM 11.11 51.998 0.827 9.1 2.96 9.41
4/30/2022 3:30:00 AM 11.01 51.818 0.817 9.09 2.79 9.42
4/30/2022 3:45:00 AM 10.93 51.674 0.826 9.08 2.5 9.43
4/30/2022 4:00:00 AM 10.85 51.53 0.826 9.07 4.64 9.45
4/30/2022 4:15:00 AM 10.76 51.368 0.825 9.07 6.61 9.48
4/30/2022 4:30:00 AM 10.71 51.278 0.825 9.07 1.74 9.44
4/30/2022 4:45:00 AM 10.68 51.224 0.824 9.06 2.16 9.32
4/30/2022 5:00:00 AM 10.6 51.08 0.824 9.05 1.48 9.4
4/30/2022 5:15:00 AM 10.5 50.9 0.824 9.05 1.7 9.47
4/30/2022 5:30:00 AM 10.42 50.756 0.823 9.04 1.75 9.44
4/30/2022 5:45:00 AM 10.34 50.612 0.822 9.04 1.63 9.57
4/30/2022 6:00:00 AM 10.27 50.486 0.822 9.03 1.65 9.58
4/30/2022 6:15:00 AM 10.19 50.342 0.821 9.04 1.68 9.62
4/30/2022 6:30:00 AM 10.14 50.252 0.82 9.04 1.77 9.66
4/30/2022 6:45:00 AM 10.09 50.162 0.819 9.04 1.96 9.75
4/30/2022 7:00:00 AM 10.04 50.072 0.818 9.04 1.47 9.78
4/30/2022 7:15:00 AM 10 50 0.817 9.04 2.9 9.9
4/30/2022 7:30:00 AM 9.96 49.928 0.816 9.05 1.65 10.05
4/30/2022 7:45:00 AM 9.93 49.874 0.814 9.05 1.47 10.19
4/30/2022 8:00:00 AM 9.9 49.82 0.813 9.05 1.46 10.35
4/30/2022 8:15:00 AM 9.92 49.856 0.811 9.06 1.59 10.53
4/30/2022 8:30:00 AM 9.92 49.856 0.81 9.05 10.44 10.66
4/30/2022 8:45:00 AM 9.94 49.892 0.808 9.03 3.63 10.93
4/30/2022 9:00:00 AM 9.98 49.964 0.807 9 1.56 11.13
4/30/2022 9:15:00 AM 10.05 50.09 0.805 8.97 1.6 11.43
4/30/2022 9:30:00 AM 10.14 50.252 0.803 8.96 2.24 11.74
4/30/2022 9:45:00 AM 10.25 50.45 0.801 8.92 3.2 12.08
4/30/2022 10:00:00 AM 10.43 50.774 0.799 8.88 1.5 12.57
4/30/2022 10:15:00 AM 10.64 51.152 0.796 8.82 1.3 12.99
4/30/2022 10:30:00 AM 10.89 51.602 0.795 8.68 1.53 13.52
4/30/2022 10:45:00 AM 11.21 52.178 0.792 8.35 1.51 13.99
4/30/2022 11:00:00 AM 11.37 52.466 0.792 8.21 1.7 14.25
4/30/2022 11:15:00 AM 11.73 53.114 0.789 7.94 2.35 14.88
4/30/2022 11:30:00 AM 11.91 53.438 0.788 7.85 1.54 15.21
4/30/2022 11:45:00 AM 12.17 53.906 0.786 7.78 3.82 15.6
4/30/2022 12:00:00 PM 12.32 54.176 0.786 7.79 2.53 15.8
4/30/2022 12:15:00 PM 12.71 54.878 0.784 8.02 3.33 16.1
4/30/2022 12:30:00 PM 12.97 55.346 0.783 8.02 2.81 16.55
4/30/2022 12:45:00 PM 13.2 55.76 0.782 8.11 2.19 16.52
4/30/2022 1:00:00 PM 13.53 56.354 0.781 8.1 2.81 16.82
4/30/2022 1:15:00 PM 13.74 56.732 0.781 8.16 1.48 16.91
4/30/2022 1:30:00 PM 13.93 57.074 0.779 8.15 2.17 17.08
4/30/2022 1:45:00 PM 14.13 57.434 0.779 7.54 1.41 17.27
4/30/2022 2:00:00 PM 14.35 57.83 0.777 8.02 2.25 17.38
4/30/2022 2:15:00 PM 14.35 57.83 0.779 8.13 1.46 17.32
4/30/2022 2:30:00 PM 14.7 58.46 0.777 8.21 2.02 17.34
4/30/2022 2:45:00 PM 14.94 58.892 0.776 8.17 1.86 17.4
4/30/2022 3:00:00 PM 15.12 59.216 0.776 8.11 1.47 17.55
4/30/2022 3:15:00 PM 15.24 59.432 0.777 8.09 2.14 17.54
4/30/2022 3:30:00 PM 15.37 59.666 0.777 8.09 1.48 17.36
4/30/2022 3:45:00 PM 15.46 59.828 0.777 8.09 1.66 17.38
4/30/2022 4:00:00 PM 15.57 60.026 0.778 7.98 2.9 17.24
4/30/2022 4:15:00 PM 15.66 60.188 0.779 8.12 1.33 17.19
4/30/2022 4:30:00 PM 15.72 60.296 0.777 8.17 1.38 16.97
4/30/2022 4:45:00 PM 15.77 60.386 0.778 8.19 1.97 16.93
4/30/2022 5:00:00 PM 15.78 60.404 0.779 8.27 1.46 16.64
4/30/2022 5:15:00 PM 15.76 60.368 0.78 8.27 1.77 16.49
4/30/2022 5:30:00 PM 15.71 60.278 0.781 8.28 1.75 16.1
4/30/2022 5:45:00 PM 15.74 60.332 0.782 8.3 1.55 15.53
4/30/2022 6:00:00 PM 15.76 60.368 0.782 8.27 2.36 15.41
4/30/2022 6:15:00 PM 15.77 60.386 0.783 8.23 2.69 15.15
4/30/2022 6:30:00 PM 15.76 60.368 0.783 8.1 1.98 14.76
4/30/2022 6:45:00 PM 15.76 60.368 0.784 7.99 1.3 14.53
4/30/2022 7:00:00 PM 15.75 60.35 0.784 8.06 2.66 14.17
4/30/2022 7:15:00 PM 15.72 60.296 0.785 7.7 4.78 13.86
4/30/2022 7:30:00 PM 15.68 60.224 0.785 7.53 3.08 13.49
4/30/2022 7:45:00 PM 15.63 60.134 0.787 7.9 1.39 13.22
4/30/2022 8:00:00 PM 15.57 60.026 0.788 8 2.31 12.85
4/30/2022 8:15:00 PM 15.5 59.9 0.79 8.03 1.6 12.48
4/30/2022 8:30:00 PM 15.42 59.756 0.791 8.01 1.66 12.11
4/30/2022 8:45:00 PM 15.33 59.594 0.793 8.46 6.58 11.82
4/30/2022 9:00:00 PM 15.23 59.414 0.794 8.69 1.7 11.5
4/30/2022 9:15:00 PM 15.13 59.234 0.796 8.91 1.6 11.21
4/30/2022 9:30:00 PM 15.03 59.054 0.797 9.06 1.95 10.94
4/30/2022 9:45:00 PM 14.92 58.856 0.8 9.27 3.4 10.67
4/30/2022 10:00:00 PM 14.8 58.64 0.801 9.34 1.69 10.42
4/30/2022 10:15:00 PM 14.69 58.442 0.803 9.37 3.58 10.19
4/30/2022 10:30:00 PM 14.56 58.208 0.804 9.39 2.11 9.96
4/30/2022 10:45:00 PM 14.43 57.974 0.806 9.38 1.44 9.81
4/30/2022 11:00:00 PM 14.3 57.74 0.808 9.35 2.96 9.59
4/30/2022 11:15:00 PM 14.18 57.524 0.809 9.36 1.31 9.44
4/30/2022 11:30:00 PM 14.03 57.254 0.811 9.32 3.19 9.34
4/30/2022 11:45:00 PM 13.9 57.02 0.812 9.3 2.1 9.3
5/1/2022 12:00:00 AM 13.78 56.804 0.813 9.28 4.29 9.23
5/1/2022 12:15:00 AM 13.63 56.534 0.814 9.27 1.78 9.1
5/1/2022 12:30:00 AM 13.51 56.318 0.816 9.25 1.8 9.06
5/1/2022 12:45:00 AM 13.38 56.084 0.817 9.23 1.77 8.99
5/1/2022 1:00:00 AM 13.26 55.868 0.817 9.22 2.95 8.93
5/1/2022 1:15:00 AM 13.13 55.634 0.818 9.2 2.04 8.9
5/1/2022 1:30:00 AM 13.01 55.418 0.819 9.19 1.58 8.85
5/1/2022 1:45:00 AM 12.9 55.22 0.82 9.17 2.02 8.83
5/1/2022 2:00:00 AM 12.8 55.04 0.821 9.15 2.76 8.84
5/1/2022 2:15:00 AM 12.68 54.824 0.821 9.14 5.15 8.78
5/1/2022 2:30:00 AM 12.58 54.644 0.821 9.12 1.66 8.78
5/1/2022 2:45:00 AM 12.48 54.464 0.822 9.11 1.59 8.79
5/1/2022 3:00:00 AM 12.38 54.284 0.823 9.1 2.19 8.8
5/1/2022 3:15:00 AM 12.28 54.104 0.823 9.09 1.5 8.72
5/1/2022 3:30:00 AM 12.19 53.942 0.824 9.08 2.01 8.78
5/1/2022 3:45:00 AM 12.11 53.798 0.824 9.07 2.44 8.82
5/1/2022 4:00:00 AM 12.01 53.618 0.824 9.06 1.92 8.82
5/1/2022 4:15:00 AM 11.93 53.474 0.824 9.05 2.5 8.84
5/1/2022 4:30:00 AM 11.85 53.33 0.824 9.04 3.21 8.87
5/1/2022 4:45:00 AM 11.77 53.186 0.824 9.04 2.22 8.88
5/1/2022 5:00:00 AM 11.69 53.042 0.824 9.03 1.91 8.89
5/1/2022 5:15:00 AM 11.62 52.916 0.824 9.03 2.45 8.92
5/1/2022 5:30:00 AM 11.58 52.844 0.824 9.03 2.38 8.64
5/1/2022 5:45:00 AM 11.53 52.754 0.824 9.01 2.2 8.6
5/1/2022 6:00:00 AM 11.45 52.61 0.824 9.01 1.6 8.7
5/1/2022 6:15:00 AM 11.38 52.484 0.823 9 2.13 8.79
5/1/2022 6:30:00 AM 11.32 52.376 0.822 9 2.37 8.87
5/1/2022 6:45:00 AM 11.27 52.286 0.822 9 1.66 8.86
5/1/2022 7:00:00 AM 11.24 52.232 0.821 9 1.55 9.01
5/1/2022 7:15:00 AM 11.22 52.196 0.82 9.01 1.53 9.12
5/1/2022 7:30:00 AM 11.18 52.124 0.819 9.01 1.6 9.23
5/1/2022 7:45:00 AM 11.15 52.07 0.818 9.01 1.75 9.45
5/1/2022 8:00:00 AM 11.15 52.07 0.816 9 1.56 9.63
5/1/2022 8:15:00 AM 11.18 52.124 0.815 9 4.7 9.97
5/1/2022 8:30:00 AM 11.22 52.196 0.814 8.96 1.97 10.23
5/1/2022 8:45:00 AM 11.26 52.268 0.812 8.89 1.3 10.46
5/1/2022 9:00:00 AM 11.32 52.376 0.812 8.82 3.33 10.69
5/1/2022 9:15:00 AM 11.41 52.538 0.81 8.74 2.07 11.01
5/1/2022 9:30:00 AM 11.5 52.7 0.808 8.68 1.73 11.38
5/1/2022 9:45:00 AM 11.59 52.862 0.807 8.6 1.65 11.83
5/1/2022 10:00:00 AM 11.71 53.078 0.805 8.5 1.9 12.18
5/1/2022 10:15:00 AM 11.84 53.312 0.804 8.38 1.84 12.43
5/1/2022 10:30:00 AM 11.95 53.51 0.803 8.18 3.61 12.88
5/1/2022 10:45:00 AM 12.2 53.96 0.8 7.98 1.35 13.56
5/1/2022 11:00:00 AM 12.43 54.374 0.799 7.77 2.71 14.07
5/1/2022 11:15:00 AM 12.63 54.734 0.798 7.68 1.98 14.46
5/1/2022 11:30:00 AM 12.85 55.13 0.796 7.62 1.49 14.74
5/1/2022 11:45:00 AM 12.89 55.202 0.795 7.58 2.49 14.98
5/1/2022 12:00:00 PM 12.93 55.274 0.795 7.51 1.41 14.85
5/1/2022 12:15:00 PM 13.13 55.634 0.793 7.64 2.21 14.99
5/1/2022 12:30:00 PM 13.27 55.886 0.792 7.78 1.87 15.21
5/1/2022 12:45:00 PM 13.43 56.174 0.79 7.86 1.79 15.81
5/1/2022 1:00:00 PM 13.55 56.39 0.789 7.88 2.76 16.05
5/1/2022 1:15:00 PM 13.61 56.498 0.788 7.92 1.91 16.04
5/1/2022 1:30:00 PM 13.68 56.624 0.788 7.95 2.63 16
5/1/2022 1:45:00 PM 13.75 56.75 0.788 7.94 3.58 15.83
5/1/2022 2:00:00 PM 13.8 56.84 0.788 7.49 1.42 15.76
5/1/2022 2:15:00 PM 13.83 56.894 0.789 7.82 4.6 15.51
5/1/2022 2:30:00 PM 13.86 56.948 0.788 7.79 2.07 15.13
5/1/2022 2:45:00 PM 13.9 57.02 0.788 7.86 1.8 14.84
5/1/2022 3:00:00 PM 13.91 57.038 0.788 7.87 2.99 14.95
5/1/2022 3:15:00 PM 13.93 57.074 0.789 7.87 3.53 14.47
5/1/2022 3:30:00 PM 13.93 57.074 0.79 7.73 1.74 13.85
5/1/2022 3:45:00 PM 13.99 57.182 0.79 7.86 7.8 13.94
5/1/2022 4:00:00 PM 13.99 57.182 0.791 7.81 1.54 13.57
5/1/2022 4:15:00 PM 14.02 57.236 0.793 7.72 1.54 13.35
5/1/2022 4:30:00 PM 14.04 57.272 0.793 7.61 4.65 13.33
5/1/2022 4:45:00 PM 14.06 57.308 0.792 7.69 2.69 13.08
5/1/2022 5:00:00 PM 14.12 57.416 0.791 7.77 1.63 12.95
5/1/2022 5:15:00 PM 14.16 57.488 0.791 7.8 2.69 12.84
5/1/2022 5:30:00 PM 14.22 57.596 0.792 7.82 2.12 13.03
5/1/2022 5:45:00 PM 14.24 57.632 0.792 7.82 1.34 13.06
5/1/2022 6:00:00 PM 14.25 57.65 0.794 7.84 1.67 12.98
5/1/2022 6:15:00 PM 14.27 57.686 0.794 7.84 1.8 12.74
5/1/2022 6:30:00 PM 14.28 57.704 0.795 7.86 2.54 12.53
5/1/2022 6:45:00 PM 14.28 57.704 0.796 7.85 1.4 12.34
5/1/2022 7:00:00 PM 14.28 57.704 0.797 7.82 1.56 12.34
5/1/2022 7:15:00 PM 14.27 57.686 0.798 7.81 3.62 12.07
5/1/2022 7:30:00 PM 14.25 57.65 0.8 7.8 2.22 11.85
5/1/2022 7:45:00 PM 14.22 57.596 0.802 7.77 2.19 11.57
5/1/2022 8:00:00 PM 14.2 57.56 0.803 7.05 1.65 11.29
5/1/2022 8:15:00 PM 14.16 57.488 0.803 7.67 2.19 11.16
5/1/2022 8:30:00 PM 14.12 57.416 0.804 7.7 2.79 10.85
5/1/2022 8:45:00 PM 14.07 57.326 0.805 7.65 2.82 10.62
5/1/2022 9:00:00 PM 14.02 57.236 0.806 7.62 2.4 10.42
5/1/2022 9:15:00 PM 13.97 57.146 0.807 7.55 1.99 10.35
5/1/2022 9:30:00 PM 13.91 57.038 0.808 7.42 2.46 10.1
5/1/2022 9:45:00 PM 13.85 56.93 0.808 7.55 1.93 9.95
5/1/2022 10:00:00 PM 13.79 56.822 0.809 7.55 2.08 9.89
5/1/2022 10:15:00 PM 13.72 56.696 0.809 7.52 7.56 9.76
5/1/2022 10:30:00 PM 13.66 56.588 0.81 7.53 1.66 9.58
5/1/2022 10:45:00 PM 13.62 56.516 0.811 7.55 1.84 9.54
5/1/2022 11:00:00 PM 13.54 56.372 0.812 7.51 3.36 9.43
5/1/2022 11:15:00 PM 13.51 56.318 0.813 7.49 2.04 9.31
5/1/2022 11:30:00 PM 13.45 56.21 0.812 7.48 2.16 9.16
5/1/2022 11:45:00 PM 13.41 56.138 0.812 7.44 2.96 8.89
5/2/2022 12:00:00 AM 13.35 56.03 0.816 7.46 2.27 8.73
5/2/2022 12:15:00 AM 13.29 55.922 0.815 7.45 2.24 8.93
5/2/2022 12:30:00 AM 13.24 55.832 0.815 7.49 4.12 8.93
5/2/2022 12:45:00 AM 13.19 55.742 0.816 7.53 2.38 8.79
5/2/2022 1:00:00 AM 13.12 55.616 0.817 7.49 2.65 8.91
5/2/2022 1:15:00 AM 13.08 55.544 0.817 7.64 1.86 8.67
5/2/2022 1:30:00 AM 13.06 55.508 0.818 7.68 2.81 8.52
5/2/2022 1:45:00 AM 13.03 55.454 0.819 7.71 2.83 8.42
5/2/2022 2:00:00 AM 13 55.4 0.82 7.72 3.99 8.46
5/2/2022 2:15:00 AM 12.98 55.364 0.819 7.69 1.53 8.4
5/2/2022 2:30:00 AM 12.95 55.31 0.819 7.66 1.68 8.5
5/2/2022 2:45:00 AM 12.92 55.256 0.818 7.66 1.78 8.47
5/2/2022 3:00:00 AM 12.9 55.22 0.818 7.67 2.5 8.41
5/2/2022 3:15:00 AM 12.88 55.184 0.819 7.65 4.37 8.37
5/2/2022 3:30:00 AM 12.85 55.13 0.819 7.64 2.87 8.4
5/2/2022 3:45:00 AM 12.83 55.094 0.819 7.6 2.23 8.38
5/2/2022 4:00:00 AM 12.81 55.058 0.819 7.59 1.48 8.37
5/2/2022 4:15:00 AM 12.79 55.022 0.805 7.58 4.61 8.25
5/2/2022 4:30:00 AM 12.76 54.968 0.819 7.24 1.54 8.32
5/2/2022 4:45:00 AM 12.73 54.914 0.819 7.51 1.85 8.27
5/2/2022 5:00:00 AM 12.7 54.86 0.818 7.59 1.94 8.36
5/2/2022 5:15:00 AM 12.65 54.77 0.818 7.66 1.44 8.41
5/2/2022 5:30:00 AM 12.63 54.734 0.818 7.68 2.1 8.5
5/2/2022 5:45:00 AM 12.62 54.716 0.818 7.71 2.01 8.44
5/2/2022 6:00:00 AM 12.61 54.698 0.818 7.7 2.3 8.44
5/2/2022 6:15:00 AM 12.59 54.662 0.817 7.75 1.88 8.47
5/2/2022 6:30:00 AM 12.57 54.626 0.815 7.77 1.85 8.51
5/2/2022 6:45:00 AM 12.56 54.608 0.815 7.74 1.98 8.56
5/2/2022 7:00:00 AM 12.56 54.608 0.813 7.71 3.42 8.61
5/2/2022 7:15:00 AM 12.57 54.626 0.812 7.69 4.24 8.81
5/2/2022 7:30:00 AM 12.58 54.644 0.811 7.67 1.58 9.01
5/2/2022 7:45:00 AM 12.6 54.68 0.809 7.63 4.07 9.28
5/2/2022 8:00:00 AM 12.63 54.734 0.808 7.62 14.01 9.48
5/2/2022 8:15:00 AM 12.67 54.806 0.806 7.56 1.58 9.66
5/2/2022 8:30:00 AM 12.71 54.878 0.805 7.58 1.58 10.14
5/2/2022 8:45:00 AM 12.75 54.95 0.803 7.53 1.54 10.34
5/2/2022 9:00:00 AM 12.81 55.058 0.802 7.47 1.57 10.63
5/2/2022 9:15:00 AM 12.88 55.184 0.8 7.48 1.74 11.08
5/2/2022 9:30:00 AM 12.98 55.364 0.798 7.43 2.12 11.54
5/2/2022 9:45:00 AM 13.06 55.508 0.795 7.4 3.58 11.89
5/2/2022 10:00:00 AM 13.17 55.706 0.792 7.42 1.69 12.16
5/2/2022 10:15:00 AM 13.24 55.832 0.791 7.42 1.62 12.51
5/2/2022 10:30:00 AM 13.31 55.958 0.79 7.48 3.67 12.6
5/2/2022 10:45:00 AM 13.37 56.066 0.788 7.41 1.43 13.05
5/2/2022 11:00:00 AM 13.55 56.39 0.786 7.09 2.28 13.46
5/2/2022 11:15:00 AM 13.68 56.624 0.784 7.48 1.69 14.13
5/2/2022 11:30:00 AM 13.92 57.056 0.78 6.95 1.52 14.68
5/2/2022 11:45:00 AM 14.14 57.452 0.778 7.24 2.59 15.16
5/2/2022 12:00:00 PM 14.34 57.812 0.776 6.03 3.39 15.67
5/2/2022 12:15:00 PM 14.56 58.208 0.773 6.69 2.69 16.1
5/2/2022 12:30:00 PM 14.68 58.424 0.773 7.3 2.54 16.43
5/2/2022 12:45:00 PM 14.88 58.784 0.77 7.42 1.67 16.07
5/2/2022 1:00:00 PM 15.24 59.432 0.768 7.54 2.2 16.45
5/2/2022 1:15:00 PM 15.35 59.63 0.767 7.56 2.37 16.85
5/2/2022 1:30:00 PM 15.56 60.008 0.765 7.54 1.8 16.96
5/2/2022 1:45:00 PM 15.83 60.494 0.763 7.48 3.61 17.14
5/2/2022 2:00:00 PM 16 60.8 0.763 7.62 1.52 17.5
5/2/2022 2:15:00 PM 16.25 61.25 0.76 7.57 1.91 17.98
5/2/2022 2:30:00 PM 16.25 61.25 0.76 7.67 1.76 17.58
5/2/2022 2:45:00 PM 16.3 61.34 0.76 7.79 4.7 17.61
5/2/2022 3:00:00 PM 16.38 61.484 0.758 7.87 11.35 17.55
5/2/2022 3:15:00 PM 16.64 61.952 0.758 7.52 1.44 17.47
5/2/2022 3:30:00 PM 16.85 62.33 0.756 7.79 2.43 17.73
5/2/2022 3:45:00 PM 16.88 62.384 0.753 7.75 2.57 17.83
5/2/2022 4:00:00 PM 16.8 62.24 0.751 7.94 10.35 17.44
5/2/2022 4:15:00 PM 16.81 62.258 0.752 7.93 3.84 16.9
5/2/2022 4:30:00 PM 16.96 62.528 0.75 8.07 2.2 16.76
5/2/2022 4:45:00 PM 17.07 62.726 0.749 8.08 2.71 16.6
5/2/2022 5:00:00 PM 17.01 62.618 0.75 8.04 5.46 16.4
5/2/2022 5:15:00 PM 17.08 62.744 0.749 8.09 8.37 16.26
5/2/2022 5:30:00 PM 17.2 62.96 0.749 8.06 3.09 16.16
5/2/2022 5:45:00 PM 17.19 62.942 0.748 7.96 4.47 15.91
5/2/2022 6:00:00 PM 17.15 62.87 0.752 8.01 3.16 15.23
5/2/2022 6:15:00 PM 17.11 62.798 0.753 8.01 2.59 14.48
5/2/2022 6:30:00 PM 17.1 62.78 0.754 8.14 2.19 13.98
5/2/2022 6:45:00 PM 17.09 62.762 0.754 8.12 2.19 13.64
5/2/2022 7:00:00 PM 17.08 62.744 0.756 8.09 2.49 13.01
5/2/2022 7:15:00 PM 17.08 62.744 0.757 8.09 3.84 12.85
5/2/2022 7:30:00 PM 17.05 62.69 0.759 7.94 2.19 12.74
5/2/2022 7:45:00 PM 17.05 62.69 0.761 8.02 2.74 12.55
5/2/2022 8:00:00 PM 16.99 62.582 0.763 8.03 2.58 11.84
5/2/2022 8:15:00 PM 16.94 62.492 0.766 7.86 16.42 11.39
5/2/2022 8:30:00 PM 16.89 62.402 0.768 7.97 5.02 10.89
5/2/2022 8:45:00 PM 16.86 62.348 0.769 7.99 5.19 10.28
5/2/2022 9:00:00 PM 16.79 62.222 0.771 8.03 2.52 10.1
5/2/2022 9:15:00 PM 16.71 62.078 0.774 8.04 3.21 9.87
5/2/2022 9:30:00 PM 16.64 61.952 0.777 8.13 2.23 9.65
5/2/2022 9:45:00 PM 16.56 61.808 0.779 8.2 1.54 9.11
5/2/2022 10:00:00 PM 16.46 61.628 0.781 8.15 4.27 9.08
5/2/2022 10:15:00 PM 16.37 61.466 0.783 8.27 2.59 8.6
5/2/2022 10:30:00 PM 16.28 61.304 0.785 8.28 4.53 8.52
5/2/2022 10:45:00 PM 16.18 61.124 0.787 8.33 2.11 8.04
5/2/2022 11:00:00 PM 16.09 60.962 0.79 8.35 2.32 8.47
5/2/2022 11:15:00 PM 15.99 60.782 0.791 8.35 2.93 8.04
5/2/2022 11:30:00 PM 15.9 60.62 0.793 8.32 2.61 7.79
5/2/2022 11:45:00 PM 15.8 60.44 0.795 8.41 2.41 7.86
5/3/2022 12:00:00 AM 15.7 60.26 0.796 8.48 2.3 7.98
5/3/2022 12:15:00 AM 15.6 60.08 0.797 8.49 5.79 7.93
5/3/2022 12:30:00 AM 15.5 59.9 0.798 8.52 7.89 7.49
5/3/2022 12:45:00 AM 15.41 59.738 0.8 8.53 5.54 7.27
5/3/2022 1:00:00 AM 15.31 59.558 0.8 8.55 2.02 7.31
5/3/2022 1:15:00 AM 15.2 59.36 0.801 8.56 2.25 7.01
5/3/2022 1:30:00 AM 15.12 59.216 0.802 8.54 1.64 7.33
5/3/2022 1:45:00 AM 15.01 59.018 0.802 8.56 1.45 7.07
5/3/2022 2:00:00 AM 14.93 58.874 0.803 8.59 3.08 7.01
5/3/2022 2:15:00 AM 14.83 58.694 0.803 8.58 2.76 6.98
5/3/2022 2:30:00 AM 14.74 58.532 0.803 8.6 2.58 7.02
5/3/2022 2:45:00 AM 14.67 58.406 0.804 8.6 2.54 7.1
5/3/2022 3:00:00 AM 14.57 58.226 0.803 8.6 2.31 6.83
5/3/2022 3:15:00 AM 14.47 58.046 0.802 8.61 2.38 7.31
5/3/2022 3:30:00 AM 14.41 57.938 0.802 8.61 2.16 7.3
5/3/2022 3:45:00 AM 14.35 57.83 0.741 8.61 2.5 7.16
5/3/2022 4:00:00 AM 14.29 57.722 0.751 8.61 2.84 7.31
5/3/2022 4:15:00 AM 14.25 57.65 0.795 8.58 1.81 7.27
5/3/2022 4:30:00 AM 14.21 57.578 0.795 8.51 2.07 7.33
5/3/2022 4:45:00 AM 14.18 57.524 0.799 8.48 2.61 7.42
5/3/2022 5:00:00 AM 14.14 57.452 0.798 8.43 3.44 7.49
5/3/2022 5:15:00 AM 14.09 57.362 0.798 8.42 2.91 7.37
5/3/2022 5:30:00 AM 14.07 57.326 0.796 8.36 3.21 7.31
5/3/2022 5:45:00 AM 14.04 57.272 0.795 8.26 2.04 7.54
5/3/2022 6:00:00 AM 14.02 57.236 0.793 8.18 2.49 7.46
5/3/2022 6:15:00 AM 14 57.2 0.792 8.12 2.52 7.49
5/3/2022 6:30:00 AM 13.99 57.182 0.79 8.09 2 7.39
5/3/2022 6:45:00 AM 13.97 57.146 0.788 8.04 3.51 7.37
5/3/2022 7:00:00 AM 13.97 57.146 0.786 8.03 2.08 7.55
5/3/2022 7:15:00 AM 13.97 57.146 0.784 7.99 2.25 7.48
5/3/2022 7:30:00 AM 13.96 57.128 0.782 7.93 1.87 7.62
5/3/2022 7:45:00 AM 13.97 57.146 0.779 7.91 1.84 7.71
5/3/2022 8:00:00 AM 13.97 57.146 0.777 7.88 1.77 7.94
5/3/2022 8:15:00 AM 13.97 57.146 0.775 7.85 2.62 7.91
5/3/2022 8:30:00 AM 13.98 57.164 0.774 7.85 2.15 8.14
5/3/2022 8:45:00 AM 13.99 57.182 0.77 7.66 1.86 8.72
5/3/2022 9:00:00 AM 14.01 57.218 0.768 7.63 3.83 8.7
5/3/2022 9:15:00 AM 14.03 57.254 0.765 7.55 1.72 8.71
5/3/2022 9:30:00 AM 14.06 57.308 0.762 7.55 4.32 8.9
5/3/2022 9:45:00 AM 14.11 57.398 0.76 7.48 2.1 9.58
5/3/2022 10:00:00 AM 14.16 57.488 0.757 7.47 3.08 9.68
5/3/2022 10:15:00 AM 14.19 57.542 0.755 7.45 2.26 10.04
5/3/2022 10:30:00 AM 14.24 57.632 0.752 7.4 17.33 10.17
5/3/2022 10:45:00 AM 14.34 57.812 0.749 7.38 2.57 10.67
5/3/2022 11:00:00 AM 14.38 57.884 0.747 7.34 2.48 10.95
5/3/2022 11:15:00 AM 14.53 58.154 0.743 7.33 1.77 11.45
5/3/2022 11:30:00 AM 14.61 58.298 0.741 7.29 2.52 11.99
5/3/2022 11:45:00 AM 14.69 58.442 0.738 7.33 2.66 12.38
5/3/2022 12:00:00 PM 14.86 58.748 0.735 7.3 1.78 12.81
5/3/2022 12:15:00 PM 14.98 58.964 0.733 7.32 2.65 13.6
5/3/2022 12:30:00 PM 15.27 59.486 0.729 7.42 2.78 14.05
5/3/2022 12:45:00 PM 15.49 59.882 0.727 7.54 2.97 14.78
5/3/2022 1:00:00 PM 15.82 60.476 0.723 7.6 1.75 15.62
5/3/2022 1:15:00 PM 16.13 61.034 0.719 7.55 2.27 16.27
5/3/2022 1:30:00 PM 16.28 61.304 0.718 7.48 1.7 16.76
5/3/2022 1:45:00 PM 16.36 61.448 0.717 7.55 2.24 16.78
5/3/2022 2:00:00 PM 16.48 61.664 0.715 7.53 2.76 16.81
5/3/2022 2:15:00 PM 16.61 61.898 0.713 7.73 2.03 16.79
5/3/2022 2:30:00 PM 17.01 62.618 0.708 7.52 1.67 17.85
5/3/2022 2:45:00 PM 17.19 62.942 0.706 7.47 2.09 18.2
5/3/2022 3:00:00 PM 17.32 63.176 0.702 7.2 2.23 18.29
5/3/2022 3:15:00 PM 17.4 63.32 0.702 7.36 1.92 18.34
5/3/2022 3:30:00 PM 17.51 63.518 0.7 7.19 1.84 18.05
5/3/2022 3:45:00 PM 17.55 63.59 0.7 7.29 1.58 17.93
5/3/2022 4:00:00 PM 17.66 63.788 0.698 7.4 1.48 18.02
5/3/2022 4:15:00 PM 17.75 63.95 0.696 7.67 2.88 18.01
5/3/2022 4:30:00 PM 17.85 64.13 0.695 7.71 2.02 17.95
5/3/2022 4:45:00 PM 17.9 64.22 0.695 7.59 2.5 17.47
5/3/2022 5:00:00 PM 17.92 64.256 0.694 7.78 2.39 17.13
5/3/2022 5:15:00 PM 17.88 64.184 0.695 7.81 2.73 16.78
5/3/2022 5:30:00 PM 17.88 64.184 0.695 7.99 2.26 16.5
5/3/2022 5:45:00 PM 17.95 64.31 0.694 8.08 2.31 15.8
5/3/2022 6:00:00 PM 17.93 64.274 0.695 8.12 2.45 15.47
5/3/2022 6:15:00 PM 17.93 64.274 0.696 8.16 2.65 15.31
5/3/2022 6:30:00 PM 17.91 64.238 0.697 8.2 1.9 15.04
5/3/2022 6:45:00 PM 17.89 64.202 0.698 8.17 3.3 14.27
5/3/2022 7:00:00 PM 17.88 64.184 0.701 8.07 6.32 14.37
5/3/2022 7:15:00 PM 17.86 64.148 0.702 8.03 1.91 13.83
5/3/2022 7:30:00 PM 17.84 64.112 0.704 7.95 3.28 13.36
5/3/2022 7:45:00 PM 17.82 64.076 0.706 8.16 6.41 13.17
5/3/2022 8:00:00 PM 17.81 64.058 0.708 8.19 1.84 12.67
5/3/2022 8:15:00 PM 17.78 64.004 0.71 8.3 3.41 11.58
5/3/2022 8:30:00 PM 17.73 63.914 0.713 8.4 2.4 11.06
5/3/2022 8:45:00 PM 17.69 63.842 0.716 8.45 4.56 10.52
5/3/2022 9:00:00 PM 17.65 63.77 0.719 8.46 2.09 10.19
5/3/2022 9:15:00 PM 17.59 63.662 0.722 8.47 2.02 9.82
5/3/2022 9:30:00 PM 17.53 63.554 0.724 8.48 4.96 9.64
5/3/2022 9:45:00 PM 17.46 63.428 0.728 8.47 2.09 9.17
5/3/2022 10:00:00 PM 17.39 63.302 0.731 8.49 2.23 8.88
5/3/2022 10:15:00 PM 17.3 63.14 0.735 8.52 1.74 8.57
5/3/2022 10:30:00 PM 17.23 63.014 0.738 8.55 3.18 8.48
5/3/2022 10:45:00 PM 17.14 62.852 0.741 8.53 1.87 8.17
5/3/2022 11:00:00 PM 17.06 62.708 0.744 8.53 2.06 8.04
5/3/2022 11:15:00 PM 17 62.6 0.747 8.52 2.15 8.02
5/3/2022 11:30:00 PM 16.92 62.456 0.749 8.48 1.83 7.69
5/3/2022 11:45:00 PM 16.83 62.294 0.751 8.46 1.99 7.62
5/4/2022 12:00:00 AM 16.74 62.132 0.754 8.43 2.1 7.4
5/4/2022 12:15:00 AM 16.65 61.97 0.757 8.43 1.57 7.35
5/4/2022 12:30:00 AM 16.56 61.808 0.759 8.42 1.55 7.17
5/4/2022 12:45:00 AM 16.47 61.646 0.76 8.4 1.5 7.06
5/4/2022 1:00:00 AM 16.38 61.484 0.762 8.38 5.79 7.23
5/4/2022 1:15:00 AM 16.3 61.34 0.764 8.38 10.87 6.99
5/4/2022 1:30:00 AM 16.22 61.196 0.765 8.35 5.29 7.14
5/4/2022 1:45:00 AM 16.13 61.034 0.765 8.34 2.22 6.99
5/4/2022 2:00:00 AM 16.05 60.89 0.766 8.35 1.8 6.97
5/4/2022 2:15:00 AM 15.94 60.692 0.766 8.4 2.44 6.96
5/4/2022 2:30:00 AM 15.86 60.548 0.766 8.23 2.48 7
5/4/2022 2:45:00 AM 15.79 60.422 0.766 8.25 2.1 6.86
5/4/2022 3:00:00 AM 15.71 60.278 0.767 8.23 2.29 6.78
5/4/2022 3:15:00 AM 15.64 60.152 0.766 8.21 2.46 6.88
5/4/2022 3:30:00 AM 15.56 60.008 0.764 8.23 4.33 7.07
5/4/2022 3:45:00 AM 15.49 59.882 0.762 8.21 2.87 6.99
5/4/2022 4:00:00 AM 15.43 59.774 0.762 8.19 5.47 7.11
5/4/2022 4:15:00 AM 15.37 59.666 0.761 8.15 2.75 7.09
5/4/2022 4:30:00 AM 15.31 59.558 0.759 8.12 4.91 6.89
5/4/2022 4:45:00 AM 15.25 59.45 0.758 8.09 2.08 6.65
5/4/2022 5:00:00 AM 15.21 59.378 0.757 8.05 2.17 6.93
5/4/2022 5:15:00 AM 15.16 59.288 0.74 8.02 2.09 7.05
5/4/2022 5:30:00 AM 15.12 59.216 0.739 7.98 1.7 7.01
5/4/2022 5:45:00 AM 15.07 59.126 0.666 7.94 2.25 6.77
5/4/2022 6:00:00 AM 15.03 59.054 0.661 7.92 1.96 6.7
5/4/2022 6:15:00 AM 15 59 0.637 7.9 2.61 7.04
5/4/2022 6:30:00 AM 14.97 58.946 0.636 7.85 2.66 7.24
5/4/2022 6:45:00 AM 14.94 58.892 0.652 7.83 2.39 7
5/4/2022 7:00:00 AM 14.92 58.856 0.653 7.81 2.76 7.32
5/4/2022 7:15:00 AM 14.88 58.784 0.722 7.77 2.01 7.27
5/4/2022 7:30:00 AM 14.86 58.748 0.72 7.78 3.33 7.28
5/4/2022 7:45:00 AM 14.84 58.712 0.717 7.74 2.61 7.41
5/4/2022 8:00:00 AM 14.83 58.694 0.712 7.7 2.07 7.66
5/4/2022 8:15:00 AM 14.82 58.676 0.715 7.71 2.35 7.79
5/4/2022 8:30:00 AM 14.8 58.64 0.714 7.6 2.28 8.01
5/4/2022 8:45:00 AM 14.78 58.604 0.713 7.52 2.25 8.16
5/4/2022 9:00:00 AM 14.77 58.586 0.711 7.51 2.89 8.27
5/4/2022 9:15:00 AM 14.76 58.568 0.71 7.49 2.67 8.44
5/4/2022 9:30:00 AM 14.75 58.55 0.714 7.33 2.82 8.6
5/4/2022 9:45:00 AM 14.75 58.55 0.71 7.37 3.18 8.79
5/4/2022 10:00:00 AM 14.77 58.586 0.684 7.36 3.77 9.04
5/4/2022 10:15:00 AM 14.78 58.604 0.63 7.31 4.56 9.11
5/4/2022 10:30:00 AM 14.8 58.64 0.713 7.35 3 9.41
5/4/2022 10:45:00 AM 14.83 58.694 0.675 7.36 2.32 9.42
5/4/2022 11:00:00 AM 14.88 58.784 0.672 7.35 2.46 9.54
5/4/2022 11:15:00 AM 14.93 58.874 0.709 7.36 2.2 9.88
5/4/2022 11:30:00 AM 14.97 58.946 0.71 7.37 2.34 10.21
5/4/2022 11:45:00 AM 15.02 59.036 0.638 7.38 1.73 10.71
5/4/2022 12:00:00 PM 15.06 59.108 0.66 7.39 2.42 10.61
5/4/2022 12:15:00 PM 15.12 59.216 0.667 7.4 2.9 11.01
5/4/2022 12:30:00 PM 15.17 59.306 0.726 7.42 2.27 11.25
5/4/2022 12:45:00 PM 15.24 59.432 0.72 7.44 2.09 11.63
5/4/2022 1:00:00 PM 15.32 59.576 0.723 7.46 2.18 11.97
5/4/2022 1:15:00 PM 15.39 59.702 0.67 7.48 2.52 12.27
5/4/2022 1:30:00 PM 15.46 59.828 0.722 7.46 2.04 12.44
5/4/2022 1:45:00 PM 15.51 59.918 0.684 7.45 3.14 12.61
5/4/2022 2:00:00 PM 15.61 60.098 0.678 6.8 2.18 12.82
5/4/2022 2:15:00 PM 15.7 60.26 0.682 7.4 1.88 13.07
5/4/2022 2:30:00 PM 15.79 60.422 0.689 7.46 2 13.61
5/4/2022 2:45:00 PM 15.8 60.44 0.719 7.5 1.99 13.47
5/4/2022 3:00:00 PM 15.91 60.638 0.72 7.56 3.01 13.26
5/4/2022 3:15:00 PM 16.15 61.07 0.722 7.51 2.1 13.96
5/4/2022 3:30:00 PM 16.3 61.34 0.723 7.61 2.29 14.69
5/4/2022 3:45:00 PM 16.39 61.502 0.723 7.55 2.34 15.05
5/4/2022 4:00:00 PM 16.46 61.628 0.724 7.76 1.96 15.12
5/4/2022 4:15:00 PM 16.58 61.844 0.719 7.66 2.33 15.13
5/4/2022 4:30:00 PM 16.66 61.988 0.715 7.81 3.32 15.24
5/4/2022 4:45:00 PM 16.75 62.15 0.726 7.86 3.43 15.28
5/4/2022 5:00:00 PM 16.79 62.222 0.732 7.92 2.36 15.35
5/4/2022 5:15:00 PM 16.81 62.258 0.737 7.95 2.61 15.38
5/4/2022 5:30:00 PM 16.82 62.276 0.732 7.99 2.74 15.1
5/4/2022 5:45:00 PM 16.82 62.276 0.701 8.01 2.34 14.95
5/4/2022 6:00:00 PM 16.81 62.258 0.725 8 2.54 14.66
5/4/2022 6:15:00 PM 16.82 62.276 0.745 8.06 2.61 14.36
5/4/2022 6:30:00 PM 16.83 62.294 0.751 7.81 2.54 14.13
5/4/2022 6:45:00 PM 16.84 62.312 0.702 7.96 2.78 13.82
5/4/2022 7:00:00 PM 16.84 62.312 0.756 8 2.99 13.52
5/4/2022 7:15:00 PM 16.84 62.312 0.757 8.04 2.27 13.24
5/4/2022 7:30:00 PM 16.84 62.312 0.759 8.06 2.47 12.77
5/4/2022 7:45:00 PM 16.83 62.294 0.77 8.06 3.74 12.32
5/4/2022 8:00:00 PM 16.82 62.276 0.772 8.08 2.19 12.15
5/4/2022 8:15:00 PM 16.8 62.24 0.775 8.06 4.23 11.7
5/4/2022 8:30:00 PM 16.78 62.204 0.775 8.05 3.11 11.55
5/4/2022 8:45:00 PM 16.75 62.15 0.758 8.04 3.05 11.2
5/4/2022 9:00:00 PM 16.71 62.078 0.67 8.03 2.57 10.9
5/4/2022 9:15:00 PM 16.66 61.988 0.717 8.01 2.4 10.6
5/4/2022 9:30:00 PM 16.63 61.934 0.755 7.98 2.53 10.35
5/4/2022 9:45:00 PM 16.6 61.88 0.717 7.95 2.83 9.95
5/4/2022 10:00:00 PM 16.57 61.826 0.692 7.93 2.72 9.74
5/4/2022 10:15:00 PM 16.52 61.736 0.694 7.91 2.15 9.44
5/4/2022 10:30:00 PM 16.47 61.646 0.697 7.93 2.88 9.31
5/4/2022 10:45:00 PM 16.41 61.538 0.698 7.88 3.54 9.05
5/4/2022 11:00:00 PM 16.37 61.466 0.701 7.84 2.18 8.71
5/4/2022 11:15:00 PM 16.32 61.376 0.697 7.82 2.56 8.59
5/4/2022 11:30:00 PM 16.26 61.268 0.699 7.83 2.44 8.47
5/4/2022 11:45:00 PM 16.21 61.178 0.692 7.82 2.15 8.33
5/5/2022 12:00:00 AM 16.18 61.124 0.73 7.82 6.34 8.22
5/5/2022 12:15:00 AM 16.14 61.052 0.758 7.81 4.83 8.07
5/5/2022 12:30:00 AM 16.11 60.998 0.732 7.77 2.77 7.81
5/5/2022 12:45:00 AM 16.07 60.926 0.783 7.74 2.45 7.91
5/5/2022 1:00:00 AM 16.02 60.836 0.694 7.72 4.67 7.84
5/5/2022 1:15:00 AM 15.95 60.71 0.812 7.71 2.28 7.69
5/5/2022 1:30:00 AM 15.89 60.602 0.816 7.7 2.02 7.65
5/5/2022 1:45:00 AM 15.83 60.494 0.815 7.65 34.78 7.57
5/5/2022 2:00:00 AM 15.79 60.422 0.812 7.66 5.41 7.5
5/5/2022 2:15:00 AM 15.75 60.35 0.819 7.66 2.11 7.39
5/5/2022 2:30:00 AM 15.71 60.278 0.819 7.66 3.75 7.26
5/5/2022 2:45:00 AM 15.67 60.206 0.818 7.65 2.98 7.23
5/5/2022 3:00:00 AM 15.63 60.134 0.819 7.63 2.56 7.25
5/5/2022 3:15:00 AM 15.59 60.062 0.809 7.63 5.01 7.29
5/5/2022 3:30:00 AM 15.55 59.99 0.816 7.21 2.2 7.19
5/5/2022 3:45:00 AM 15.51 59.918 0.791 7.52 2.01 7.23
5/5/2022 4:00:00 AM 15.48 59.864 0.816 7.58 2.64 7.15
5/5/2022 4:15:00 AM 15.44 59.792 0.816 7.59 2.58 7.17
5/5/2022 4:30:00 AM 15.4 59.72 0.812 7.57 2.95 7.19
5/5/2022 4:45:00 AM 15.37 59.666 0.815 7.57 5.8 7.23
5/5/2022 5:00:00 AM 15.33 59.594 0.815 7.55 4.26 7.29
5/5/2022 5:15:00 AM 15.3 59.54 0.815 7.54 2.85 7.14
5/5/2022 5:30:00 AM 15.25 59.45 0.815 7.54 2.86 7.22
5/5/2022 5:45:00 AM 15.2 59.36 0.814 7.54 2.71 7.18
5/5/2022 6:00:00 AM 15.16 59.288 0.814 7.57 5.15 7.18
5/5/2022 6:15:00 AM 15.12 59.216 0.813 7.58 2.73 7.27
5/5/2022 6:30:00 AM 15.09 59.162 0.813 7.6 2.27 7.19
5/5/2022 6:45:00 AM 15.08 59.144 0.813 7.63 2.23 7.44
5/5/2022 7:00:00 AM 15.07 59.126 0.813 7.62 2.2 7.44
5/5/2022 7:15:00 AM 15.06 59.108 0.812 7.62 2.1 7.62
5/5/2022 7:30:00 AM 15.06 59.108 0.812 7.6 2.56 7.84
5/5/2022 7:45:00 AM 15.06 59.108 0.812 7.58 2.94 8.07
5/5/2022 8:00:00 AM 15.07 59.126 0.812 7.57 2.16 8.32
5/5/2022 8:15:00 AM 15.08 59.144 0.811 7.56 2.41 8.64
5/5/2022 8:30:00 AM 15.1 59.18 0.81 7.56 3.16 8.96
5/5/2022 8:45:00 AM 15.13 59.234 0.81 7.55 2.15 9.4
5/5/2022 9:00:00 AM 15.16 59.288 0.809 7.56 2.15 9.7
5/5/2022 9:15:00 AM 15.21 59.378 0.809 7.56 2.09 10.12
5/5/2022 9:30:00 AM 15.26 59.468 0.808 7.58 3.4 10.66
5/5/2022 9:45:00 AM 15.3 59.54 0.807 7.61 3.77 11.05
5/5/2022 10:00:00 AM 15.37 59.666 0.807 7.61 3.1 11.32
5/5/2022 10:15:00 AM 15.52 59.936 0.805 7.64 2.62 11.71
5/5/2022 10:30:00 AM 15.75 60.35 0.804 7.66 2.3 12.31
5/5/2022 10:45:00 AM 16 60.8 0.803 7.64 4.13 13.09
5/5/2022 11:00:00 AM 16.14 61.052 0.802 7.64 2.27 13.71
5/5/2022 11:15:00 AM 16.29 61.322 0.801 7.68 2.37 14.28
5/5/2022 11:30:00 AM 16.53 61.754 0.799 7.75 5.82 14.67
5/5/2022 11:45:00 AM 16.77 62.186 0.797 7.76 2.63 15.32
5/5/2022 12:00:00 PM 16.93 62.474 0.796 7.85 3.69 15.68
5/5/2022 12:15:00 PM 17.22 62.996 0.794 7.91 2.69 16.31
5/5/2022 12:30:00 PM 17.41 63.338 0.794 7.96 2.58 16.78
5/5/2022 12:45:00 PM 17.6 63.68 0.792 8.01 2.1 17.08
5/5/2022 1:00:00 PM 17.75 63.95 0.791 8.07 2.78 17.29
5/5/2022 1:15:00 PM 17.86 64.148 0.79 7.79 2.08 17.58
5/5/2022 1:30:00 PM 17.94 64.292 0.79 8.1 2.68 17.59
5/5/2022 1:45:00 PM 18.15 64.67 0.788 8.2 2.72 17.82
5/5/2022 2:00:00 PM 18.29 64.922 0.788 8.26 3.55 18.11
5/5/2022 2:15:00 PM 18.38 65.084 0.789 8.34 2.41 18.15
5/5/2022 2:30:00 PM 18.54 65.372 0.789 8.43 2.46 18.24
5/5/2022 2:45:00 PM 18.63 65.534 0.791 8.49 2.57 18.28
5/5/2022 3:00:00 PM 18.66 65.588 0.792 8.57 2.36 17.78
5/5/2022 3:15:00 PM 18.63 65.534 0.795 8.62 9.77 17.38
5/5/2022 3:30:00 PM 18.58 65.444 0.798 8.63 4.11 16.79
5/5/2022 3:45:00 PM 18.71 65.67799 0.8 8.65 3.78 16.95
5/5/2022 4:00:00 PM 18.89 66.002 0.804 8.71 2.43 17.16
5/5/2022 4:15:00 PM 18.99 66.182 0.809 8.72 2.08 17.11
5/5/2022 4:30:00 PM 19.01 66.218 0.814 8.74 3.44 16.91
5/5/2022 4:45:00 PM 19.07 66.326 0.821 8.81 2.35 16.63
5/5/2022 5:00:00 PM 19.08 66.344 0.828 8.83 3.41 16.36
5/5/2022 5:15:00 PM 19.1 66.38 0.837 8.84 3.29 16.07
5/5/2022 5:30:00 PM 19.08 66.344 0.847 8.84 3.02 15.62
5/5/2022 5:45:00 PM 19.13 66.434 0.858 8.84 2.04 15.31
5/5/2022 6:00:00 PM 19.16 66.488 0.869 8.83 2.05 14.93
5/5/2022 6:15:00 PM 19.16 66.488 0.88 8.83 3.54 14.58
5/5/2022 6:30:00 PM 19.14 66.452 0.896 8.83 2.04 14.09
5/5/2022 6:45:00 PM 19.12 66.416 0.91 8.83 2.5 13.54
5/5/2022 7:00:00 PM 19.11 66.398 0.925 8.87 1.99 13.22
5/5/2022 7:15:00 PM 19.1 66.38 0.94 8.88 5.39 12.8
5/5/2022 7:30:00 PM 19.07 66.326 0.955 8.87 2.79 12.35
5/5/2022 7:45:00 PM 19.05 66.29 0.972 8.84 3.33 12.04
5/5/2022 8:00:00 PM 19 66.2 0.988 8.86 2.34 11.54
5/5/2022 8:15:00 PM 18.95 66.11 1.006 8.9 4 11.35
5/5/2022 8:30:00 PM 18.88 65.984 1.025 8.91 2.62 10.97
5/5/2022 8:45:00 PM 18.81 65.858 1.033 8.9 3.58 10.41
5/5/2022 9:00:00 PM 18.76 65.768 1.049 8.88 2.02 10.08
5/5/2022 9:15:00 PM 18.68 65.624 1.063 8.87 2.96 9.75
5/5/2022 9:30:00 PM 18.62 65.516 1.075 8.84 2.72 9.52
5/5/2022 9:45:00 PM 18.55 65.39 1.087 8.83 4.01 9.13
5/5/2022 10:00:00 PM 18.47 65.246 1.1 8.79 2.9 8.72
5/5/2022 10:15:00 PM 18.41 65.138 1.107 8.75 4.83 8.67
5/5/2022 10:30:00 PM 18.33 64.994 1.115 8.7 4.71 8.37
5/5/2022 10:45:00 PM 18.25 64.85 1.121 8.66 3.05 8.25
5/5/2022 11:00:00 PM 18.17 64.706 1.126 8.62 2.72 7.98
5/5/2022 11:15:00 PM 18.09 64.562 1.13 8.57 3.12 7.84
5/5/2022 11:30:00 PM 18.01 64.418 1.123 8.52 2.87 7.61
5/5/2022 11:45:00 PM 17.93 64.274 1.123 8.48 2.68 7.45
5/6/2022 12:00:00 AM 17.85 64.13 1.133 8.44 2.73 7.37
5/6/2022 12:15:00 AM 17.77 63.986 1.132 8.39 2.87 7.2
5/6/2022 12:30:00 AM 17.69 63.842 1.129 8.36 4.15 7.17
5/6/2022 12:45:00 AM 17.61 63.698 1.126 8.33 3.13 7
5/6/2022 1:00:00 AM 17.53 63.554 1.122 8.29 1.94 6.88
5/6/2022 1:15:00 AM 17.45 63.41 1.117 8.26 2.15 6.85
5/6/2022 1:30:00 AM 17.37 63.266 1.113 8.23 2.76 6.79
5/6/2022 1:45:00 AM 17.29 63.122 1.106 8.22 3.63 6.79
5/6/2022 2:00:00 AM 17.23 63.014 1.101 8.2 4.95 6.72
5/6/2022 2:15:00 AM 17.15 62.87 1.094 8.18 3.52 6.71
5/6/2022 2:30:00 AM 17.09 62.762 1.088 8.16 2.66 6.68
5/6/2022 2:45:00 AM 17.03 62.654 1.082 8.16 2.2 6.58
5/6/2022 3:00:00 AM 16.96 62.528 1.074 8.12 4.69 6.57
5/6/2022 3:15:00 AM 16.9 62.42 1.067 8.04 9.63 6.51
5/6/2022 3:30:00 AM 16.85 62.33 1.06 7.96 5.36 6.53
5/6/2022 3:45:00 AM 16.8 62.24 1.053 8.1 7.76 6.54
5/6/2022 4:00:00 AM 16.75 62.15 1.046 8.08 5.77 6.55
5/6/2022 4:15:00 AM 16.7 62.06 1.039 8.05 2.92 6.54
5/6/2022 4:30:00 AM 16.66 61.988 1.034 8.03 5.11 6.41
5/6/2022 4:45:00 AM 16.62 61.916 1.028 8.01 2.24 6.43
5/6/2022 5:00:00 AM 16.58 61.844 1.024 8.02 2.62 6.42
5/6/2022 5:15:00 AM 16.54 61.772 1.019 7.99 2.9 6.47
5/6/2022 5:30:00 AM 16.51 61.718 1.013 7.97 2.61 6.44
5/6/2022 5:45:00 AM 16.47 61.646 1.009 7.97 2.7 6.51
5/6/2022 6:00:00 AM 16.44 61.592 1.005 7.96 2.48 6.48
5/6/2022 6:15:00 AM 16.42 61.556 0.991 7.96 2.76 6.51
5/6/2022 6:30:00 AM 16.39 61.502 0.975 7.94 2.5 6.48
5/6/2022 6:45:00 AM 16.36 61.448 0.935 7.95 2.84 6.48
5/6/2022 7:00:00 AM 16.34 61.412 0.917 7.92 2.21 6.5
5/6/2022 7:15:00 AM 16.33 61.394 0.915 7.91 3.81 6.63
5/6/2022 7:30:00 AM 16.3 61.34 0.914 7.91 6.73 6.71
5/6/2022 7:45:00 AM 16.28 61.304 0.91 7.91 2.64 6.77
5/6/2022 8:00:00 AM 16.27 61.286 0.898 7.9 3.9 6.85
5/6/2022 8:15:00 AM 16.25 61.25 0.89 7.89 2.32 6.91
5/6/2022 8:30:00 AM 16.24 61.232 0.877 7.9 2.77 6.99
5/6/2022 8:45:00 AM 16.21 61.178 0.869 7.91 2.83 7.14
5/6/2022 9:00:00 AM 16.19 61.142 0.864 7.91 2.58 7.21
5/6/2022 9:15:00 AM 16.16 61.088 0.835 7.92 2.97 7.34
5/6/2022 9:30:00 AM 16.14 61.052 0.824 7.9 3.45 7.38
5/6/2022 9:45:00 AM 16.12 61.016 0.818 7.88 4.42 7.59
5/6/2022 10:00:00 AM 16.11 60.998 0.833 7.88 3.61 7.84
5/6/2022 10:15:00 AM 16.08 60.944 0.802 7.89 3.98 8.04
5/6/2022 10:30:00 AM 16.06 60.908 0.831 7.88 4.12 8.17
5/6/2022 10:45:00 AM 16.04 60.872 0.872 7.88 5.19 8.25
5/6/2022 11:00:00 AM 16.01 60.818 0.863 7.88 6.13 8.4
5/6/2022 11:15:00 AM 15.96 60.728 0.85 7.88 6.46 8.53
5/6/2022 11:30:00 AM 15.85 60.53 0.804 7.9 8.36 8.74
5/6/2022 11:45:00 AM 15.81 60.458 0.765 7.9 8.2 8.85
5/6/2022 12:00:00 PM 15.69 60.242 0.748 7.89 11.86 8.94
5/6/2022 12:15:00 PM 15.56 60.008 0.747 7.84 12.29 9.06
5/6/2022 12:30:00 PM 15.53 59.954 0.734 7.87 16.53 9.16
5/6/2022 12:45:00 PM 15.38 59.684 0.704 7.86 17.7 9.25
5/6/2022 1:00:00 PM 15.43 59.774 0.741 7.82 16.15 9.22
5/6/2022 1:15:00 PM 15.38 59.684 0.741 7.77 49.94 9.29
5/6/2022 1:30:00 PM 15.33 59.594 0.707 7.78 21.45 9.26
5/6/2022 1:45:00 PM 15.31 59.558 0.719 7.79 19.28 9.29
5/6/2022 2:00:00 PM 15.27 59.486 0.711 7.76 20.52 9.33
5/6/2022 2:15:00 PM 15.3 59.54 0.729 7.75 15.32 9.44
5/6/2022 2:30:00 PM 15.13 59.234 0.685 7.79 22.6 9.34
5/6/2022 2:45:00 PM 15.13 59.234 0.655 7.77 26.87 9.36
5/6/2022 3:00:00 PM 15.12 59.216 0.631 7.69 28.17 9.37
5/6/2022 3:15:00 PM 15.16 59.288 0.633 7.69 21.36 9.29
5/6/2022 3:30:00 PM 14.98 58.964 0.583 7.73 34.83 9.32
5/6/2022 3:45:00 PM 15.01 59.018 0.555 7.72 25.98 9.27
5/6/2022 4:00:00 PM 15 59 0.545 7.68 25.02 9.21
5/6/2022 4:15:00 PM 14.94 58.892 0.522 7.7 28.97 9.16
5/6/2022 4:30:00 PM 14.94 58.892 0.518 7.7 31.9 9.1
5/6/2022 4:45:00 PM 14.88 58.784 0.506 7.67 28.5 9.13
5/6/2022 5:00:00 PM 14.86 58.748 0.504 7.67 28.46 9.13
5/6/2022 5:15:00 PM 14.87 58.766 0.526 7.65 28.21 9.13
5/6/2022 5:30:00 PM 14.76 58.568 0.512 7.66 29.4 9.11
5/6/2022 5:45:00 PM 14.79 58.622 0.52 7.64 32.89 9.07
5/6/2022 6:00:00 PM 14.85 58.73 0.536 7.6 31.76 9.04
5/6/2022 6:15:00 PM 14.78 58.604 0.527 7.58 40.29 9
5/6/2022 6:30:00 PM 14.77 58.586 0.529 7.48 37.71 8.92
5/6/2022 6:45:00 PM 14.8 58.64 0.503 7.55 40.76 8.87
5/6/2022 7:00:00 PM 14.8 58.64 0.548 7.49 32.09 8.86
5/6/2022 7:15:00 PM 14.81 58.658 0.523 7.49 31.83 8.82
5/6/2022 7:30:00 PM 14.81 58.658 0.553 7.57 31.81 8.76
5/6/2022 7:45:00 PM 14.8 58.64 0.493 7.6 29.86 8.73
5/6/2022 8:00:00 PM 14.78 58.604 0.549 7.59 28.73 8.7
5/6/2022 8:15:00 PM 14.81 58.658 0.568 7.59 25.31 8.64
5/6/2022 8:30:00 PM 14.8 58.64 0.57 7.55 27.47 8.59
5/6/2022 8:45:00 PM 14.82 58.676 0.577 7.55 26.75 8.55
5/6/2022 9:00:00 PM 14.84 58.712 0.586 7.57 27.9 8.54
5/6/2022 9:15:00 PM 14.82 58.676 0.547 7.55 30.16 8.53
5/6/2022 9:30:00 PM 14.82 58.676 0.582 7.57 642 8.49
5/6/2022 9:45:00 PM 14.81 58.658 0.559 7.5 21.33 8.49
5/6/2022 10:00:00 PM 14.79 58.622 0.548 7.4 22.83 8.47
5/6/2022 10:15:00 PM 14.78 58.604 0.595 7.51 19.09 8.47
5/6/2022 10:30:00 PM 14.75 58.55 0.596 7.53 19.8 8.45
5/6/2022 10:45:00 PM 14.72 58.496 0.514 7.56 19.41 8.45
5/6/2022 11:00:00 PM 14.69 58.442 0.561 7.57 39.99 8.45
5/6/2022 11:15:00 PM 14.66 58.388 0.534 7.43 16.11 8.46
5/6/2022 11:30:00 PM 14.63 58.334 0.523 7.46 19.61 8.46
5/6/2022 11:45:00 PM 14.6 58.28 0.525 7.43 24.64 8.48
5/7/2022 12:00:00 AM 14.57 58.226 0.518 7.43 21.29 8.48
5/7/2022 12:15:00 AM 14.53 58.154 0.515 7.48 19.12 8.51
5/7/2022 12:30:00 AM 14.5 58.1 0.548 7.48 19.27 8.54
5/7/2022 12:45:00 AM 14.47 58.046 0.513 7.47 17.53 8.54
5/7/2022 1:00:00 AM 14.44 57.992 0.513 7.49 18.79 8.56
5/7/2022 1:15:00 AM 14.4 57.92 0.519 7.47 19.14 8.6
5/7/2022 1:30:00 AM 14.37 57.866 0.52 7.44 24.43 8.64
5/7/2022 1:45:00 AM 14.34 57.812 0.523 7.47 21.39 8.66
5/7/2022 2:00:00 AM 14.32 57.776 0.549 7.41 26.23 8.67
5/7/2022 2:15:00 AM 14.29 57.722 0.558 7.19 19.37 8.71
5/7/2022 2:30:00 AM 14.25 57.65 0.566 7.29 22.18 8.73
5/7/2022 2:45:00 AM 14.21 57.578 0.588 7.34 19.24 8.77
5/7/2022 3:00:00 AM 14.17 57.506 0.595 7.34 25.59 8.76
5/7/2022 3:15:00 AM 14.1 57.38 0.572 7.39 22.41 8.82
5/7/2022 3:30:00 AM 14.02 57.236 0.565 7.37 22.86 8.85
5/7/2022 3:45:00 AM 13.87 56.966 0.546 7.41 21.09 8.9
5/7/2022 4:00:00 AM 13.71 56.678 0.537 7.44 38.69 8.99
5/7/2022 4:15:00 AM 13.55 56.39 0.502 7.43 33.96 9.1
5/7/2022 4:30:00 AM 13.45 56.21 0.546 7.42 25.82 9.17
5/7/2022 4:45:00 AM 13.42 56.156 0.584 7.4 75.61 9.2
5/7/2022 5:00:00 AM 13.4 56.12 0.586 7.37 28.77 9.18
5/7/2022 5:15:00 AM 13.38 56.084 0.6 7.35 33.02 9.2
5/7/2022 5:30:00 AM 13.31 55.958 0.597 7.37 30 9.2
5/7/2022 5:45:00 AM 13.25 55.85 0.61 7.35 33.2 9.25
5/7/2022 6:00:00 AM 13.13 55.634 0.591 7.32 32.23 9.27
5/7/2022 6:15:00 AM 13.08 55.544 0.605 7.1 43.28 9.32
5/7/2022 6:30:00 AM 12.97 55.346 0.58 7.11 102.7 9.37
5/7/2022 6:45:00 AM 12.9 55.22 0.567 7 73.9 9.4
5/7/2022 7:00:00 AM 12.82 55.076 0.556 7.19 74.83 9.45
5/7/2022 7:15:00 AM 12.82 55.076 0.543 7.28 77.63 9.41
5/7/2022 7:30:00 AM 12.8 55.04 0.534 7.33 62.55 9.41
5/7/2022 7:45:00 AM 12.79 55.022 0.526 7.29 76.7 9.43
5/7/2022 8:00:00 AM 12.74 54.932 0.514 7.31 55.08 9.43
5/7/2022 8:15:00 AM 12.72 54.896 0.516 7.32 66.58 9.42
5/7/2022 8:30:00 AM 12.7 54.86 0.51 7.32 58.54 9.47
5/7/2022 8:45:00 AM 12.65 54.77 0.498 7.33 48.71 9.49
5/7/2022 9:00:00 AM 12.54 54.572 0.476 7.35 45.06 9.57
5/7/2022 9:15:00 AM 12.47 54.446 0.456 7.34 44.97 9.65
5/7/2022 9:30:00 AM 12.44 54.392 0.448 7.33 61.39 9.69
5/7/2022 9:45:00 AM 12.39 54.302 0.432 7.3